PWSweather.com
Personal Weather Stations
Station Observations
WOODBURYWX
Lighthouse Rd, Woodbury, Woodbury, CT 06798

Lighthouse Rd, WoodburyWoodbury, CT 06798

Lat: 41.553333, Lon: -73.224167

Elevation: 437

Station Type: Ambient Weather WS-1090

Latest ConditionsUpdated 8:15:00 PM EDT Wednesday, Jul 23, 2014
Currently Today's Max Today's Min Today's Average
Temperature 78.6°F25.9°C 86.9°F30.5°C 66.0°F18.9°C 76.5°F24.7°C
Dew Point 73.1°F22.8°C 75.1°F23.9°C 65.5°F18.6°C 70.6°F21.4°C
Winds 1.5 mph S2.4 kmh S 5.7 mph SE9.2 kmh SE - 2.2 mph 3.5 kmh
Wind Gusts 1.9 mph3.1 kmh 8.3 mph13.4 kmh - -
Humidity 83% 99% 63% 83%
Pressure 29.80 in1009.1 mb 30.04 in1017.3 mb 29.77 in1008.1 mb -
Hour Temp Dew Point Humidity Winds Wind Gusts Pressure Precip Precip Rate Daily Precip Total
08:15 PM 78.6°F25.9°C 73.1°F22.8°C 83% 1.5 mph S2.4 kmh S 1.9 mph3.1 kmh 29.80 in1009.1 mb 0.00 in0.0 mm 0.00 in/hr0.0 mm/hr 0.00 in0.0 mm
08:14 PM 78.6°F25.9°C 73.1°F22.8°C 83% 1.6 mph S2.6 kmh S 2.7 mph4.3 kmh 29.80 in1009.1 mb 0.00 in0.0 mm 0.00 in/hr0.0 mm/hr 0.00 in0.0 mm
08:12 PM 78.8°F26.0°C 73.3°F22.9°C 83% 1.4 mph S2.3 kmh S 2.7 mph4.3 kmh 29.80 in1009.1 mb 0.00 in0.0 mm 0.00 in/hr0.0 mm/hr 0.00 in0.0 mm
08:11 PM 78.8°F26.0°C 73.3°F22.9°C 83% 1.3 mph S2.1 kmh S 2.7 mph4.3 kmh 29.80 in1009.1 mb 0.00 in0.0 mm 0.00 in/hr0.0 mm/hr 0.00 in0.0 mm
08:10 PM 78.8°F26.0°C 73.3°F22.9°C 83% 1.3 mph S2.1 kmh S 2.7 mph4.3 kmh 29.79 in1008.8 mb 0.00 in0.0 mm 0.00 in/hr0.0 mm/hr 0.00 in0.0 mm
08:09 PM 78.8°F26.0°C 73.3°F22.9°C 83% 1.2 mph S1.9 kmh S 2.7 mph4.3 kmh 29.80 in1009.1 mb 0.00 in0.0 mm 0.00 in/hr0.0 mm/hr 0.00 in0.0 mm
08:08 PM 78.8°F26.0°C 73.3°F22.9°C 83% 1.1 mph SSW1.8 kmh SSW 2.7 mph4.3 kmh 29.79 in1008.8 mb 0.00 in0.0 mm 0.00 in/hr0.0 mm/hr 0.00 in0.0 mm
08:07 PM 78.8°F26.0°C 73.3°F22.9°C 83% 1.0 mph SW1.6 kmh SW 2.7 mph4.3 kmh 29.79 in1008.8 mb 0.00 in0.0 mm 0.00 in/hr0.0 mm/hr 0.00 in0.0 mm
08:06 PM 78.8°F26.0°C 73.3°F22.9°C 83% 0.9 mph SW1.4 kmh SW 2.7 mph4.3 kmh 29.80 in1009.1 mb 0.00 in0.0 mm 0.00 in/hr0.0 mm/hr 0.00 in0.0 mm
08:05 PM 78.8°F26.0°C 73.3°F22.9°C 83% 1.0 mph SW1.6 kmh SW 2.7 mph4.3 kmh 29.79 in1008.8 mb 0.00 in0.0 mm 0.00 in/hr0.0 mm/hr 0.00 in0.0 mm
08:04 PM 79.0°F26.1°C 73.4°F23.0°C 83% 1.0 mph S1.6 kmh S 2.7 mph4.3 kmh 29.79 in1008.8 mb 0.00 in0.0 mm 0.00 in/hr0.0 mm/hr 0.00 in0.0 mm
08:03 PM 79.0°F26.1°C 73.4°F23.0°C 83% 1.1 mph S1.8 kmh S 2.7 mph4.3 kmh 29.79 in1008.8 mb 0.00 in0.0 mm 0.00 in/hr0.0 mm/hr 0.00 in0.0 mm
08:02 PM 79.0°F26.1°C 73.4°F23.0°C 83% 1.2 mph S1.9 kmh S 2.7 mph4.3 kmh 29.79 in1008.8 mb 0.00 in0.0 mm 0.00 in/hr0.0 mm/hr 0.00 in0.0 mm
08:01 PM 79.0°F26.1°C 73.4°F23.0°C 83% 1.2 mph SSW1.9 kmh SSW 2.7 mph4.3 kmh 29.79 in1008.8 mb 0.00 in0.0 mm 0.00 in/hr0.0 mm/hr 0.00 in0.0 mm
08:00 PM 79.0°F26.1°C 73.4°F23.0°C 83% 1.4 mph S2.3 kmh S 3.8 mph6.1 kmh 29.79 in1008.8 mb 0.00 in0.0 mm 0.00 in/hr0.0 mm/hr 0.00 in0.0 mm
07:59 PM 79.0°F26.1°C 73.4°F23.0°C 83% 1.7 mph SSW2.7 kmh SSW 3.8 mph6.1 kmh 29.79 in1008.8 mb 0.00 in0.0 mm 0.00 in/hr0.0 mm/hr 0.00 in0.0 mm
07:58 PM 79.0°F26.1°C 73.4°F23.0°C 83% 1.7 mph SW2.7 kmh SW 3.8 mph6.1 kmh 29.79 in1008.8 mb 0.00 in0.0 mm 0.00 in/hr0.0 mm/hr 0.00 in0.0 mm
07:57 PM 79.0°F26.1°C 73.4°F23.0°C 83% 1.9 mph SW3.1 kmh SW 3.8 mph6.1 kmh 29.79 in1008.8 mb 0.00 in0.0 mm 0.00 in/hr0.0 mm/hr 0.00 in0.0 mm
07:56 PM 79.2°F26.2°C 73.6°F23.1°C 83% 2.3 mph SW3.7 kmh SW 3.8 mph6.1 kmh 29.79 in1008.8 mb 0.00 in0.0 mm 0.00 in/hr0.0 mm/hr 0.00 in0.0 mm
07:55 PM 79.2°F26.2°C 73.6°F23.1°C 83% 2.5 mph SSW4.0 kmh SSW 3.8 mph6.1 kmh 29.79 in1008.8 mb 0.00 in0.0 mm 0.00 in/hr0.0 mm/hr 0.00 in0.0 mm
07:54 PM 79.2°F26.2°C 73.6°F23.1°C 83% 2.6 mph SSW4.2 kmh SSW 3.8 mph6.1 kmh 29.79 in1008.8 mb 0.00 in0.0 mm 0.00 in/hr0.0 mm/hr 0.00 in0.0 mm
07:53 PM 79.2°F26.2°C 73.6°F23.1°C 83% 2.7 mph SSW4.3 kmh SSW 3.8 mph6.1 kmh 29.79 in1008.8 mb 0.00 in0.0 mm 0.00 in/hr0.0 mm/hr 0.00 in0.0 mm
07:52 PM 79.2°F26.2°C 73.6°F23.1°C 83% 2.8 mph SSW4.5 kmh SSW 3.8 mph6.1 kmh 29.79 in1008.8 mb 0.00 in0.0 mm 0.00 in/hr0.0 mm/hr 0.00 in0.0 mm
07:51 PM 79.2°F26.2°C 73.6°F23.1°C 83% 3.0 mph SSW4.8 kmh SSW 3.8 mph6.1 kmh 29.79 in1008.8 mb 0.00 in0.0 mm 0.00 in/hr0.0 mm/hr 0.00 in0.0 mm
07:50 PM 79.2°F26.2°C 73.6°F23.1°C 83% 2.8 mph SSW4.5 kmh SSW 3.8 mph6.1 kmh 29.79 in1008.8 mb 0.00 in0.0 mm 0.00 in/hr0.0 mm/hr 0.00 in0.0 mm
07:49 PM 79.2°F26.2°C 73.6°F23.1°C 83% 2.7 mph SSW4.3 kmh SSW 3.8 mph6.1 kmh 29.78 in1008.5 mb 0.00 in0.0 mm 0.00 in/hr0.0 mm/hr 0.00 in0.0 mm
07:48 PM 79.2°F26.2°C 73.6°F23.1°C 83% 2.8 mph SSW4.5 kmh SSW 3.8 mph6.1 kmh 29.78 in1008.5 mb 0.00 in0.0 mm 0.00 in/hr0.0 mm/hr 0.00 in0.0 mm
07:47 PM 79.2°F26.2°C 73.6°F23.1°C 83% 2.7 mph SSW4.3 kmh SSW 3.8 mph6.1 kmh 29.78 in1008.5 mb 0.00 in0.0 mm 0.00 in/hr0.0 mm/hr 0.00 in0.0 mm
07:46 PM 79.2°F26.2°C 73.6°F23.1°C 83% 2.6 mph SSW4.2 kmh SSW 3.8 mph6.1 kmh 29.78 in1008.5 mb 0.00 in0.0 mm 0.00 in/hr0.0 mm/hr 0.00 in0.0 mm
07:45 PM 79.2°F26.2°C 73.6°F23.1°C 83% 2.5 mph SSW4.0 kmh SSW 2.7 mph4.3 kmh 29.78 in1008.5 mb 0.00 in0.0 mm 0.00 in/hr0.0 mm/hr 0.00 in0.0 mm
07:44 PM 79.2°F26.2°C 73.6°F23.1°C 83% 2.4 mph SSW3.9 kmh SSW 2.7 mph4.3 kmh 29.79 in1008.8 mb 0.00 in0.0 mm 0.00 in/hr0.0 mm/hr 0.00 in0.0 mm
07:43 PM 79.3°F26.3°C 73.8°F23.2°C 83% 2.4 mph SSW3.9 kmh SSW 2.7 mph4.3 kmh 29.78 in1008.5 mb 0.00 in0.0 mm 0.00 in/hr0.0 mm/hr 0.00 in0.0 mm
07:42 PM 79.3°F26.3°C 73.8°F23.2°C 83% 2.4 mph SSW3.9 kmh SSW 2.7 mph4.3 kmh 29.78 in1008.5 mb 0.00 in0.0 mm 0.00 in/hr0.0 mm/hr 0.00 in0.0 mm
07:41 PM 79.3°F26.3°C 73.4°F23.0°C 82% 2.4 mph SSW3.9 kmh SSW 2.7 mph4.3 kmh 29.78 in1008.5 mb 0.00 in0.0 mm 0.00 in/hr0.0 mm/hr 0.00 in0.0 mm
07:40 PM 79.3°F26.3°C 73.4°F23.0°C 82% 2.4 mph SSW3.9 kmh SSW 2.7 mph4.3 kmh 29.78 in1008.5 mb 0.00 in0.0 mm 0.00 in/hr0.0 mm/hr 0.00 in0.0 mm
07:39 PM 79.3°F26.3°C 73.4°F23.0°C 82% 2.5 mph SSW4.0 kmh SSW 3.8 mph6.1 kmh 29.78 in1008.5 mb 0.00 in0.0 mm 0.00 in/hr0.0 mm/hr 0.00 in0.0 mm
07:38 PM 79.5°F26.4°C 73.6°F23.1°C 82% 2.6 mph SSW4.2 kmh SSW 3.8 mph6.1 kmh 29.78 in1008.5 mb 0.00 in0.0 mm 0.00 in/hr0.0 mm/hr 0.00 in0.0 mm
07:37 PM 79.5°F26.4°C 73.6°F23.1°C 82% 2.7 mph SSW4.3 kmh SSW 3.8 mph6.1 kmh 29.78 in1008.5 mb 0.00 in0.0 mm 0.00 in/hr0.0 mm/hr 0.00 in0.0 mm
07:36 PM 79.5°F26.4°C 73.6°F23.1°C 82% 2.7 mph SSW4.3 kmh SSW 3.8 mph6.1 kmh 29.78 in1008.5 mb 0.00 in0.0 mm 0.00 in/hr0.0 mm/hr 0.00 in0.0 mm
07:35 PM 79.5°F26.4°C 73.6°F23.1°C 82% 2.6 mph SSW4.2 kmh SSW 3.8 mph6.1 kmh 29.78 in1008.5 mb 0.00 in0.0 mm 0.00 in/hr0.0 mm/hr 0.00 in0.0 mm
07:34 PM 79.5°F26.4°C 73.6°F23.1°C 82% 2.6 mph SSW4.2 kmh SSW 3.8 mph6.1 kmh 29.78 in1008.5 mb 0.00 in0.0 mm 0.00 in/hr0.0 mm/hr 0.00 in0.0 mm
07:33 PM 79.5°F26.4°C 73.6°F23.1°C 82% 2.6 mph SSW4.2 kmh SSW 3.8 mph6.1 kmh 29.78 in1008.5 mb 0.00 in0.0 mm 0.00 in/hr0.0 mm/hr 0.00 in0.0 mm
07:32 PM 79.7°F26.5°C 73.8°F23.2°C 82% 2.5 mph SSW4.0 kmh SSW 3.8 mph6.1 kmh 29.78 in1008.5 mb 0.00 in0.0 mm 0.00 in/hr0.0 mm/hr 0.00 in0.0 mm
07:31 PM 79.7°F26.5°C 73.8°F23.2°C 82% 2.5 mph SSW4.0 kmh SSW 3.8 mph6.1 kmh 29.77 in1008.1 mb 0.00 in0.0 mm 0.00 in/hr0.0 mm/hr 0.00 in0.0 mm
07:30 PM 79.7°F26.5°C 73.8°F23.2°C 82% 2.5 mph SSW4.0 kmh SSW 3.8 mph6.1 kmh 29.78 in1008.5 mb 0.00 in0.0 mm 0.00 in/hr0.0 mm/hr 0.00 in0.0 mm
07:29 PM 79.7°F26.5°C 73.8°F23.2°C 82% 2.4 mph SSW3.9 kmh SSW 3.8 mph6.1 kmh 29.78 in1008.5 mb 0.00 in0.0 mm 0.00 in/hr0.0 mm/hr 0.00 in0.0 mm
07:28 PM 79.7°F26.5°C 73.8°F23.2°C 82% 2.3 mph S3.7 kmh S 3.8 mph6.1 kmh 29.78 in1008.5 mb 0.00 in0.0 mm 0.00 in/hr0.0 mm/hr 0.00 in0.0 mm
07:27 PM 79.7°F26.5°C 73.8°F23.2°C 82% 2.1 mph SSW3.4 kmh SSW 2.7 mph4.3 kmh 29.78 in1008.5 mb 0.00 in0.0 mm 0.00 in/hr0.0 mm/hr 0.00 in0.0 mm
07:26 PM 79.7°F26.5°C 73.8°F23.2°C 82% 2.1 mph S3.4 kmh S 2.7 mph4.3 kmh 29.78 in1008.5 mb 0.00 in0.0 mm 0.00 in/hr0.0 mm/hr 0.00 in0.0 mm
07:25 PM 79.7°F26.5°C 73.8°F23.2°C 82% 2.1 mph S3.4 kmh S 2.7 mph4.3 kmh 29.78 in1008.5 mb 0.00 in0.0 mm 0.00 in/hr0.0 mm/hr 0.00 in0.0 mm
07:24 PM 79.7°F26.5°C 73.8°F23.2°C 82% 2.0 mph S3.2 kmh S 2.7 mph4.3 kmh 29.78 in1008.5 mb 0.00 in0.0 mm 0.00 in/hr0.0 mm/hr 0.00 in0.0 mm
07:23 PM 79.7°F26.5°C 73.8°F23.2°C 82% 2.0 mph S3.2 kmh S 2.7 mph4.3 kmh 29.78 in1008.5 mb 0.00 in0.0 mm 0.00 in/hr0.0 mm/hr 0.00 in0.0 mm
07:22 PM 79.7°F26.5°C 73.8°F23.2°C 82% 2.0 mph S3.2 kmh S 3.8 mph6.1 kmh 29.78 in1008.5 mb 0.00 in0.0 mm 0.00 in/hr0.0 mm/hr 0.00 in0.0 mm
07:21 PM 79.7°F26.5°C 73.8°F23.2°C 82% 2.1 mph S3.4 kmh S 3.8 mph6.1 kmh 29.78 in1008.5 mb 0.00 in0.0 mm 0.00 in/hr0.0 mm/hr 0.00 in0.0 mm
07:20 PM 79.7°F26.5°C 73.8°F23.2°C 82% 2.0 mph S3.2 kmh S 3.8 mph6.1 kmh 29.78 in1008.5 mb 0.00 in0.0 mm 0.00 in/hr0.0 mm/hr 0.00 in0.0 mm
07:19 PM 79.9°F26.6°C 73.6°F23.1°C 81% 2.0 mph S3.2 kmh S 3.8 mph6.1 kmh 29.78 in1008.5 mb 0.00 in0.0 mm 0.00 in/hr0.0 mm/hr 0.00 in0.0 mm
07:18 PM 79.9°F26.6°C 73.6°F23.1°C 81% 2.0 mph S3.2 kmh S 3.8 mph6.1 kmh 29.78 in1008.5 mb 0.00 in0.0 mm 0.00 in/hr0.0 mm/hr 0.00 in0.0 mm
07:17 PM 80.1°F26.7°C 73.8°F23.2°C 81% 2.0 mph S3.2 kmh S 3.8 mph6.1 kmh 29.78 in1008.5 mb 0.00 in0.0 mm 0.00 in/hr0.0 mm/hr 0.00 in0.0 mm
07:16 PM 80.1°F26.7°C 73.8°F23.2°C 81% 2.2 mph S3.5 kmh S 3.8 mph6.1 kmh 29.79 in1008.8 mb 0.00 in0.0 mm 0.00 in/hr0.0 mm/hr 0.00 in0.0 mm
07:15 PM 80.1°F26.7°C 73.8°F23.2°C 81% 2.3 mph S3.7 kmh S 3.8 mph6.1 kmh 29.78 in1008.5 mb 0.00 in0.0 mm 0.00 in/hr0.0 mm/hr 0.00 in0.0 mm
07:14 PM 80.1°F26.7°C 73.8°F23.2°C 81% 2.3 mph S3.7 kmh S 3.8 mph6.1 kmh 29.79 in1008.8 mb 0.00 in0.0 mm 0.00 in/hr0.0 mm/hr 0.00 in0.0 mm
07:13 PM 80.1°F26.7°C 73.8°F23.2°C 81% 2.4 mph S3.9 kmh S 3.8 mph6.1 kmh 29.79 in1008.8 mb 0.00 in0.0 mm 0.00 in/hr0.0 mm/hr 0.00 in0.0 mm
07:12 PM 80.1°F26.7°C 73.8°F23.2°C 81% 2.6 mph S4.2 kmh S 4.6 mph7.4 kmh 29.79 in1008.8 mb 0.00 in0.0 mm 0.00 in/hr0.0 mm/hr 0.00 in0.0 mm
07:11 PM 80.2°F26.8°C 73.9°F23.3°C 81% 2.7 mph S4.3 kmh S 4.6 mph7.4 kmh 29.79 in1008.8 mb 0.00 in0.0 mm 0.00 in/hr0.0 mm/hr 0.00 in0.0 mm
07:10 PM 80.2°F26.8°C 73.9°F23.3°C 81% 2.8 mph S4.5 kmh S 4.6 mph7.4 kmh 29.79 in1008.8 mb 0.00 in0.0 mm 0.00 in/hr0.0 mm/hr 0.00 in0.0 mm
07:09 PM 80.2°F26.8°C 73.9°F23.3°C 81% 2.9 mph S4.7 kmh S 4.6 mph7.4 kmh 29.79 in1008.8 mb 0.00 in0.0 mm 0.00 in/hr0.0 mm/hr 0.00 in0.0 mm
07:08 PM 80.2°F26.8°C 73.9°F23.3°C 81% 3.0 mph S4.8 kmh S 4.6 mph7.4 kmh 29.79 in1008.8 mb 0.00 in0.0 mm 0.00 in/hr0.0 mm/hr 0.00 in0.0 mm
07:07 PM 80.2°F26.8°C 73.6°F23.1°C 80% 3.2 mph S5.1 kmh S 4.6 mph7.4 kmh 29.79 in1008.8 mb 0.00 in0.0 mm 0.00 in/hr0.0 mm/hr 0.00 in0.0 mm
07:06 PM 80.4°F26.9°C 73.7°F23.2°C 80% 3.2 mph S5.1 kmh S 4.6 mph7.4 kmh 29.79 in1008.8 mb 0.00 in0.0 mm 0.00 in/hr0.0 mm/hr 0.00 in0.0 mm
07:05 PM 80.4°F26.9°C 73.7°F23.2°C 80% 3.3 mph S5.3 kmh S 4.6 mph7.4 kmh 29.79 in1008.8 mb 0.00 in0.0 mm 0.00 in/hr0.0 mm/hr 0.00 in0.0 mm
07:04 PM 80.4°F26.9°C 73.7°F23.2°C 80% 3.4 mph S5.5 kmh S 4.6 mph7.4 kmh 29.79 in1008.8 mb 0.00 in0.0 mm 0.00 in/hr0.0 mm/hr 0.00 in0.0 mm
07:03 PM 80.4°F26.9°C 73.7°F23.2°C 80% 3.4 mph SSE5.5 kmh SSE 4.6 mph7.4 kmh 29.79 in1008.8 mb 0.00 in0.0 mm 0.00 in/hr0.0 mm/hr 0.00 in0.0 mm
07:02 PM 80.6°F27.0°C 73.9°F23.3°C 80% 3.3 mph S5.3 kmh S 3.8 mph6.1 kmh 29.78 in1008.5 mb 0.00 in0.0 mm 0.00 in/hr0.0 mm/hr 0.00 in0.0 mm
07:01 PM 80.6°F27.0°C 73.9°F23.3°C 80% 3.3 mph S5.3 kmh S 3.8 mph6.1 kmh 29.79 in1008.8 mb 0.00 in0.0 mm 0.00 in/hr0.0 mm/hr 0.00 in0.0 mm
07:00 PM 80.6°F27.0°C 73.9°F23.3°C 80% 3.3 mph S5.3 kmh S 3.8 mph6.1 kmh 29.78 in1008.5 mb 0.00 in0.0 mm 0.00 in/hr0.0 mm/hr 0.00 in0.0 mm
06:59 PM 80.6°F27.0°C 73.9°F23.3°C 80% 3.3 mph S5.3 kmh S 5.4 mph8.7 kmh 29.78 in1008.5 mb 0.00 in0.0 mm 0.00 in/hr0.0 mm/hr 0.00 in0.0 mm
06:58 PM 80.6°F27.0°C 73.9°F23.3°C 80% 3.4 mph S5.5 kmh S 5.4 mph8.7 kmh 29.78 in1008.5 mb 0.00 in0.0 mm 0.00 in/hr0.0 mm/hr 0.00 in0.0 mm
06:57 PM 80.6°F27.0°C 73.9°F23.3°C 80% 3.4 mph S5.5 kmh S 5.4 mph8.7 kmh 29.78 in1008.5 mb 0.00 in0.0 mm 0.00 in/hr0.0 mm/hr 0.00 in0.0 mm
06:56 PM 80.6°F27.0°C 73.9°F23.3°C 80% 3.4 mph S5.5 kmh S 5.4 mph8.7 kmh 29.78 in1008.5 mb 0.00 in0.0 mm 0.00 in/hr0.0 mm/hr 0.00 in0.0 mm
06:55 PM 80.8°F27.1°C 74.1°F23.4°C 80% 3.5 mph S5.6 kmh S 5.4 mph8.7 kmh 29.78 in1008.5 mb 0.00 in0.0 mm 0.00 in/hr0.0 mm/hr 0.00 in0.0 mm
06:54 PM 80.8°F27.1°C 74.1°F23.4°C 80% 3.6 mph S5.8 kmh S 5.4 mph8.7 kmh 29.77 in1008.1 mb 0.00 in0.0 mm 0.00 in/hr0.0 mm/hr 0.00 in0.0 mm
06:53 PM 80.8°F27.1°C 74.1°F23.4°C 80% 3.7 mph S6.0 kmh S 5.4 mph8.7 kmh 29.78 in1008.5 mb 0.00 in0.0 mm 0.00 in/hr0.0 mm/hr 0.00 in0.0 mm
06:52 PM 80.8°F27.1°C 74.1°F23.4°C 80% 3.6 mph S5.8 kmh S 5.4 mph8.7 kmh 29.77 in1008.1 mb 0.00 in0.0 mm 0.00 in/hr0.0 mm/hr 0.00 in0.0 mm
06:51 PM 80.8°F27.1°C 74.1°F23.4°C 80% 3.6 mph S5.8 kmh S 5.4 mph8.7 kmh 29.78 in1008.5 mb 0.00 in0.0 mm 0.00 in/hr0.0 mm/hr 0.00 in0.0 mm
06:50 PM 80.8°F27.1°C 74.1°F23.4°C 80% 3.6 mph S5.8 kmh S 5.4 mph8.7 kmh 29.77 in1008.1 mb 0.00 in0.0 mm 0.00 in/hr0.0 mm/hr 0.00 in0.0 mm
06:49 PM 80.8°F27.1°C 74.1°F23.4°C 80% 3.6 mph S5.8 kmh S 5.4 mph8.7 kmh 29.77 in1008.1 mb 0.00 in0.0 mm 0.00 in/hr0.0 mm/hr 0.00 in0.0 mm
06:48 PM 80.8°F27.1°C 74.1°F23.4°C 80% 3.6 mph S5.8 kmh S 4.6 mph7.4 kmh 29.77 in1008.1 mb 0.00 in0.0 mm 0.00 in/hr0.0 mm/hr 0.00 in0.0 mm
06:47 PM 81.0°F27.2°C 74.3°F23.5°C 80% 3.6 mph S5.8 kmh S 4.6 mph7.4 kmh 29.78 in1008.5 mb 0.00 in0.0 mm 0.00 in/hr0.0 mm/hr 0.00 in0.0 mm
06:46 PM 81.0°F27.2°C 74.3°F23.5°C 80% 3.6 mph S5.8 kmh S 4.6 mph7.4 kmh 29.78 in1008.5 mb 0.00 in0.0 mm 0.00 in/hr0.0 mm/hr 0.00 in0.0 mm
06:45 PM 81.0°F27.2°C 74.3°F23.5°C 80% 3.5 mph S5.6 kmh S 4.6 mph7.4 kmh 29.78 in1008.5 mb 0.00 in0.0 mm 0.00 in/hr0.0 mm/hr 0.00 in0.0 mm
06:44 PM 81.1°F27.3°C 74.4°F23.6°C 80% 3.4 mph SSW5.5 kmh SSW 4.6 mph7.4 kmh 29.78 in1008.5 mb 0.00 in0.0 mm 0.00 in/hr0.0 mm/hr 0.00 in0.0 mm
06:43 PM 81.1°F27.3°C 74.4°F23.6°C 80% 3.3 mph SSW5.3 kmh SSW 4.6 mph7.4 kmh 29.78 in1008.5 mb 0.00 in0.0 mm 0.00 in/hr0.0 mm/hr 0.00 in0.0 mm
06:42 PM 81.1°F27.3°C 74.1°F23.4°C 79% 3.4 mph SSW5.5 kmh SSW 4.6 mph7.4 kmh 29.78 in1008.5 mb 0.00 in0.0 mm 0.00 in/hr0.0 mm/hr 0.00 in0.0 mm
06:41 PM 81.1°F27.3°C 74.4°F23.6°C 80% 3.5 mph S5.6 kmh S 4.6 mph7.4 kmh 29.78 in1008.5 mb 0.00 in0.0 mm 0.00 in/hr0.0 mm/hr 0.00 in0.0 mm
06:40 PM 81.1°F27.3°C 74.1°F23.4°C 79% 3.7 mph S6.0 kmh S 4.6 mph7.4 kmh 29.78 in1008.5 mb 0.00 in0.0 mm 0.00 in/hr0.0 mm/hr 0.00 in0.0 mm
06:39 PM 81.1°F27.3°C 74.1°F23.4°C 79% 3.6 mph S5.8 kmh S 4.6 mph7.4 kmh 29.79 in1008.8 mb 0.00 in0.0 mm 0.00 in/hr0.0 mm/hr 0.00 in0.0 mm
06:38 PM 81.1°F27.3°C 74.1°F23.4°C 79% 3.4 mph S5.5 kmh S 4.6 mph7.4 kmh 29.78 in1008.5 mb 0.00 in0.0 mm 0.00 in/hr0.0 mm/hr 0.00 in0.0 mm
06:37 PM 81.3°F27.4°C 74.2°F23.4°C 79% 3.3 mph S5.3 kmh S 4.6 mph7.4 kmh 29.79 in1008.8 mb 0.00 in0.0 mm 0.00 in/hr0.0 mm/hr 0.00 in0.0 mm
06:36 PM 81.3°F27.4°C 74.2°F23.4°C 79% 3.2 mph S5.1 kmh S 4.6 mph7.4 kmh 29.79 in1008.8 mb 0.00 in0.0 mm 0.00 in/hr0.0 mm/hr 0.00 in0.0 mm
06:35 PM 81.3°F27.4°C 74.2°F23.4°C 79% 3.4 mph S5.5 kmh S 5.4 mph8.7 kmh 29.79 in1008.8 mb 0.00 in0.0 mm 0.00 in/hr0.0 mm/hr 0.00 in0.0 mm
06:34 PM 81.3°F27.4°C 74.2°F23.4°C 79% 3.5 mph S5.6 kmh S 5.4 mph8.7 kmh 29.79 in1008.8 mb 0.00 in0.0 mm 0.00 in/hr0.0 mm/hr 0.00 in0.0 mm
06:33 PM 81.3°F27.4°C 74.2°F23.4°C 79% 3.5 mph S5.6 kmh S 5.4 mph8.7 kmh 29.79 in1008.8 mb 0.00 in0.0 mm 0.00 in/hr0.0 mm/hr 0.00 in0.0 mm
06:32 PM 81.3°F27.4°C 74.2°F23.4°C 79% 3.6 mph S5.8 kmh S 5.4 mph8.7 kmh 29.79 in1008.8 mb 0.00 in0.0 mm 0.00 in/hr0.0 mm/hr 0.00 in0.0 mm
06:31 PM 81.3°F27.4°C 74.2°F23.4°C 79% 3.5 mph S5.6 kmh S 5.4 mph8.7 kmh 29.79 in1008.8 mb 0.00 in0.0 mm 0.00 in/hr0.0 mm/hr 0.00 in0.0 mm
06:30 PM 81.5°F27.5°C 74.4°F23.6°C 79% 3.3 mph S5.3 kmh S 5.4 mph8.7 kmh 29.79 in1008.8 mb 0.00 in0.0 mm 0.00 in/hr0.0 mm/hr 0.00 in0.0 mm
06:29 PM 81.3°F27.4°C 74.2°F23.4°C 79% 3.4 mph S5.5 kmh S 5.4 mph8.7 kmh 29.80 in1009.1 mb 0.00 in0.0 mm 0.00 in/hr0.0 mm/hr 0.00 in0.0 mm
06:28 PM 81.5°F27.5°C 74.4°F23.6°C 79% 3.5 mph S5.6 kmh S 5.4 mph8.7 kmh 29.79 in1008.8 mb 0.00 in0.0 mm 0.00 in/hr0.0 mm/hr 0.00 in0.0 mm
06:27 PM 81.3°F27.4°C 74.2°F23.4°C 79% 3.5 mph S5.6 kmh S 5.4 mph8.7 kmh 29.79 in1008.8 mb 0.00 in0.0 mm 0.00 in/hr0.0 mm/hr 0.00 in0.0 mm
06:26 PM 81.5°F27.5°C 74.4°F23.6°C 79% 3.5 mph S5.6 kmh S 5.4 mph8.7 kmh 29.79 in1008.8 mb 0.00 in0.0 mm 0.00 in/hr0.0 mm/hr 0.00 in0.0 mm
06:25 PM 81.5°F27.5°C 74.4°F23.6°C 79% 3.3 mph S5.3 kmh S 3.8 mph6.1 kmh 29.79 in1008.8 mb 0.00 in0.0 mm 0.00 in/hr0.0 mm/hr 0.00 in0.0 mm
06:24 PM 81.5°F27.5°C 74.4°F23.6°C 79% 3.2 mph S5.1 kmh S 3.8 mph6.1 kmh 29.79 in1008.8 mb 0.00 in0.0 mm 0.00 in/hr0.0 mm/hr 0.00 in0.0 mm
06:23 PM 81.5°F27.5°C 74.4°F23.6°C 79% 3.0 mph S4.8 kmh S 3.8 mph6.1 kmh 29.79 in1008.8 mb 0.00 in0.0 mm 0.00 in/hr0.0 mm/hr 0.00 in0.0 mm
06:22 PM 81.5°F27.5°C 74.4°F23.6°C 79% 2.9 mph S4.7 kmh S 3.8 mph6.1 kmh 29.79 in1008.8 mb 0.00 in0.0 mm 0.00 in/hr0.0 mm/hr 0.00 in0.0 mm
06:21 PM 81.5°F27.5°C 74.4°F23.6°C 79% 2.7 mph S4.3 kmh S 3.8 mph6.1 kmh 29.79 in1008.8 mb 0.00 in0.0 mm 0.00 in/hr0.0 mm/hr 0.00 in0.0 mm
06:20 PM 81.7°F27.6°C 74.2°F23.4°C 78% 2.7 mph S4.3 kmh S 3.8 mph6.1 kmh 29.79 in1008.8 mb 0.00 in0.0 mm 0.00 in/hr0.0 mm/hr 0.00 in0.0 mm
06:19 PM 81.7°F27.6°C 74.2°F23.4°C 78% 2.7 mph S4.3 kmh S 4.6 mph7.4 kmh 29.79 in1008.8 mb 0.00 in0.0 mm 0.00 in/hr0.0 mm/hr 0.00 in0.0 mm
06:18 PM 81.7°F27.6°C 74.2°F23.4°C 78% 2.7 mph S4.3 kmh S 4.6 mph7.4 kmh 29.79 in1008.8 mb 0.00 in0.0 mm 0.00 in/hr0.0 mm/hr 0.00 in0.0 mm
06:17 PM 81.7°F27.6°C 74.2°F23.4°C 78% 2.9 mph S4.7 kmh S 4.6 mph7.4 kmh 29.79 in1008.8 mb 0.00 in0.0 mm 0.00 in/hr0.0 mm/hr 0.00 in0.0 mm
06:16 PM 81.7°F27.6°C 74.2°F23.4°C 78% 3.2 mph S5.1 kmh S 5.4 mph8.7 kmh 29.79 in1008.8 mb 0.00 in0.0 mm 0.00 in/hr0.0 mm/hr 0.00 in0.0 mm
06:15 PM 81.7°F27.6°C 74.2°F23.4°C 78% 3.2 mph S5.1 kmh S 5.4 mph8.7 kmh 29.79 in1008.8 mb 0.00 in0.0 mm 0.00 in/hr0.0 mm/hr 0.00 in0.0 mm
06:14 PM 81.7°F27.6°C 74.2°F23.4°C 78% 3.3 mph S5.3 kmh S 5.4 mph8.7 kmh 29.79 in1008.8 mb 0.00 in0.0 mm 0.00 in/hr0.0 mm/hr 0.00 in0.0 mm
06:13 PM 81.9°F27.7°C 74.4°F23.6°C 78% 3.5 mph S5.6 kmh S 5.4 mph8.7 kmh 29.79 in1008.8 mb 0.00 in0.0 mm 0.00 in/hr0.0 mm/hr 0.00 in0.0 mm
06:12 PM 81.9°F27.7°C 74.4°F23.6°C 78% 3.7 mph S6.0 kmh S 5.4 mph8.7 kmh 29.78 in1008.5 mb 0.00 in0.0 mm 0.00 in/hr0.0 mm/hr 0.00 in0.0 mm
06:11 PM 81.9°F27.7°C 74.4°F23.6°C 78% 3.9 mph S6.3 kmh S 5.4 mph8.7 kmh 29.79 in1008.8 mb 0.00 in0.0 mm 0.00 in/hr0.0 mm/hr 0.00 in0.0 mm
06:10 PM 81.9°F27.7°C 74.4°F23.6°C 78% 3.9 mph SSE6.3 kmh SSE 5.4 mph8.7 kmh 29.79 in1008.8 mb 0.00 in0.0 mm 0.00 in/hr0.0 mm/hr 0.00 in0.0 mm
06:09 PM 81.9°F27.7°C 74.4°F23.6°C 78% 3.9 mph SSE6.3 kmh SSE 5.4 mph8.7 kmh 29.79 in1008.8 mb 0.00 in0.0 mm 0.00 in/hr0.0 mm/hr 0.00 in0.0 mm
06:08 PM 81.9°F27.7°C 74.4°F23.6°C 78% 4.0 mph S6.4 kmh S 5.4 mph8.7 kmh 29.79 in1008.8 mb 0.00 in0.0 mm 0.00 in/hr0.0 mm/hr 0.00 in0.0 mm
06:07 PM 81.9°F27.7°C 74.4°F23.6°C 78% 3.9 mph S6.3 kmh S 5.4 mph8.7 kmh 29.79 in1008.8 mb 0.00 in0.0 mm 0.00 in/hr0.0 mm/hr 0.00 in0.0 mm
06:06 PM 81.9°F27.7°C 74.4°F23.6°C 78% 3.8 mph SSE6.1 kmh SSE 4.6 mph7.4 kmh 29.79 in1008.8 mb 0.00 in0.0 mm 0.00 in/hr0.0 mm/hr 0.00 in0.0 mm
06:05 PM 81.9°F27.7°C 74.0°F23.3°C 77% 4.0 mph SSE6.4 kmh SSE 4.6 mph7.4 kmh 29.78 in1008.5 mb 0.00 in0.0 mm 0.00 in/hr0.0 mm/hr 0.00 in0.0 mm
06:04 PM 81.9°F27.7°C 74.4°F23.6°C 78% 3.9 mph S6.3 kmh S 4.6 mph7.4 kmh 29.78 in1008.5 mb 0.00 in0.0 mm 0.00 in/hr0.0 mm/hr 0.00 in0.0 mm
06:03 PM 81.9°F27.7°C 74.0°F23.3°C 77% 4.0 mph SSE6.4 kmh SSE 6.4 mph10.3 kmh 29.78 in1008.5 mb 0.00 in0.0 mm 0.00 in/hr0.0 mm/hr 0.00 in0.0 mm
06:02 PM 81.9°F27.7°C 74.0°F23.3°C 77% 4.0 mph SE6.4 kmh SE 6.4 mph10.3 kmh 29.78 in1008.5 mb 0.00 in0.0 mm 0.00 in/hr0.0 mm/hr 0.00 in0.0 mm
06:01 PM 81.9°F27.7°C 74.0°F23.3°C 77% 4.0 mph S6.4 kmh S 6.4 mph10.3 kmh 29.78 in1008.5 mb 0.00 in0.0 mm 0.00 in/hr0.0 mm/hr 0.00 in0.0 mm
06:00 PM 82.0°F27.8°C 74.2°F23.4°C 77% 4.0 mph S6.4 kmh S 6.4 mph10.3 kmh 29.78 in1008.5 mb 0.00 in0.0 mm 0.00 in/hr0.0 mm/hr 0.00 in0.0 mm
05:59 PM 82.0°F27.8°C 74.2°F23.4°C 77% 4.1 mph S6.6 kmh S 6.4 mph10.3 kmh 29.78 in1008.5 mb 0.00 in0.0 mm 0.00 in/hr0.0 mm/hr 0.00 in0.0 mm
05:58 PM 82.0°F27.8°C 74.2°F23.4°C 77% 4.1 mph S6.6 kmh S 6.4 mph10.3 kmh 29.79 in1008.8 mb 0.00 in0.0 mm 0.00 in/hr0.0 mm/hr 0.00 in0.0 mm
05:57 PM 82.0°F27.8°C 74.2°F23.4°C 77% 4.1 mph S6.6 kmh S 6.4 mph10.3 kmh 29.78 in1008.5 mb 0.00 in0.0 mm 0.00 in/hr0.0 mm/hr 0.00 in0.0 mm
05:56 PM 82.0°F27.8°C 74.2°F23.4°C 77% 4.1 mph S6.6 kmh S 6.4 mph10.3 kmh 29.79 in1008.8 mb 0.00 in0.0 mm 0.00 in/hr0.0 mm/hr 0.00 in0.0 mm
05:55 PM 82.0°F27.8°C 74.2°F23.4°C 77% 4.1 mph S6.6 kmh S 6.4 mph10.3 kmh 29.78 in1008.5 mb 0.00 in0.0 mm 0.00 in/hr0.0 mm/hr 0.00 in0.0 mm
05:54 PM 82.0°F27.8°C 74.2°F23.4°C 77% 4.1 mph S6.6 kmh S 6.4 mph10.3 kmh 29.78 in1008.5 mb 0.00 in0.0 mm 0.00 in/hr0.0 mm/hr 0.00 in0.0 mm
05:53 PM 82.0°F27.8°C 74.2°F23.4°C 77% 4.2 mph S6.8 kmh S 6.4 mph10.3 kmh 29.78 in1008.5 mb 0.00 in0.0 mm 0.00 in/hr0.0 mm/hr 0.00 in0.0 mm
05:52 PM 82.2°F27.9°C 74.3°F23.5°C 77% 4.3 mph S6.9 kmh S 6.4 mph10.3 kmh 29.79 in1008.8 mb 0.00 in0.0 mm 0.00 in/hr0.0 mm/hr 0.00 in0.0 mm
05:51 PM 82.2°F27.9°C 74.3°F23.5°C 77% 4.3 mph S6.9 kmh S 6.4 mph10.3 kmh 29.78 in1008.5 mb 0.00 in0.0 mm 0.00 in/hr0.0 mm/hr 0.00 in0.0 mm
05:50 PM 82.2°F27.9°C 74.3°F23.5°C 77% 4.4 mph S7.1 kmh S 6.4 mph10.3 kmh 29.78 in1008.5 mb 0.00 in0.0 mm 0.00 in/hr0.0 mm/hr 0.00 in0.0 mm
05:49 PM 82.2°F27.9°C 74.3°F23.5°C 77% 4.3 mph SSW6.9 kmh SSW 6.4 mph10.3 kmh 29.78 in1008.5 mb 0.00 in0.0 mm 0.00 in/hr0.0 mm/hr 0.00 in0.0 mm
05:48 PM 82.2°F27.9°C 74.3°F23.5°C 77% 4.3 mph S6.9 kmh S 6.4 mph10.3 kmh 29.78 in1008.5 mb 0.00 in0.0 mm 0.00 in/hr0.0 mm/hr 0.00 in0.0 mm
05:47 PM 82.4°F28.0°C 74.5°F23.6°C 77% 4.3 mph S6.9 kmh S 6.4 mph10.3 kmh 29.78 in1008.5 mb 0.00 in0.0 mm 0.00 in/hr0.0 mm/hr 0.00 in0.0 mm
05:46 PM 82.4°F28.0°C 74.5°F23.6°C 77% 4.3 mph S6.9 kmh S 6.4 mph10.3 kmh 29.77 in1008.1 mb 0.00 in0.0 mm 0.00 in/hr0.0 mm/hr 0.00 in0.0 mm
05:45 PM 82.4°F28.0°C 74.5°F23.6°C 77% 4.3 mph SSW6.9 kmh SSW 6.4 mph10.3 kmh 29.77 in1008.1 mb 0.00 in0.0 mm 0.00 in/hr0.0 mm/hr 0.00 in0.0 mm
05:44 PM 82.4°F28.0°C 74.5°F23.6°C 77% 4.3 mph SSW6.9 kmh SSW 6.4 mph10.3 kmh 29.78 in1008.5 mb 0.00 in0.0 mm 0.00 in/hr0.0 mm/hr 0.00 in0.0 mm
05:43 PM 82.4°F28.0°C 74.5°F23.6°C 77% 4.2 mph SSW6.8 kmh SSW 6.4 mph10.3 kmh 29.78 in1008.5 mb 0.00 in0.0 mm 0.00 in/hr0.0 mm/hr 0.00 in0.0 mm
05:42 PM 82.4°F28.0°C 74.5°F23.6°C 77% 4.0 mph SSW6.4 kmh SSW 6.4 mph10.3 kmh 29.78 in1008.5 mb 0.00 in0.0 mm 0.00 in/hr0.0 mm/hr 0.00 in0.0 mm
05:41 PM 82.4°F28.0°C 74.5°F23.6°C 77% 3.9 mph S6.3 kmh S 6.4 mph10.3 kmh 29.78 in1008.5 mb 0.00 in0.0 mm 0.00 in/hr0.0 mm/hr 0.00 in0.0 mm
05:40 PM 82.4°F28.0°C 74.5°F23.6°C 77% 3.8 mph SSW6.1 kmh SSW 6.4 mph10.3 kmh 29.78 in1008.5 mb 0.00 in0.0 mm 0.00 in/hr0.0 mm/hr 0.00 in0.0 mm
05:39 PM 82.4°F28.0°C 74.5°F23.6°C 77% 3.8 mph S6.1 kmh S 6.4 mph10.3 kmh 29.78 in1008.5 mb 0.00 in0.0 mm 0.00 in/hr0.0 mm/hr 0.00 in0.0 mm
05:38 PM 82.6°F28.1°C 74.7°F23.7°C 77% 3.6 mph S5.8 kmh S 6.4 mph10.3 kmh 29.78 in1008.5 mb 0.00 in0.0 mm 0.00 in/hr0.0 mm/hr 0.00 in0.0 mm
05:37 PM 82.6°F28.1°C 74.3°F23.5°C 76% 3.5 mph S5.6 kmh S 6.4 mph10.3 kmh 29.78 in1008.5 mb 0.00 in0.0 mm 0.00 in/hr0.0 mm/hr 0.00 in0.0 mm
05:36 PM 82.6°F28.1°C 74.3°F23.5°C 76% 3.4 mph SSW5.5 kmh SSW 6.4 mph10.3 kmh 29.78 in1008.5 mb 0.00 in0.0 mm 0.00 in/hr0.0 mm/hr 0.00 in0.0 mm
05:35 PM 82.6°F28.1°C 74.3°F23.5°C 76% 3.4 mph SSW5.5 kmh SSW 6.4 mph10.3 kmh 29.78 in1008.5 mb 0.00 in0.0 mm 0.00 in/hr0.0 mm/hr 0.00 in0.0 mm
05:34 PM 82.6°F28.1°C 74.3°F23.5°C 76% 3.3 mph S5.3 kmh S 6.4 mph10.3 kmh 29.78 in1008.5 mb 0.00 in0.0 mm 0.00 in/hr0.0 mm/hr 0.00 in0.0 mm
05:33 PM 82.6°F28.1°C 74.3°F23.5°C 76% 3.6 mph SSW5.8 kmh SSW 6.4 mph10.3 kmh 29.78 in1008.5 mb 0.00 in0.0 mm 0.00 in/hr0.0 mm/hr 0.00 in0.0 mm
05:32 PM 82.6°F28.1°C 74.3°F23.5°C 76% 3.5 mph SSW5.6 kmh SSW 6.4 mph10.3 kmh 29.79 in1008.8 mb 0.00 in0.0 mm 0.00 in/hr0.0 mm/hr 0.00 in0.0 mm
05:31 PM 82.8°F28.2°C 74.5°F23.6°C 76% 3.6 mph SSW5.8 kmh SSW 6.4 mph10.3 kmh 29.79 in1008.8 mb 0.00 in0.0 mm 0.00 in/hr0.0 mm/hr 0.00 in0.0 mm
05:30 PM 82.8°F28.2°C 74.5°F23.6°C 76% 3.6 mph S5.8 kmh S 6.4 mph10.3 kmh 29.79 in1008.8 mb 0.00 in0.0 mm 0.00 in/hr0.0 mm/hr 0.00 in0.0 mm
05:29 PM 82.8°F28.2°C 74.5°F23.6°C 76% 3.6 mph SSW5.8 kmh SSW 6.4 mph10.3 kmh 29.78 in1008.5 mb 0.00 in0.0 mm 0.00 in/hr0.0 mm/hr 0.00 in0.0 mm
05:28 PM 82.8°F28.2°C 74.5°F23.6°C 76% 3.7 mph SSW6.0 kmh SSW 6.4 mph10.3 kmh 29.78 in1008.5 mb 0.00 in0.0 mm 0.00 in/hr0.0 mm/hr 0.00 in0.0 mm
05:27 PM 82.8°F28.2°C 74.1°F23.4°C 75% 3.8 mph S6.1 kmh S 6.4 mph10.3 kmh 29.79 in1008.8 mb 0.00 in0.0 mm 0.00 in/hr0.0 mm/hr 0.00 in0.0 mm
05:26 PM 82.8°F28.2°C 74.1°F23.4°C 75% 3.9 mph S6.3 kmh S 6.4 mph10.3 kmh 29.79 in1008.8 mb 0.00 in0.0 mm 0.00 in/hr0.0 mm/hr 0.00 in0.0 mm
05:25 PM 82.9°F28.3°C 74.3°F23.5°C 75% 4.1 mph S6.6 kmh S 6.4 mph10.3 kmh 29.79 in1008.8 mb 0.00 in0.0 mm 0.00 in/hr0.0 mm/hr 0.00 in0.0 mm
05:24 PM 82.9°F28.3°C 74.3°F23.5°C 75% 4.1 mph S6.6 kmh S 6.4 mph10.3 kmh 29.78 in1008.5 mb 0.00 in0.0 mm 0.00 in/hr0.0 mm/hr 0.00 in0.0 mm
05:23 PM 83.1°F28.4°C 74.4°F23.6°C 75% 3.9 mph S6.3 kmh S 5.4 mph8.7 kmh 29.78 in1008.5 mb 0.00 in0.0 mm 0.00 in/hr0.0 mm/hr 0.00 in0.0 mm
05:22 PM 83.1°F28.4°C 74.4°F23.6°C 75% 4.1 mph S6.6 kmh S 5.4 mph8.7 kmh 29.79 in1008.8 mb 0.00 in0.0 mm 0.00 in/hr0.0 mm/hr 0.00 in0.0 mm
05:21 PM 83.3°F28.5°C 74.6°F23.7°C 75% 4.2 mph S6.8 kmh S 5.4 mph8.7 kmh 29.79 in1008.8 mb 0.00 in0.0 mm 0.00 in/hr0.0 mm/hr 0.00 in0.0 mm
05:20 PM 83.3°F28.5°C 74.6°F23.7°C 75% 4.6 mph SSE7.4 kmh SSE 8.3 mph13.4 kmh 29.79 in1008.8 mb 0.00 in0.0 mm 0.00 in/hr0.0 mm/hr 0.00 in0.0 mm
05:19 PM 83.5°F28.6°C 74.4°F23.6°C 74% 4.6 mph SSE7.4 kmh SSE 8.3 mph13.4 kmh 29.79 in1008.8 mb 0.00 in0.0 mm 0.00 in/hr0.0 mm/hr 0.00 in0.0 mm
05:18 PM 83.5°F28.6°C 74.4°F23.6°C 74% 4.7 mph SSE7.6 kmh SSE 8.3 mph13.4 kmh 29.79 in1008.8 mb 0.00 in0.0 mm 0.00 in/hr0.0 mm/hr 0.00 in0.0 mm
05:17 PM 83.7°F28.7°C 74.1°F23.4°C 73% 4.7 mph SSE7.6 kmh SSE 8.3 mph13.4 kmh 29.80 in1009.1 mb 0.00 in0.0 mm 0.00 in/hr0.0 mm/hr 0.00 in0.0 mm
05:16 PM 83.7°F28.7°C 74.1°F23.4°C 73% 4.8 mph S7.7 kmh S 8.3 mph13.4 kmh 29.80 in1009.1 mb 0.00 in0.0 mm 0.00 in/hr0.0 mm/hr 0.00 in0.0 mm
05:15 PM 83.7°F28.7°C 74.6°F23.7°C 74% 4.6 mph S7.4 kmh S 8.3 mph13.4 kmh 29.80 in1009.1 mb 0.00 in0.0 mm 0.00 in/hr0.0 mm/hr 0.00 in0.0 mm
05:14 PM 83.8°F28.8°C 74.3°F23.5°C 73% 4.6 mph S7.4 kmh S 8.3 mph13.4 kmh 29.79 in1008.8 mb 0.00 in0.0 mm 0.00 in/hr0.0 mm/hr 0.00 in0.0 mm
05:13 PM 83.8°F28.8°C 74.7°F23.7°C 74% 5.0 mph S8.0 kmh S 8.3 mph13.4 kmh 29.79 in1008.8 mb 0.00 in0.0 mm 0.00 in/hr0.0 mm/hr 0.00 in0.0 mm
05:12 PM 83.8°F28.8°C 74.3°F23.5°C 73% 5.0 mph S8.0 kmh S 8.3 mph13.4 kmh 29.79 in1008.8 mb 0.00 in0.0 mm 0.00 in/hr0.0 mm/hr 0.00 in0.0 mm
05:11 PM 83.8°F28.8°C 74.3°F23.5°C 73% 5.2 mph S8.4 kmh S 8.3 mph13.4 kmh 29.80 in1009.1 mb 0.00 in0.0 mm 0.00 in/hr0.0 mm/hr 0.00 in0.0 mm
05:10 PM 84.0°F28.9°C 74.5°F23.6°C 73% 4.8 mph S7.7 kmh S 7.2 mph11.6 kmh 29.80 in1009.1 mb 0.00 in0.0 mm 0.00 in/hr0.0 mm/hr 0.00 in0.0 mm
05:09 PM 84.0°F28.9°C 74.5°F23.6°C 73% 4.8 mph S7.7 kmh S 7.2 mph11.6 kmh 29.80 in1009.1 mb 0.00 in0.0 mm 0.00 in/hr0.0 mm/hr 0.00 in0.0 mm
05:08 PM 84.0°F28.9°C 74.5°F23.6°C 73% 4.8 mph S7.7 kmh S 7.2 mph11.6 kmh 29.80 in1009.1 mb 0.00 in0.0 mm 0.00 in/hr0.0 mm/hr 0.00 in0.0 mm
05:07 PM 84.0°F28.9°C 74.1°F23.4°C 72% 4.8 mph S7.7 kmh S 7.2 mph11.6 kmh 29.80 in1009.1 mb 0.00 in0.0 mm 0.00 in/hr0.0 mm/hr 0.00 in0.0 mm
05:06 PM 84.0°F28.9°C 74.1°F23.4°C 72% 4.7 mph S7.6 kmh S 7.2 mph11.6 kmh 29.80 in1009.1 mb 0.00 in0.0 mm 0.00 in/hr0.0 mm/hr 0.00 in0.0 mm
05:05 PM 84.0°F28.9°C 74.1°F23.4°C 72% 4.8 mph S7.7 kmh S 7.2 mph11.6 kmh 29.80 in1009.1 mb 0.00 in0.0 mm 0.00 in/hr0.0 mm/hr 0.00 in0.0 mm
05:04 PM 84.0°F28.9°C 74.1°F23.4°C 72% 5.0 mph S8.0 kmh S 7.2 mph11.6 kmh 29.80 in1009.1 mb 0.00 in0.0 mm 0.00 in/hr0.0 mm/hr 0.00 in0.0 mm
05:03 PM 84.0°F28.9°C 74.1°F23.4°C 72% 4.7 mph S7.6 kmh S 6.4 mph10.3 kmh 29.80 in1009.1 mb 0.00 in0.0 mm 0.00 in/hr0.0 mm/hr 0.00 in0.0 mm
05:02 PM 84.0°F28.9°C 74.5°F23.6°C 73% 4.6 mph S7.4 kmh S 6.4 mph10.3 kmh 29.80 in1009.1 mb 0.00 in0.0 mm 0.00 in/hr0.0 mm/hr 0.00 in0.0 mm
05:01 PM 84.0°F28.9°C 74.5°F23.6°C 73% 4.3 mph S6.9 kmh S 6.4 mph10.3 kmh 29.80 in1009.1 mb 0.00 in0.0 mm 0.00 in/hr0.0 mm/hr 0.00 in0.0 mm
05:00 PM 84.0°F28.9°C 74.5°F23.6°C 73% 4.4 mph S7.1 kmh S 6.4 mph10.3 kmh 29.80 in1009.1 mb 0.00 in0.0 mm 0.00 in/hr0.0 mm/hr 0.00 in0.0 mm
04:59 PM 84.2°F29.0°C 74.7°F23.7°C 73% 4.3 mph S6.9 kmh S 6.4 mph10.3 kmh 29.80 in1009.1 mb 0.00 in0.0 mm 0.00 in/hr0.0 mm/hr 0.00 in0.0 mm
04:58 PM 84.2°F29.0°C 74.7°F23.7°C 73% 4.2 mph S6.8 kmh S 6.4 mph10.3 kmh 29.80 in1009.1 mb 0.00 in0.0 mm 0.00 in/hr0.0 mm/hr 0.00 in0.0 mm
04:57 PM 84.2°F29.0°C 74.7°F23.7°C 73% 4.3 mph S6.9 kmh S 6.4 mph10.3 kmh 29.80 in1009.1 mb 0.00 in0.0 mm 0.00 in/hr0.0 mm/hr 0.00 in0.0 mm
04:56 PM 84.0°F28.9°C 74.5°F23.6°C 73% 4.2 mph S6.8 kmh S 6.4 mph10.3 kmh 29.80 in1009.1 mb 0.00 in0.0 mm 0.00 in/hr0.0 mm/hr 0.00 in0.0 mm
04:55 PM 84.2°F29.0°C 74.3°F23.5°C 72% 4.1 mph S6.6 kmh S 6.4 mph10.3 kmh 29.80 in1009.1 mb 0.00 in0.0 mm 0.00 in/hr0.0 mm/hr 0.00 in0.0 mm
04:54 PM 84.2°F29.0°C 74.7°F23.7°C 73% 3.9 mph S6.3 kmh S 5.4 mph8.7 kmh 29.80 in1009.1 mb 0.00 in0.0 mm 0.00 in/hr0.0 mm/hr 0.00 in0.0 mm
04:53 PM 84.2°F29.0°C 74.7°F23.7°C 73% 3.8 mph SSE6.1 kmh SSE 5.4 mph8.7 kmh 29.80 in1009.1 mb 0.00 in0.0 mm 0.00 in/hr0.0 mm/hr 0.00 in0.0 mm
04:52 PM 84.4°F29.1°C 74.8°F23.8°C 73% 3.7 mph SSE6.0 kmh SSE 5.4 mph8.7 kmh 29.80 in1009.1 mb 0.00 in0.0 mm 0.00 in/hr0.0 mm/hr 0.00 in0.0 mm
04:51 PM 84.4°F29.1°C 74.8°F23.8°C 73% 3.7 mph S6.0 kmh S 5.4 mph8.7 kmh 29.80 in1009.1 mb 0.00 in0.0 mm 0.00 in/hr0.0 mm/hr 0.00 in0.0 mm
04:50 PM 84.4°F29.1°C 74.8°F23.8°C 73% 3.5 mph S5.6 kmh S 4.6 mph7.4 kmh 29.80 in1009.1 mb 0.00 in0.0 mm 0.00 in/hr0.0 mm/hr 0.00 in0.0 mm
04:49 PM 84.4°F29.1°C 74.4°F23.6°C 72% 3.6 mph S5.8 kmh S 4.6 mph7.4 kmh 29.80 in1009.1 mb 0.00 in0.0 mm 0.00 in/hr0.0 mm/hr 0.00 in0.0 mm
04:48 PM 84.4°F29.1°C 74.4°F23.6°C 72% 3.6 mph S5.8 kmh S 4.6 mph7.4 kmh 29.80 in1009.1 mb 0.00 in0.0 mm 0.00 in/hr0.0 mm/hr 0.00 in0.0 mm
04:47 PM 84.6°F29.2°C 74.6°F23.7°C 72% 3.6 mph SSE5.8 kmh SSE 4.6 mph7.4 kmh 29.80 in1009.1 mb 0.00 in0.0 mm 0.00 in/hr0.0 mm/hr 0.00 in0.0 mm
04:46 PM 84.6°F29.2°C 74.6°F23.7°C 72% 3.7 mph SSE6.0 kmh SSE 4.6 mph7.4 kmh 29.80 in1009.1 mb 0.00 in0.0 mm 0.00 in/hr0.0 mm/hr 0.00 in0.0 mm
04:45 PM 84.6°F29.2°C 74.6°F23.7°C 72% 3.8 mph SSE6.1 kmh SSE 5.4 mph8.7 kmh 29.80 in1009.1 mb 0.00 in0.0 mm 0.00 in/hr0.0 mm/hr 0.00 in0.0 mm
04:44 PM 84.7°F29.3°C 74.8°F23.8°C 72% 3.8 mph S6.1 kmh S 5.4 mph8.7 kmh 29.80 in1009.1 mb 0.00 in0.0 mm 0.00 in/hr0.0 mm/hr 0.00 in0.0 mm
04:43 PM 84.7°F29.3°C 74.8°F23.8°C 72% 3.9 mph S6.3 kmh S 5.4 mph8.7 kmh 29.80 in1009.1 mb 0.00 in0.0 mm 0.00 in/hr0.0 mm/hr 0.00 in0.0 mm
04:42 PM 84.7°F29.3°C 74.8°F23.8°C 72% 4.0 mph S6.4 kmh S 5.4 mph8.7 kmh 29.80 in1009.1 mb 0.00 in0.0 mm 0.00 in/hr0.0 mm/hr 0.00 in0.0 mm
04:41 PM 84.7°F29.3°C 74.8°F23.8°C 72% 3.9 mph S6.3 kmh S 5.4 mph8.7 kmh 29.80 in1009.1 mb 0.00 in0.0 mm 0.00 in/hr0.0 mm/hr 0.00 in0.0 mm
04:40 PM 84.9°F29.4°C 74.9°F23.8°C 72% 3.9 mph S6.3 kmh S 5.4 mph8.7 kmh 29.80 in1009.1 mb 0.00 in0.0 mm 0.00 in/hr0.0 mm/hr 0.00 in0.0 mm
04:39 PM 84.9°F29.4°C 74.9°F23.8°C 72% 3.9 mph S6.3 kmh S 5.4 mph8.7 kmh 29.80 in1009.1 mb 0.00 in0.0 mm 0.00 in/hr0.0 mm/hr 0.00 in0.0 mm
04:38 PM 84.9°F29.4°C 74.9°F23.8°C 72% 3.9 mph S6.3 kmh S 5.4 mph8.7 kmh 29.80 in1009.1 mb 0.00 in0.0 mm 0.00 in/hr0.0 mm/hr 0.00 in0.0 mm
04:37 PM 84.7°F29.3°C 74.8°F23.8°C 72% 3.9 mph S6.3 kmh S 5.4 mph8.7 kmh 29.80 in1009.1 mb 0.00 in0.0 mm 0.00 in/hr0.0 mm/hr 0.00 in0.0 mm
04:36 PM 84.7°F29.3°C 74.8°F23.8°C 72% 3.8 mph S6.1 kmh S 5.4 mph8.7 kmh 29.80 in1009.1 mb 0.00 in0.0 mm 0.00 in/hr0.0 mm/hr 0.00 in0.0 mm
04:35 PM 84.7°F29.3°C 74.8°F23.8°C 72% 3.6 mph S5.8 kmh S 5.4 mph8.7 kmh 29.80 in1009.1 mb 0.00 in0.0 mm 0.00 in/hr0.0 mm/hr 0.00 in0.0 mm
04:34 PM 84.7°F29.3°C 74.8°F23.8°C 72% 3.7 mph S6.0 kmh S 5.4 mph8.7 kmh 29.81 in1009.5 mb 0.00 in0.0 mm 0.00 in/hr0.0 mm/hr 0.00 in0.0 mm
04:33 PM 84.7°F29.3°C 74.8°F23.8°C 72% 3.7 mph S6.0 kmh S 5.4 mph8.7 kmh 29.80 in1009.1 mb 0.00 in0.0 mm 0.00 in/hr0.0 mm/hr 0.00 in0.0 mm
04:32 PM 84.7°F29.3°C 74.8°F23.8°C 72% 3.8 mph S6.1 kmh S 5.4 mph8.7 kmh 29.80 in1009.1 mb 0.00 in0.0 mm 0.00 in/hr0.0 mm/hr 0.00 in0.0 mm
04:31 PM 84.7°F29.3°C 74.8°F23.8°C 72% 3.9 mph S6.3 kmh S 5.4 mph8.7 kmh 29.80 in1009.1 mb 0.00 in0.0 mm 0.00 in/hr0.0 mm/hr 0.00 in0.0 mm
04:30 PM 84.7°F29.3°C 74.8°F23.8°C 72% 4.0 mph S6.4 kmh S 5.4 mph8.7 kmh 29.80 in1009.1 mb 0.00 in0.0 mm 0.00 in/hr0.0 mm/hr 0.00 in0.0 mm
04:29 PM 84.7°F29.3°C 74.8°F23.8°C 72% 4.1 mph S6.6 kmh S 5.4 mph8.7 kmh 29.80 in1009.1 mb 0.00 in0.0 mm 0.00 in/hr0.0 mm/hr 0.00 in0.0 mm
04:28 PM 84.7°F29.3°C 74.8°F23.8°C 72% 4.1 mph S6.6 kmh S 4.6 mph7.4 kmh 29.80 in1009.1 mb 0.00 in0.0 mm 0.00 in/hr0.0 mm/hr 0.00 in0.0 mm
04:27 PM 84.7°F29.3°C 74.4°F23.6°C 71% 4.2 mph S6.8 kmh S 4.6 mph7.4 kmh 29.81 in1009.5 mb 0.00 in0.0 mm 0.00 in/hr0.0 mm/hr 0.00 in0.0 mm
04:26 PM 84.7°F29.3°C 74.4°F23.6°C 71% 4.3 mph S6.9 kmh S 4.6 mph7.4 kmh 29.80 in1009.1 mb 0.00 in0.0 mm 0.00 in/hr0.0 mm/hr 0.00 in0.0 mm
04:25 PM 84.7°F29.3°C 74.4°F23.6°C 71% 4.5 mph S7.2 kmh S 5.4 mph8.7 kmh 29.80 in1009.1 mb 0.00 in0.0 mm 0.00 in/hr0.0 mm/hr 0.00 in0.0 mm
04:24 PM 84.9°F29.4°C 74.5°F23.6°C 71% 4.5 mph S7.2 kmh S 5.4 mph8.7 kmh 29.80 in1009.1 mb 0.00 in0.0 mm 0.00 in/hr0.0 mm/hr 0.00 in0.0 mm
04:23 PM 84.9°F29.4°C 74.9°F23.8°C 72% 4.5 mph S7.2 kmh S 5.4 mph8.7 kmh 29.81 in1009.5 mb 0.00 in0.0 mm 0.00 in/hr0.0 mm/hr 0.00 in0.0 mm
04:22 PM 84.9°F29.4°C 74.5°F23.6°C 71% 4.5 mph S7.2 kmh S 5.4 mph8.7 kmh 29.80 in1009.1 mb 0.00 in0.0 mm 0.00 in/hr0.0 mm/hr 0.00 in0.0 mm
04:21 PM 85.1°F29.5°C 74.3°F23.5°C 70% 4.6 mph S7.4 kmh S 5.4 mph8.7 kmh 29.80 in1009.1 mb 0.00 in0.0 mm 0.00 in/hr0.0 mm/hr 0.00 in0.0 mm
04:20 PM 85.1°F29.5°C 74.3°F23.5°C 70% 4.7 mph S7.6 kmh S 5.4 mph8.7 kmh 29.81 in1009.5 mb 0.00 in0.0 mm 0.00 in/hr0.0 mm/hr 0.00 in0.0 mm
04:19 PM 85.1°F29.5°C 74.3°F23.5°C 70% 4.7 mph S7.6 kmh S 5.4 mph8.7 kmh 29.80 in1009.1 mb 0.00 in0.0 mm 0.00 in/hr0.0 mm/hr 0.00 in0.0 mm
04:18 PM 85.1°F29.5°C 74.3°F23.5°C 70% 4.6 mph S7.4 kmh S 5.4 mph8.7 kmh 29.81 in1009.5 mb 0.00 in0.0 mm 0.00 in/hr0.0 mm/hr 0.00 in0.0 mm
04:17 PM 85.1°F29.5°C 74.3°F23.5°C 70% 4.7 mph S7.6 kmh S 5.4 mph8.7 kmh 29.81 in1009.5 mb 0.00 in0.0 mm 0.00 in/hr0.0 mm/hr 0.00 in0.0 mm
04:16 PM 85.1°F29.5°C 74.3°F23.5°C 70% 4.7 mph S7.6 kmh S 5.4 mph8.7 kmh 29.81 in1009.5 mb 0.00 in0.0 mm 0.00 in/hr0.0 mm/hr 0.00 in0.0 mm
04:15 PM 85.1°F29.5°C 74.3°F23.5°C 70% 4.7 mph SE7.6 kmh SE 5.4 mph8.7 kmh 29.81 in1009.5 mb 0.00 in0.0 mm 0.00 in/hr0.0 mm/hr 0.00 in0.0 mm
04:14 PM 85.3°F29.6°C 74.5°F23.6°C 70% 4.7 mph SE7.6 kmh SE 5.4 mph8.7 kmh 29.81 in1009.5 mb 0.00 in0.0 mm 0.00 in/hr0.0 mm/hr 0.00 in0.0 mm
04:13 PM 85.3°F29.6°C 74.5°F23.6°C 70% 4.8 mph SSE7.7 kmh SSE 5.4 mph8.7 kmh 29.82 in1009.8 mb 0.00 in0.0 mm 0.00 in/hr0.0 mm/hr 0.00 in0.0 mm
04:12 PM 85.5°F29.7°C 74.6°F23.7°C 70% 4.7 mph SSE7.6 kmh SSE 5.4 mph8.7 kmh 29.81 in1009.5 mb 0.00 in0.0 mm 0.00 in/hr0.0 mm/hr 0.00 in0.0 mm
04:11 PM 85.5°F29.7°C 74.2°F23.4°C 69% 4.7 mph SE7.6 kmh SE 5.4 mph8.7 kmh 29.81 in1009.5 mb 0.00 in0.0 mm 0.00 in/hr0.0 mm/hr 0.00 in0.0 mm
04:10 PM 85.6°F29.8°C 74.4°F23.6°C 69% 4.6 mph SE7.4 kmh SE 5.4 mph8.7 kmh 29.82 in1009.8 mb 0.00 in0.0 mm 0.00 in/hr0.0 mm/hr 0.00 in0.0 mm
04:09 PM 85.6°F29.8°C 74.4°F23.6°C 69% 4.5 mph SE7.2 kmh SE 5.4 mph8.7 kmh 29.81 in1009.5 mb 0.00 in0.0 mm 0.00 in/hr0.0 mm/hr 0.00 in0.0 mm
04:08 PM 85.6°F29.8°C 74.4°F23.6°C 69% 4.6 mph SE7.4 kmh SE 5.4 mph8.7 kmh 29.82 in1009.8 mb 0.00 in0.0 mm 0.00 in/hr0.0 mm/hr 0.00 in0.0 mm
04:07 PM 85.6°F29.8°C 74.4°F23.6°C 69% 4.4 mph SE7.1 kmh SE 5.4 mph8.7 kmh 29.82 in1009.8 mb 0.00 in0.0 mm 0.00 in/hr0.0 mm/hr 0.00 in0.0 mm
04:06 PM 85.8°F29.9°C 74.5°F23.6°C 69% 4.1 mph SE6.6 kmh SE 5.4 mph8.7 kmh 29.82 in1009.8 mb 0.00 in0.0 mm 0.00 in/hr0.0 mm/hr 0.00 in0.0 mm
04:05 PM 85.8°F29.9°C 74.5°F23.6°C 69% 3.8 mph SE6.1 kmh SE 4.6 mph7.4 kmh 29.82 in1009.8 mb 0.00 in0.0 mm 0.00 in/hr0.0 mm/hr 0.00 in0.0 mm
04:04 PM 86.0°F30.0°C 74.7°F23.7°C 69% 3.6 mph SE5.8 kmh SE 4.6 mph7.4 kmh 29.82 in1009.8 mb 0.00 in0.0 mm 0.00 in/hr0.0 mm/hr 0.00 in0.0 mm
04:03 PM 86.0°F30.0°C 74.7°F23.7°C 69% 3.6 mph SE5.8 kmh SE 4.6 mph7.4 kmh 29.82 in1009.8 mb 0.00 in0.0 mm 0.00 in/hr0.0 mm/hr 0.00 in0.0 mm
04:02 PM 86.2°F30.1°C 74.4°F23.6°C 68% 3.6 mph SE5.8 kmh SE 5.4 mph8.7 kmh 29.82 in1009.8 mb 0.00 in0.0 mm 0.00 in/hr0.0 mm/hr 0.00 in0.0 mm
04:01 PM 86.2°F30.1°C 74.4°F23.6°C 68% 3.6 mph SSE5.8 kmh SSE 5.4 mph8.7 kmh 29.82 in1009.8 mb 0.00 in0.0 mm 0.00 in/hr0.0 mm/hr 0.00 in0.0 mm
04:00 PM 86.4°F30.2°C 74.6°F23.7°C 68% 3.5 mph S5.6 kmh S 5.4 mph8.7 kmh 29.82 in1009.8 mb 0.00 in0.0 mm 0.00 in/hr0.0 mm/hr 0.00 in0.0 mm
03:59 PM 86.4°F30.2°C 74.2°F23.4°C 67% 3.6 mph SW5.8 kmh SW 6.4 mph10.3 kmh 29.82 in1009.8 mb 0.00 in0.0 mm 0.00 in/hr0.0 mm/hr 0.00 in0.0 mm
03:58 PM 86.4°F30.2°C 74.2°F23.4°C 67% 3.8 mph SW6.1 kmh SW 6.4 mph10.3 kmh 29.82 in1009.8 mb 0.00 in0.0 mm 0.00 in/hr0.0 mm/hr 0.00 in0.0 mm
03:57 PM 86.5°F30.3°C 74.8°F23.8°C 68% 3.8 mph SW6.1 kmh SW 6.4 mph10.3 kmh 29.82 in1009.8 mb 0.00 in0.0 mm 0.00 in/hr0.0 mm/hr 0.00 in0.0 mm
03:56 PM 86.5°F30.3°C 74.8°F23.8°C 68% 4.1 mph SSW6.6 kmh SSW 6.4 mph10.3 kmh 29.82 in1009.8 mb 0.00 in0.0 mm 0.00 in/hr0.0 mm/hr 0.00 in0.0 mm
03:55 PM 86.5°F30.3°C 74.8°F23.8°C 68% 4.2 mph SSW6.8 kmh SSW 6.4 mph10.3 kmh 29.82 in1009.8 mb 0.00 in0.0 mm 0.00 in/hr0.0 mm/hr 0.00 in0.0 mm
03:54 PM 86.5°F30.3°C 74.8°F23.8°C 68% 4.4 mph SW7.1 kmh SW 6.4 mph10.3 kmh 29.82 in1009.8 mb 0.00 in0.0 mm 0.00 in/hr0.0 mm/hr 0.00 in0.0 mm
03:53 PM 86.5°F30.3°C 74.3°F23.5°C 67% 4.5 mph SW7.2 kmh SW 6.4 mph10.3 kmh 29.82 in1009.8 mb 0.00 in0.0 mm 0.00 in/hr0.0 mm/hr 0.00 in0.0 mm
03:52 PM 86.7°F30.4°C 74.5°F23.6°C 67% 4.3 mph SW6.9 kmh SW 6.4 mph10.3 kmh 29.81 in1009.5 mb 0.00 in0.0 mm 0.00 in/hr0.0 mm/hr 0.00 in0.0 mm
03:51 PM 86.7°F30.4°C 74.5°F23.6°C 67% 4.1 mph SW6.6 kmh SW 6.4 mph10.3 kmh 29.82 in1009.8 mb 0.00 in0.0 mm 0.00 in/hr0.0 mm/hr 0.00 in0.0 mm
03:50 PM 86.7°F30.4°C 74.1°F23.4°C 66% 4.2 mph SW6.8 kmh SW 6.4 mph10.3 kmh 29.82 in1009.8 mb 0.00 in0.0 mm 0.00 in/hr0.0 mm/hr 0.00 in0.0 mm
03:49 PM 86.7°F30.4°C 74.5°F23.6°C 67% 4.0 mph SSW6.4 kmh SSW 6.4 mph10.3 kmh 29.82 in1009.8 mb 0.00 in0.0 mm 0.00 in/hr0.0 mm/hr 0.00 in0.0 mm
03:48 PM 86.7°F30.4°C 74.1°F23.4°C 66% 3.8 mph S6.1 kmh S 4.6 mph7.4 kmh 29.82 in1009.8 mb 0.00 in0.0 mm 0.00 in/hr0.0 mm/hr 0.00 in0.0 mm
03:47 PM 86.7°F30.4°C 74.5°F23.6°C 67% 3.8 mph S6.1 kmh S 4.6 mph7.4 kmh 29.82 in1009.8 mb 0.00 in0.0 mm 0.00 in/hr0.0 mm/hr 0.00 in0.0 mm
03:46 PM 86.7°F30.4°C 74.5°F23.6°C 67% 3.8 mph S6.1 kmh S 4.6 mph7.4 kmh 29.83 in1010.2 mb 0.00 in0.0 mm 0.00 in/hr0.0 mm/hr 0.00 in0.0 mm
03:45 PM 86.7°F30.4°C 74.5°F23.6°C 67% 3.6 mph SSE5.8 kmh SSE 4.6 mph7.4 kmh 29.82 in1009.8 mb 0.00 in0.0 mm 0.00 in/hr0.0 mm/hr 0.00 in0.0 mm
03:44 PM 86.7°F30.4°C 74.1°F23.4°C 66% 3.8 mph SE6.1 kmh SE 6.4 mph10.3 kmh 29.82 in1009.8 mb 0.00 in0.0 mm 0.00 in/hr0.0 mm/hr 0.00 in0.0 mm
03:43 PM 86.5°F30.3°C 73.9°F23.3°C 66% 3.8 mph SSE6.1 kmh SSE 6.4 mph10.3 kmh 29.82 in1009.8 mb 0.00 in0.0 mm 0.00 in/hr0.0 mm/hr 0.00 in0.0 mm
03:42 PM 86.5°F30.3°C 73.9°F23.3°C 66% 3.8 mph SSE6.1 kmh SSE 6.4 mph10.3 kmh 29.82 in1009.8 mb 0.00 in0.0 mm 0.00 in/hr0.0 mm/hr 0.00 in0.0 mm
03:41 PM 86.5°F30.3°C 73.9°F23.3°C 66% 3.9 mph SE6.3 kmh SE 6.4 mph10.3 kmh 29.82 in1009.8 mb 0.00 in0.0 mm 0.00 in/hr0.0 mm/hr 0.00 in0.0 mm
03:40 PM 86.5°F30.3°C 73.9°F23.3°C 66% 4.2 mph SSE6.8 kmh SSE 6.4 mph10.3 kmh 29.82 in1009.8 mb 0.00 in0.0 mm 0.00 in/hr0.0 mm/hr 0.00 in0.0 mm
03:39 PM 86.5°F30.3°C 73.9°F23.3°C 66% 4.2 mph SSE6.8 kmh SSE 6.4 mph10.3 kmh 29.82 in1009.8 mb 0.00 in0.0 mm 0.00 in/hr0.0 mm/hr 0.00 in0.0 mm
03:38 PM 86.5°F30.3°C 73.9°F23.3°C 66% 4.3 mph SSE6.9 kmh SSE 6.4 mph10.3 kmh 29.82 in1009.8 mb 0.00 in0.0 mm 0.00 in/hr0.0 mm/hr 0.00 in0.0 mm
03:37 PM 86.5°F30.3°C 74.3°F23.5°C 67% 4.3 mph S6.9 kmh S 6.4 mph10.3 kmh 29.83 in1010.2 mb 0.00 in0.0 mm 0.00 in/hr0.0 mm/hr 0.00 in0.0 mm
03:36 PM 86.5°F30.3°C 73.9°F23.3°C 66% 4.3 mph SSE6.9 kmh SSE 6.4 mph10.3 kmh 29.82 in1009.8 mb 0.00 in0.0 mm 0.00 in/hr0.0 mm/hr 0.00 in0.0 mm
03:35 PM 86.5°F30.3°C 73.4°F23.0°C 65% 4.3 mph SSE6.9 kmh SSE 6.4 mph10.3 kmh 29.83 in1010.2 mb 0.00 in0.0 mm 0.00 in/hr0.0 mm/hr 0.00 in0.0 mm
03:34 PM 86.5°F30.3°C 73.9°F23.3°C 66% 4.1 mph S6.6 kmh S 6.4 mph10.3 kmh 29.83 in1010.2 mb 0.00 in0.0 mm 0.00 in/hr0.0 mm/hr 0.00 in0.0 mm
03:33 PM 86.5°F30.3°C 73.9°F23.3°C 66% 4.1 mph SSE6.6 kmh SSE 6.4 mph10.3 kmh 29.83 in1010.2 mb 0.00 in0.0 mm 0.00 in/hr0.0 mm/hr 0.00 in0.0 mm
03:32 PM 86.5°F30.3°C 73.9°F23.3°C 66% 4.2 mph S6.8 kmh S 6.4 mph10.3 kmh 29.83 in1010.2 mb 0.00 in0.0 mm 0.00 in/hr0.0 mm/hr 0.00 in0.0 mm
03:31 PM 86.5°F30.3°C 73.9°F23.3°C 66% 4.1 mph S6.6 kmh S 6.4 mph10.3 kmh 29.83 in1010.2 mb 0.00 in0.0 mm 0.00 in/hr0.0 mm/hr 0.00 in0.0 mm
03:30 PM 86.5°F30.3°C 73.9°F23.3°C 66% 4.0 mph S6.4 kmh S 6.4 mph10.3 kmh 29.83 in1010.2 mb 0.00 in0.0 mm 0.00 in/hr0.0 mm/hr 0.00 in0.0 mm
03:29 PM 86.5°F30.3°C 73.9°F23.3°C 66% 3.9 mph S6.3 kmh S 6.4 mph10.3 kmh 29.82 in1009.8 mb 0.00 in0.0 mm 0.00 in/hr0.0 mm/hr 0.00 in0.0 mm
03:28 PM 86.5°F30.3°C 74.3°F23.5°C 67% 3.9 mph S6.3 kmh S 6.4 mph10.3 kmh 29.83 in1010.2 mb 0.00 in0.0 mm 0.00 in/hr0.0 mm/hr 0.00 in0.0 mm
03:27 PM 86.5°F30.3°C 74.3°F23.5°C 67% 3.8 mph S6.1 kmh S 6.4 mph10.3 kmh 29.83 in1010.2 mb 0.00 in0.0 mm 0.00 in/hr0.0 mm/hr 0.00 in0.0 mm
03:26 PM 86.4°F30.2°C 73.7°F23.2°C 66% 4.1 mph SSE6.6 kmh SSE 6.4 mph10.3 kmh 29.83 in1010.2 mb 0.00 in0.0 mm 0.00 in/hr0.0 mm/hr 0.00 in0.0 mm
03:25 PM 86.4°F30.2°C 74.2°F23.4°C 67% 4.5 mph SSE7.2 kmh SSE 7.2 mph11.6 kmh 29.83 in1010.2 mb 0.00 in0.0 mm 0.00 in/hr0.0 mm/hr 0.00 in0.0 mm
03:24 PM 86.2°F30.1°C 73.6°F23.1°C 66% 4.5 mph SE7.2 kmh SE 7.2 mph11.6 kmh 29.83 in1010.2 mb 0.00 in0.0 mm 0.00 in/hr0.0 mm/hr 0.00 in0.0 mm
03:23 PM 86.2°F30.1°C 74.0°F23.3°C 67% 4.5 mph SE7.2 kmh SE 7.2 mph11.6 kmh 29.83 in1010.2 mb 0.00 in0.0 mm 0.00 in/hr0.0 mm/hr 0.00 in0.0 mm
03:22 PM 86.0°F30.0°C 73.4°F23.0°C 66% 4.4 mph SE7.1 kmh SE 7.2 mph11.6 kmh 29.83 in1010.2 mb 0.00 in0.0 mm 0.00 in/hr0.0 mm/hr 0.00 in0.0 mm
03:21 PM 86.0°F30.0°C 73.8°F23.2°C 67% 4.4 mph SE7.1 kmh SE 7.2 mph11.6 kmh 29.83 in1010.2 mb 0.00 in0.0 mm 0.00 in/hr0.0 mm/hr 0.00 in0.0 mm
03:20 PM 86.0°F30.0°C 73.8°F23.2°C 67% 4.3 mph SE6.9 kmh SE 7.2 mph11.6 kmh 29.83 in1010.2 mb 0.00 in0.0 mm 0.00 in/hr0.0 mm/hr 0.00 in0.0 mm
03:19 PM 86.0°F30.0°C 73.8°F23.2°C 67% 4.5 mph SE7.2 kmh SE 7.2 mph11.6 kmh 29.83 in1010.2 mb 0.00 in0.0 mm 0.00 in/hr0.0 mm/hr 0.00 in0.0 mm
03:18 PM 86.2°F30.1°C 74.0°F23.3°C 67% 4.6 mph SE7.4 kmh SE 7.2 mph11.6 kmh 29.83 in1010.2 mb 0.00 in0.0 mm 0.00 in/hr0.0 mm/hr 0.00 in0.0 mm
03:17 PM 86.4°F30.2°C 73.7°F23.2°C 66% 4.6 mph SSE7.4 kmh SSE 7.2 mph11.6 kmh 29.84 in1010.5 mb 0.00 in0.0 mm 0.00 in/hr0.0 mm/hr 0.00 in0.0 mm
03:16 PM 86.4°F30.2°C 73.7°F23.2°C 66% 4.3 mph S6.9 kmh S 7.2 mph11.6 kmh 29.83 in1010.2 mb 0.00 in0.0 mm 0.00 in/hr0.0 mm/hr 0.00 in0.0 mm
03:15 PM 86.5°F30.3°C 73.9°F23.3°C 66% 3.8 mph S6.1 kmh S 7.2 mph11.6 kmh 29.83 in1010.2 mb 0.00 in0.0 mm 0.00 in/hr0.0 mm/hr 0.00 in0.0 mm
03:14 PM 86.5°F30.3°C 73.9°F23.3°C 66% 3.8 mph S6.1 kmh S 5.4 mph8.7 kmh 29.83 in1010.2 mb 0.00 in0.0 mm 0.00 in/hr0.0 mm/hr 0.00 in0.0 mm
03:13 PM 86.7°F30.4°C 74.1°F23.4°C 66% 3.8 mph S6.1 kmh S 5.4 mph8.7 kmh 29.84 in1010.5 mb 0.00 in0.0 mm 0.00 in/hr0.0 mm/hr 0.00 in0.0 mm
03:12 PM 86.7°F30.4°C 74.1°F23.4°C 66% 4.1 mph SSW6.6 kmh SSW 5.4 mph8.7 kmh 29.83 in1010.2 mb 0.00 in0.0 mm 0.00 in/hr0.0 mm/hr 0.00 in0.0 mm
03:11 PM 86.9°F30.5°C 74.2°F23.4°C 66% 4.4 mph S7.1 kmh S 6.4 mph10.3 kmh 29.83 in1010.2 mb 0.00 in0.0 mm 0.00 in/hr0.0 mm/hr 0.00 in0.0 mm
03:10 PM 86.9°F30.5°C 74.2°F23.4°C 66% 4.3 mph S6.9 kmh S 6.4 mph10.3 kmh 29.84 in1010.5 mb 0.00 in0.0 mm 0.00 in/hr0.0 mm/hr 0.00 in0.0 mm
03:09 PM 86.9°F30.5°C 74.7°F23.7°C 67% 4.1 mph SSE6.6 kmh SSE 6.4 mph10.3 kmh 29.84 in1010.5 mb 0.00 in0.0 mm 0.00 in/hr0.0 mm/hr 0.00 in0.0 mm
03:08 PM 86.9°F30.5°C 74.7°F23.7°C 67% 4.1 mph SSE6.6 kmh SSE 6.4 mph10.3 kmh 29.84 in1010.5 mb 0.00 in0.0 mm 0.00 in/hr0.0 mm/hr 0.00 in0.0 mm
03:07 PM 86.7°F30.4°C 74.5°F23.6°C 67% 4.3 mph SSE6.9 kmh SSE 6.4 mph10.3 kmh 29.84 in1010.5 mb 0.00 in0.0 mm 0.00 in/hr0.0 mm/hr 0.00 in0.0 mm
03:06 PM 86.7°F30.4°C 74.1°F23.4°C 66% 4.5 mph SE7.2 kmh SE 6.4 mph10.3 kmh 29.84 in1010.5 mb 0.00 in0.0 mm 0.00 in/hr0.0 mm/hr 0.00 in0.0 mm
03:05 PM 86.7°F30.4°C 74.1°F23.4°C 66% 4.6 mph SSE7.4 kmh SSE 6.4 mph10.3 kmh 29.84 in1010.5 mb 0.00 in0.0 mm 0.00 in/hr0.0 mm/hr 0.00 in0.0 mm
03:04 PM 86.5°F30.3°C 73.9°F23.3°C 66% 4.6 mph SSE7.4 kmh SSE 6.4 mph10.3 kmh 29.84 in1010.5 mb 0.00 in0.0 mm 0.00 in/hr0.0 mm/hr 0.00 in0.0 mm
03:03 PM 86.5°F30.3°C 73.9°F23.3°C 66% 4.8 mph S7.7 kmh S 6.4 mph10.3 kmh 29.84 in1010.5 mb 0.00 in0.0 mm 0.00 in/hr0.0 mm/hr 0.00 in0.0 mm
03:02 PM 86.4°F30.2°C 73.7°F23.2°C 66% 4.7 mph SSE7.6 kmh SSE 6.4 mph10.3 kmh 29.84 in1010.5 mb 0.00 in0.0 mm 0.00 in/hr0.0 mm/hr 0.00 in0.0 mm
03:01 PM 86.4°F30.2°C 73.7°F23.2°C 66% 4.5 mph S7.2 kmh S 6.4 mph10.3 kmh 29.84 in1010.5 mb 0.00 in0.0 mm 0.00 in/hr0.0 mm/hr 0.00 in0.0 mm
03:00 PM 86.4°F30.2°C 73.7°F23.2°C 66% 4.8 mph SW7.7 kmh SW 6.4 mph10.3 kmh 29.84 in1010.5 mb 0.00 in0.0 mm 0.00 in/hr0.0 mm/hr 0.00 in0.0 mm
02:59 PM 86.4°F30.2°C 73.7°F23.2°C 66% 4.9 mph SSW7.9 kmh SSW 6.4 mph10.3 kmh 29.84 in1010.5 mb 0.00 in0.0 mm 0.00 in/hr0.0 mm/hr 0.00 in0.0 mm
02:58 PM 86.4°F30.2°C 73.7°F23.2°C 66% 4.9 mph W7.9 kmh W 6.4 mph10.3 kmh 29.84 in1010.5 mb 0.00 in0.0 mm 0.00 in/hr0.0 mm/hr 0.00 in0.0 mm
02:57 PM 86.4°F30.2°C 74.2°F23.4°C 67% 4.7 mph NNW7.6 kmh NNW 6.4 mph10.3 kmh 29.84 in1010.5 mb 0.00 in0.0 mm 0.00 in/hr0.0 mm/hr 0.00 in0.0 mm
02:56 PM 86.4°F30.2°C 74.2°F23.4°C 67% 4.7 mph WNW7.6 kmh WNW 6.4 mph10.3 kmh 29.84 in1010.5 mb 0.00 in0.0 mm 0.00 in/hr0.0 mm/hr 0.00 in0.0 mm
02:55 PM 86.4°F30.2°C 74.2°F23.4°C 67% 4.8 mph NW7.7 kmh NW 6.4 mph10.3 kmh 29.84 in1010.5 mb 0.00 in0.0 mm 0.00 in/hr0.0 mm/hr 0.00 in0.0 mm
02:54 PM 86.5°F30.3°C 74.3°F23.5°C 67% 4.7 mph N7.6 kmh N 6.4 mph10.3 kmh 29.83 in1010.2 mb 0.00 in0.0 mm 0.00 in/hr0.0 mm/hr 0.00 in0.0 mm
02:53 PM 86.5°F30.3°C 74.3°F23.5°C 67% 4.4 mph NE7.1 kmh NE 6.4 mph10.3 kmh 29.84 in1010.5 mb 0.00 in0.0 mm 0.00 in/hr0.0 mm/hr 0.00 in0.0 mm
02:52 PM 86.4°F30.2°C 73.7°F23.2°C 66% 4.4 mph ENE7.1 kmh ENE 6.4 mph10.3 kmh 29.84 in1010.5 mb 0.00 in0.0 mm 0.00 in/hr0.0 mm/hr 0.00 in0.0 mm
02:51 PM 86.4°F30.2°C 74.2°F23.4°C 67% 4.4 mph SE7.1 kmh SE 6.4 mph10.3 kmh 29.85 in1010.8 mb 0.00 in0.0 mm 0.00 in/hr0.0 mm/hr 0.00 in0.0 mm
02:50 PM 86.4°F30.2°C 73.7°F23.2°C 66% 4.2 mph ESE6.8 kmh ESE 6.4 mph10.3 kmh 29.84 in1010.5 mb 0.00 in0.0 mm 0.00 in/hr0.0 mm/hr 0.00 in0.0 mm
02:49 PM 86.2°F30.1°C 73.6°F23.1°C 66% 4.2 mph SE6.8 kmh SE 6.4 mph10.3 kmh 29.84 in1010.5 mb 0.00 in0.0 mm 0.00 in/hr0.0 mm/hr 0.00 in0.0 mm
02:48 PM 86.2°F30.1°C 73.6°F23.1°C 66% 4.1 mph S6.6 kmh S 5.4 mph8.7 kmh 29.84 in1010.5 mb 0.00 in0.0 mm 0.00 in/hr0.0 mm/hr 0.00 in0.0 mm
02:47 PM 86.2°F30.1°C 74.0°F23.3°C 67% 4.5 mph SSW7.2 kmh SSW 8.3 mph13.4 kmh 29.84 in1010.5 mb 0.00 in0.0 mm 0.00 in/hr0.0 mm/hr 0.00 in0.0 mm
02:46 PM 86.2°F30.1°C 74.0°F23.3°C 67% 4.5 mph SW7.2 kmh SW 8.3 mph13.4 kmh 29.85 in1010.8 mb 0.00 in0.0 mm 0.00 in/hr0.0 mm/hr 0.00 in0.0 mm
02:45 PM 86.2°F30.1°C 74.0°F23.3°C 67% 4.5 mph SW7.2 kmh SW 8.3 mph13.4 kmh 29.85 in1010.8 mb 0.00 in0.0 mm 0.00 in/hr0.0 mm/hr 0.00 in0.0 mm
02:44 PM 86.4°F30.2°C 73.7°F23.2°C 66% 4.6 mph SW7.4 kmh SW 8.3 mph13.4 kmh 29.85 in1010.8 mb 0.00 in0.0 mm 0.00 in/hr0.0 mm/hr 0.00 in0.0 mm
02:43 PM 86.5°F30.3°C 73.9°F23.3°C 66% 4.7 mph SW7.6 kmh SW 8.3 mph13.4 kmh 29.85 in1010.8 mb 0.00 in0.0 mm 0.00 in/hr0.0 mm/hr 0.00 in0.0 mm
02:42 PM 86.5°F30.3°C 73.9°F23.3°C 66% 4.6 mph SW7.4 kmh SW 8.3 mph13.4 kmh 29.84 in1010.5 mb 0.00 in0.0 mm 0.00 in/hr0.0 mm/hr 0.00 in0.0 mm
02:41 PM 86.7°F30.4°C 74.5°F23.6°C 67% 4.4 mph SW7.1 kmh SW 8.3 mph13.4 kmh 29.84 in1010.5 mb 0.00 in0.0 mm 0.00 in/hr0.0 mm/hr 0.00 in0.0 mm
02:40 PM 86.5°F30.3°C 74.8°F23.8°C 68% 4.3 mph SSW6.9 kmh SSW 8.3 mph13.4 kmh 29.84 in1010.5 mb 0.00 in0.0 mm 0.00 in/hr0.0 mm/hr 0.00 in0.0 mm
02:39 PM 86.5°F30.3°C 74.3°F23.5°C 67% 4.2 mph SSW6.8 kmh SSW 8.3 mph13.4 kmh 29.84 in1010.5 mb 0.00 in0.0 mm 0.00 in/hr0.0 mm/hr 0.00 in0.0 mm
02:38 PM 86.4°F30.2°C 74.2°F23.4°C 67% 4.3 mph SSW6.9 kmh SSW 8.3 mph13.4 kmh 29.85 in1010.8 mb 0.00 in0.0 mm 0.00 in/hr0.0 mm/hr 0.00 in0.0 mm
02:37 PM 86.4°F30.2°C 74.6°F23.7°C 68% 3.9 mph SSW6.3 kmh SSW 5.4 mph8.7 kmh 29.85 in1010.8 mb 0.00 in0.0 mm 0.00 in/hr0.0 mm/hr 0.00 in0.0 mm
02:36 PM 86.2°F30.1°C 74.9°F23.8°C 69% 4.0 mph SSW6.4 kmh SSW 5.4 mph8.7 kmh 29.85 in1010.8 mb 0.00 in0.0 mm 0.00 in/hr0.0 mm/hr 0.00 in0.0 mm
02:35 PM 86.2°F30.1°C 74.9°F23.8°C 69% 3.9 mph SSW6.3 kmh SSW 5.4 mph8.7 kmh 29.85 in1010.8 mb 0.00 in0.0 mm 0.00 in/hr0.0 mm/hr 0.00 in0.0 mm
02:34 PM 86.0°F30.0°C 74.7°F23.7°C 69% 3.8 mph SSW6.1 kmh SSW 5.4 mph8.7 kmh 29.85 in1010.8 mb 0.00 in0.0 mm 0.00 in/hr0.0 mm/hr 0.00 in0.0 mm
02:33 PM 86.0°F30.0°C 74.7°F23.7°C 69% 3.6 mph SSW5.8 kmh SSW 5.4 mph8.7 kmh 29.84 in1010.5 mb 0.00 in0.0 mm 0.00 in/hr0.0 mm/hr 0.00 in0.0 mm
02:32 PM 86.0°F30.0°C 75.1°F23.9°C 70% 3.8 mph SSW6.1 kmh SSW 5.4 mph8.7 kmh 29.85 in1010.8 mb 0.00 in0.0 mm 0.00 in/hr0.0 mm/hr 0.00 in0.0 mm
02:31 PM 85.8°F29.9°C 74.5°F23.6°C 69% 3.7 mph SSW6.0 kmh SSW 5.4 mph8.7 kmh 29.85 in1010.8 mb 0.00 in0.0 mm 0.00 in/hr0.0 mm/hr 0.00 in0.0 mm
02:30 PM 85.6°F29.8°C 74.4°F23.6°C 69% 3.7 mph SSW6.0 kmh SSW 5.4 mph8.7 kmh 29.85 in1010.8 mb 0.00 in0.0 mm 0.00 in/hr0.0 mm/hr 0.00 in0.0 mm
02:29 PM 85.6°F29.8°C 74.4°F23.6°C 69% 3.6 mph SSW5.8 kmh SSW 5.4 mph8.7 kmh 29.85 in1010.8 mb 0.00 in0.0 mm 0.00 in/hr0.0 mm/hr 0.00 in0.0 mm
02:28 PM 85.6°F29.8°C 74.4°F23.6°C 69% 3.5 mph SSW5.6 kmh SSW 5.4 mph8.7 kmh 29.85 in1010.8 mb 0.00 in0.0 mm 0.00 in/hr0.0 mm/hr 0.00 in0.0 mm
02:27 PM 85.6°F29.8°C 74.8°F23.8°C 70% 3.4 mph S5.5 kmh S 5.4 mph8.7 kmh 29.85 in1010.8 mb 0.00 in0.0 mm 0.00 in/hr0.0 mm/hr 0.00 in0.0 mm
02:26 PM 85.6°F29.8°C 74.8°F23.8°C 70% 3.3 mph S5.3 kmh S 5.4 mph8.7 kmh 29.85 in1010.8 mb 0.00 in0.0 mm 0.00 in/hr0.0 mm/hr 0.00 in0.0 mm
02:25 PM 85.6°F29.8°C 74.4°F23.6°C 69% 3.2 mph S5.1 kmh S 5.4 mph8.7 kmh 29.85 in1010.8 mb 0.00 in0.0 mm 0.00 in/hr0.0 mm/hr 0.00 in0.0 mm
02:24 PM 85.8°F29.9°C 75.0°F23.9°C 70% 3.3 mph S5.3 kmh S 5.4 mph8.7 kmh 29.85 in1010.8 mb 0.00 in0.0 mm 0.00 in/hr0.0 mm/hr 0.00 in0.0 mm
02:23 PM 85.8°F29.9°C 75.0°F23.9°C 70% 3.3 mph S5.3 kmh S 5.4 mph8.7 kmh 29.85 in1010.8 mb 0.00 in0.0 mm 0.00 in/hr0.0 mm/hr 0.00 in0.0 mm
02:22 PM 85.8°F29.9°C 75.0°F23.9°C 70% 3.1 mph S5.0 kmh S 4.6 mph7.4 kmh 29.85 in1010.8 mb 0.00 in0.0 mm 0.00 in/hr0.0 mm/hr 0.00 in0.0 mm
02:21 PM 85.8°F29.9°C 74.5°F23.6°C 69% 3.4 mph S5.5 kmh S 4.6 mph7.4 kmh 29.85 in1010.8 mb 0.00 in0.0 mm 0.00 in/hr0.0 mm/hr 0.00 in0.0 mm
02:20 PM 85.8°F29.9°C 74.5°F23.6°C 69% 3.4 mph S5.5 kmh S 4.6 mph7.4 kmh 29.86 in1011.2 mb 0.00 in0.0 mm 0.00 in/hr0.0 mm/hr 0.00 in0.0 mm
02:19 PM 86.0°F30.0°C 74.3°F23.5°C 68% 3.6 mph S5.8 kmh S 4.6 mph7.4 kmh 29.86 in1011.2 mb 0.00 in0.0 mm 0.00 in/hr0.0 mm/hr 0.00 in0.0 mm
02:18 PM 86.0°F30.0°C 74.3°F23.5°C 68% 3.8 mph S6.1 kmh S 4.6 mph7.4 kmh 29.86 in1011.2 mb 0.00 in0.0 mm 0.00 in/hr0.0 mm/hr 0.00 in0.0 mm
02:17 PM 86.0°F30.0°C 74.7°F23.7°C 69% 3.9 mph S6.3 kmh S 4.6 mph7.4 kmh 29.86 in1011.2 mb 0.00 in0.0 mm 0.00 in/hr0.0 mm/hr 0.00 in0.0 mm
02:16 PM 86.0°F30.0°C 74.3°F23.5°C 68% 3.8 mph S6.1 kmh S 4.6 mph7.4 kmh 29.86 in1011.2 mb 0.00 in0.0 mm 0.00 in/hr0.0 mm/hr 0.00 in0.0 mm
02:15 PM 86.0°F30.0°C 74.3°F23.5°C 68% 4.1 mph S6.6 kmh S 6.4 mph10.3 kmh 29.86 in1011.2 mb 0.00 in0.0 mm 0.00 in/hr0.0 mm/hr 0.00 in0.0 mm
02:14 PM 86.0°F30.0°C 74.3°F23.5°C 68% 4.4 mph S7.1 kmh S 6.4 mph10.3 kmh 29.86 in1011.2 mb 0.00 in0.0 mm 0.00 in/hr0.0 mm/hr 0.00 in0.0 mm
02:13 PM 86.2°F30.1°C 74.4°F23.6°C 68% 4.8 mph S7.7 kmh S 6.4 mph10.3 kmh 29.86 in1011.2 mb 0.00 in0.0 mm 0.00 in/hr0.0 mm/hr 0.00 in0.0 mm
02:12 PM 86.2°F30.1°C 74.0°F23.3°C 67% 5.1 mph S8.2 kmh S 6.4 mph10.3 kmh 29.86 in1011.2 mb 0.00 in0.0 mm 0.00 in/hr0.0 mm/hr 0.00 in0.0 mm
02:11 PM 86.4°F30.2°C 74.2°F23.4°C 67% 5.3 mph S8.5 kmh S 6.4 mph10.3 kmh 29.85 in1010.8 mb 0.00 in0.0 mm 0.00 in/hr0.0 mm/hr 0.00 in0.0 mm
02:10 PM 86.4°F30.2°C 74.6°F23.7°C 68% 5.5 mph S8.9 kmh S 6.4 mph10.3 kmh 29.86 in1011.2 mb 0.00 in0.0 mm 0.00 in/hr0.0 mm/hr 0.00 in0.0 mm
02:09 PM 86.5°F30.3°C 74.3°F23.5°C 67% 5.5 mph S8.9 kmh S 6.4 mph10.3 kmh 29.86 in1011.2 mb 0.00 in0.0 mm 0.00 in/hr0.0 mm/hr 0.00 in0.0 mm
02:08 PM 86.7°F30.4°C 74.5°F23.6°C 67% 5.5 mph SSE8.9 kmh SSE 6.4 mph10.3 kmh 29.85 in1010.8 mb 0.00 in0.0 mm 0.00 in/hr0.0 mm/hr 0.00 in0.0 mm
02:07 PM 86.7°F30.4°C 75.0°F23.9°C 68% 5.6 mph SSE9.0 kmh SSE 6.4 mph10.3 kmh 29.86 in1011.2 mb 0.00 in0.0 mm 0.00 in/hr0.0 mm/hr 0.00 in0.0 mm
02:06 PM 86.4°F30.2°C 74.6°F23.7°C 68% 5.7 mph SE9.2 kmh SE 6.4 mph10.3 kmh 29.85 in1010.8 mb 0.00 in0.0 mm 0.00 in/hr0.0 mm/hr 0.00 in0.0 mm
02:05 PM 86.4°F30.2°C 74.6°F23.7°C 68% 5.6 mph SE9.0 kmh SE 6.4 mph10.3 kmh 29.85 in1010.8 mb 0.00 in0.0 mm 0.00 in/hr0.0 mm/hr 0.00 in0.0 mm
02:04 PM 86.4°F30.2°C 74.6°F23.7°C 68% 5.5 mph SE8.9 kmh SE 6.4 mph10.3 kmh 29.86 in1011.2 mb 0.00 in0.0 mm 0.00 in/hr0.0 mm/hr 0.00 in0.0 mm
02:03 PM 86.4°F30.2°C 74.6°F23.7°C 68% 5.3 mph ESE8.5 kmh ESE 6.4 mph10.3 kmh 29.85 in1010.8 mb 0.00 in0.0 mm 0.00 in/hr0.0 mm/hr 0.00 in0.0 mm
02:02 PM 86.4°F30.2°C 74.6°F23.7°C 68% 5.1 mph ESE8.2 kmh ESE 6.4 mph10.3 kmh 29.85 in1010.8 mb 0.00 in0.0 mm 0.00 in/hr0.0 mm/hr 0.00 in0.0 mm
02:01 PM 86.4°F30.2°C 74.6°F23.7°C 68% 5.0 mph E8.0 kmh E 6.4 mph10.3 kmh 29.85 in1010.8 mb 0.00 in0.0 mm 0.00 in/hr0.0 mm/hr 0.00 in0.0 mm
02:00 PM 86.2°F30.1°C 74.0°F23.3°C 67% 4.7 mph ESE7.6 kmh ESE 6.4 mph10.3 kmh 29.85 in1010.8 mb 0.00 in0.0 mm 0.00 in/hr0.0 mm/hr 0.00 in0.0 mm
01:59 PM 86.2°F30.1°C 74.0°F23.3°C 67% 4.6 mph SE7.4 kmh SE 5.4 mph8.7 kmh 29.85 in1010.8 mb 0.00 in0.0 mm 0.00 in/hr0.0 mm/hr 0.00 in0.0 mm
01:58 PM 86.2°F30.1°C 74.4°F23.6°C 68% 4.5 mph SSE7.2 kmh SSE 5.4 mph8.7 kmh 29.85 in1010.8 mb 0.00 in0.0 mm 0.00 in/hr0.0 mm/hr 0.00 in0.0 mm
01:57 PM 86.2°F30.1°C 74.4°F23.6°C 68% 4.5 mph SSE7.2 kmh SSE 5.4 mph8.7 kmh 29.85 in1010.8 mb 0.00 in0.0 mm 0.00 in/hr0.0 mm/hr 0.00 in0.0 mm
01:56 PM 86.0°F30.0°C 74.3°F23.5°C 68% 4.4 mph S7.1 kmh S 5.4 mph8.7 kmh 29.86 in1011.2 mb 0.00 in0.0 mm 0.00 in/hr0.0 mm/hr 0.00 in0.0 mm
01:55 PM 86.0°F30.0°C 74.7°F23.7°C 69% 4.4 mph S7.1 kmh S 6.4 mph10.3 kmh 29.86 in1011.2 mb 0.00 in0.0 mm 0.00 in/hr0.0 mm/hr 0.00 in0.0 mm
01:54 PM 86.0°F30.0°C 74.7°F23.7°C 69% 4.3 mph S6.9 kmh S 6.4 mph10.3 kmh 29.86 in1011.2 mb 0.00 in0.0 mm 0.00 in/hr0.0 mm/hr 0.00 in0.0 mm
01:53 PM 85.8°F29.9°C 75.0°F23.9°C 70% 4.1 mph S6.6 kmh S 6.4 mph10.3 kmh 29.86 in1011.2 mb 0.00 in0.0 mm 0.00 in/hr0.0 mm/hr 0.00 in0.0 mm
01:52 PM 85.8°F29.9°C 75.0°F23.9°C 70% 4.0 mph S6.4 kmh S 6.4 mph10.3 kmh 29.86 in1011.2 mb 0.00 in0.0 mm 0.00 in/hr0.0 mm/hr 0.00 in0.0 mm
01:51 PM 85.5°F29.7°C 74.6°F23.7°C 70% 3.8 mph S6.1 kmh S 6.4 mph10.3 kmh 29.86 in1011.2 mb 0.00 in0.0 mm 0.00 in/hr0.0 mm/hr 0.00 in0.0 mm
01:50 PM 85.5°F29.7°C 74.2°F23.4°C 69% 3.7 mph S6.0 kmh S 6.4 mph10.3 kmh 29.86 in1011.2 mb 0.00 in0.0 mm 0.00 in/hr0.0 mm/hr 0.00 in0.0 mm
01:49 PM 85.5°F29.7°C 74.2°F23.4°C 69% 3.8 mph S6.1 kmh S 6.4 mph10.3 kmh 29.86 in1011.2 mb 0.00 in0.0 mm 0.00 in/hr0.0 mm/hr 0.00 in0.0 mm
01:48 PM 85.5°F29.7°C 74.2°F23.4°C 69% 3.7 mph S6.0 kmh S 6.4 mph10.3 kmh 29.86 in1011.2 mb 0.00 in0.0 mm 0.00 in/hr0.0 mm/hr 0.00 in0.0 mm
01:47 PM 85.3°F29.6°C 73.6°F23.1°C 68% 3.6 mph S5.8 kmh S 6.4 mph10.3 kmh 29.86 in1011.2 mb 0.00 in0.0 mm 0.00 in/hr0.0 mm/hr 0.00 in0.0 mm
01:46 PM 85.3°F29.6°C 74.0°F23.3°C 69% 3.4 mph SSE5.5 kmh SSE 6.4 mph10.3 kmh 29.86 in1011.2 mb 0.00 in0.0 mm 0.00 in/hr0.0 mm/hr 0.00 in0.0 mm
01:45 PM 85.3°F29.6°C 74.0°F23.3°C 69% 3.1 mph SSE5.0 kmh SSE 3.8 mph6.1 kmh 29.86 in1011.2 mb 0.00 in0.0 mm 0.00 in/hr0.0 mm/hr 0.00 in0.0 mm
01:44 PM 85.5°F29.7°C 73.8°F23.2°C 68% 3.1 mph SE5.0 kmh SE 3.8 mph6.1 kmh 29.86 in1011.2 mb 0.00 in0.0 mm 0.00 in/hr0.0 mm/hr 0.00 in0.0 mm
01:43 PM 85.6°F29.8°C 73.9°F23.3°C 68% 3.1 mph SSE5.0 kmh SSE 5.4 mph8.7 kmh 29.86 in1011.2 mb 0.00 in0.0 mm 0.00 in/hr0.0 mm/hr 0.00 in0.0 mm
01:42 PM 85.6°F29.8°C 73.9°F23.3°C 68% 3.5 mph SE5.6 kmh SE 6.4 mph10.3 kmh 29.86 in1011.2 mb 0.00 in0.0 mm 0.00 in/hr0.0 mm/hr 0.00 in0.0 mm
01:41 PM 85.6°F29.8°C 73.9°F23.3°C 68% 3.7 mph SSE6.0 kmh SSE 6.4 mph10.3 kmh 29.86 in1011.2 mb 0.00 in0.0 mm 0.00 in/hr0.0 mm/hr 0.00 in0.0 mm
01:40 PM 85.8°F29.9°C 73.7°F23.2°C 67% 3.8 mph SSE6.1 kmh SSE 6.4 mph10.3 kmh 29.86 in1011.2 mb 0.00 in0.0 mm 0.00 in/hr0.0 mm/hr 0.00 in0.0 mm
01:39 PM 86.0°F30.0°C 73.4°F23.0°C 66% 4.0 mph SSE6.4 kmh SSE 6.4 mph10.3 kmh 29.86 in1011.2 mb 0.00 in0.0 mm 0.00 in/hr0.0 mm/hr 0.00 in0.0 mm
01:38 PM 86.2°F30.1°C 73.6°F23.1°C 66% 4.2 mph SSE6.8 kmh SSE 6.4 mph10.3 kmh 29.87 in1011.5 mb 0.00 in0.0 mm 0.00 in/hr0.0 mm/hr 0.00 in0.0 mm
01:37 PM 86.4°F30.2°C 73.7°F23.2°C 66% 4.4 mph SSE7.1 kmh SSE 6.4 mph10.3 kmh 29.86 in1011.2 mb 0.00 in0.0 mm 0.00 in/hr0.0 mm/hr 0.00 in0.0 mm
01:36 PM 86.4°F30.2°C 73.7°F23.2°C 66% 4.6 mph SSE7.4 kmh SSE 6.4 mph10.3 kmh 29.87 in1011.5 mb 0.00 in0.0 mm 0.00 in/hr0.0 mm/hr 0.00 in0.0 mm
01:35 PM 86.5°F30.3°C 73.9°F23.3°C 66% 4.6 mph SSE7.4 kmh SSE 6.4 mph10.3 kmh 29.87 in1011.5 mb 0.00 in0.0 mm 0.00 in/hr0.0 mm/hr 0.00 in0.0 mm
01:34 PM 86.5°F30.3°C 74.3°F23.5°C 67% 4.6 mph SSE7.4 kmh SSE 6.4 mph10.3 kmh 29.87 in1011.5 mb 0.00 in0.0 mm 0.00 in/hr0.0 mm/hr 0.00 in0.0 mm
01:33 PM 86.5°F30.3°C 74.3°F23.5°C 67% 4.6 mph SSE7.4 kmh SSE 6.4 mph10.3 kmh 29.86 in1011.2 mb 0.00 in0.0 mm 0.00 in/hr0.0 mm/hr 0.00 in0.0 mm
01:32 PM 86.5°F30.3°C 74.3°F23.5°C 67% 4.4 mph SSE7.1 kmh SSE 6.4 mph10.3 kmh 29.87 in1011.5 mb 0.00 in0.0 mm 0.00 in/hr0.0 mm/hr 0.00 in0.0 mm
01:31 PM 86.5°F30.3°C 74.3°F23.5°C 67% 4.2 mph SSE6.8 kmh SSE 5.4 mph8.7 kmh 29.86 in1011.2 mb 0.00 in0.0 mm 0.00 in/hr0.0 mm/hr 0.00 in0.0 mm
01:30 PM 86.5°F30.3°C 74.3°F23.5°C 67% 4.2 mph SSE6.8 kmh SSE 5.4 mph8.7 kmh 29.87 in1011.5 mb 0.00 in0.0 mm 0.00 in/hr0.0 mm/hr 0.00 in0.0 mm
01:29 PM 86.5°F30.3°C 74.3°F23.5°C 67% 4.3 mph SSE6.9 kmh SSE 5.4 mph8.7 kmh 29.86 in1011.2 mb 0.00 in0.0 mm 0.00 in/hr0.0 mm/hr 0.00 in0.0 mm
01:28 PM 86.7°F30.4°C 74.1°F23.4°C 66% 4.1 mph SSE6.6 kmh SSE 5.4 mph8.7 kmh 29.86 in1011.2 mb 0.00 in0.0 mm 0.00 in/hr0.0 mm/hr 0.00 in0.0 mm
01:27 PM 86.7°F30.4°C 74.5°F23.6°C 67% 4.0 mph SSE6.4 kmh SSE 5.4 mph8.7 kmh 29.87 in1011.5 mb 0.00 in0.0 mm 0.00 in/hr0.0 mm/hr 0.00 in0.0 mm
01:26 PM 86.7°F30.4°C 74.5°F23.6°C 67% 3.8 mph SSE6.1 kmh SSE 5.4 mph8.7 kmh 29.87 in1011.5 mb 0.00 in0.0 mm 0.00 in/hr0.0 mm/hr 0.00 in0.0 mm
01:25 PM 86.7°F30.4°C 74.1°F23.4°C 66% 3.8 mph SSE6.1 kmh SSE 5.4 mph8.7 kmh 29.87 in1011.5 mb 0.00 in0.0 mm 0.00 in/hr0.0 mm/hr 0.00 in0.0 mm
01:24 PM 86.5°F30.3°C 73.9°F23.3°C 66% 3.8 mph S6.1 kmh S 5.4 mph8.7 kmh 29.87 in1011.5 mb 0.00 in0.0 mm 0.00 in/hr0.0 mm/hr 0.00 in0.0 mm
01:23 PM 86.5°F30.3°C 74.3°F23.5°C 67% 4.0 mph SSE6.4 kmh SSE 7.2 mph11.6 kmh 29.87 in1011.5 mb 0.00 in0.0 mm 0.00 in/hr0.0 mm/hr 0.00 in0.0 mm
01:22 PM 86.5°F30.3°C 73.9°F23.3°C 66% 4.1 mph SSE6.6 kmh SSE 7.2 mph11.6 kmh 29.87 in1011.5 mb 0.00 in0.0 mm 0.00 in/hr0.0 mm/hr 0.00 in0.0 mm
01:21 PM 86.5°F30.3°C 73.9°F23.3°C 66% 4.1 mph SSE6.6 kmh SSE 7.2 mph11.6 kmh 29.87 in1011.5 mb 0.00 in0.0 mm 0.00 in/hr0.0 mm/hr 0.00 in0.0 mm
01:20 PM 86.5°F30.3°C 73.4°F23.0°C 65% 4.0 mph SSE6.4 kmh SSE 7.2 mph11.6 kmh 29.87 in1011.5 mb 0.00 in0.0 mm 0.00 in/hr0.0 mm/hr 0.00 in0.0 mm
01:19 PM 86.5°F30.3°C 73.9°F23.3°C 66% 3.7 mph SSE6.0 kmh SSE 7.2 mph11.6 kmh 29.87 in1011.5 mb 0.00 in0.0 mm 0.00 in/hr0.0 mm/hr 0.00 in0.0 mm
01:18 PM 86.7°F30.4°C 74.5°F23.6°C 67% 3.6 mph SSE5.8 kmh SSE 7.2 mph11.6 kmh 29.87 in1011.5 mb 0.00 in0.0 mm 0.00 in/hr0.0 mm/hr 0.00 in0.0 mm
01:17 PM 86.5°F30.3°C 74.8°F23.8°C 68% 3.4 mph SSE5.5 kmh SSE 7.2 mph11.6 kmh 29.87 in1011.5 mb 0.00 in0.0 mm 0.00 in/hr0.0 mm/hr 0.00 in0.0 mm
01:16 PM 86.5°F30.3°C 74.8°F23.8°C 68% 3.3 mph SSE5.3 kmh SSE 7.2 mph11.6 kmh 29.87 in1011.5 mb 0.00 in0.0 mm 0.00 in/hr0.0 mm/hr 0.00 in0.0 mm
01:15 PM 86.5°F30.3°C 74.3°F23.5°C 67% 3.2 mph SE5.1 kmh SE 7.2 mph11.6 kmh 29.87 in1011.5 mb 0.00 in0.0 mm 0.00 in/hr0.0 mm/hr 0.00 in0.0 mm
01:14 PM 86.4°F30.2°C 74.2°F23.4°C 67% 3.1 mph SE5.0 kmh SE 7.2 mph11.6 kmh 29.87 in1011.5 mb 0.00 in0.0 mm 0.00 in/hr0.0 mm/hr 0.00 in0.0 mm
01:13 PM 86.4°F30.2°C 74.2°F23.4°C 67% 3.1 mph SE5.0 kmh SE 7.2 mph11.6 kmh 29.87 in1011.5 mb 0.00 in0.0 mm 0.00 in/hr0.0 mm/hr 0.00 in0.0 mm
01:12 PM 86.4°F30.2°C 73.7°F23.2°C 66% 2.6 mph SE4.2 kmh SE 4.6 mph7.4 kmh 29.87 in1011.5 mb 0.00 in0.0 mm 0.00 in/hr0.0 mm/hr 0.00 in0.0 mm
01:11 PM 86.4°F30.2°C 73.7°F23.2°C 66% 2.6 mph SE4.2 kmh SE 2.7 mph4.3 kmh 29.87 in1011.5 mb 0.00 in0.0 mm 0.00 in/hr0.0 mm/hr 0.00 in0.0 mm
01:10 PM 86.4°F30.2°C 73.7°F23.2°C 66% 2.7 mph SE4.3 kmh SE 4.6 mph7.4 kmh 29.87 in1011.5 mb 0.00 in0.0 mm 0.00 in/hr0.0 mm/hr 0.00 in0.0 mm
01:09 PM 86.4°F30.2°C 73.3°F22.9°C 65% 2.8 mph SSE4.5 kmh SSE 4.6 mph7.4 kmh 29.87 in1011.5 mb 0.00 in0.0 mm 0.00 in/hr0.0 mm/hr 0.00 in0.0 mm
01:08 PM 86.4°F30.2°C 73.3°F22.9°C 65% 3.0 mph SE4.8 kmh SE 5.4 mph8.7 kmh 29.87 in1011.5 mb 0.00 in0.0 mm 0.00 in/hr0.0 mm/hr 0.00 in0.0 mm
01:07 PM 86.4°F30.2°C 73.3°F22.9°C 65% 3.2 mph SE5.1 kmh SE 5.4 mph8.7 kmh 29.87 in1011.5 mb 0.00 in0.0 mm 0.00 in/hr0.0 mm/hr 0.00 in0.0 mm
01:06 PM 86.7°F30.4°C 73.6°F23.1°C 65% 3.4 mph SE5.5 kmh SE 5.4 mph8.7 kmh 29.88 in1011.9 mb 0.00 in0.0 mm 0.00 in/hr0.0 mm/hr 0.00 in0.0 mm
01:05 PM 86.7°F30.4°C 73.6°F23.1°C 65% 3.4 mph SE5.5 kmh SE 5.4 mph8.7 kmh 29.87 in1011.5 mb 0.00 in0.0 mm 0.00 in/hr0.0 mm/hr 0.00 in0.0 mm
01:04 PM 86.7°F30.4°C 73.6°F23.1°C 65% 3.6 mph SE5.8 kmh SE 5.4 mph8.7 kmh 29.87 in1011.5 mb 0.00 in0.0 mm 0.00 in/hr0.0 mm/hr 0.00 in0.0 mm
01:03 PM 86.7°F30.4°C 73.6°F23.1°C 65% 3.6 mph SSE5.8 kmh SSE 5.4 mph8.7 kmh 29.88 in1011.9 mb 0.00 in0.0 mm 0.00 in/hr0.0 mm/hr 0.00 in0.0 mm
01:02 PM 86.7°F30.4°C 73.6°F23.1°C 65% 3.7 mph SSE6.0 kmh SSE 5.4 mph8.7 kmh 29.88 in1011.9 mb 0.00 in0.0 mm 0.00 in/hr0.0 mm/hr 0.00 in0.0 mm
01:01 PM 86.7°F30.4°C 73.6°F23.1°C 65% 3.8 mph SSE6.1 kmh SSE 5.4 mph8.7 kmh 29.88 in1011.9 mb 0.00 in0.0 mm 0.00 in/hr0.0 mm/hr 0.00 in0.0 mm
01:00 PM 86.7°F30.4°C 72.7°F22.6°C 63% 3.9 mph SSE6.3 kmh SSE 5.4 mph8.7 kmh 29.88 in1011.9 mb 0.00 in0.0 mm 0.00 in/hr0.0 mm/hr 0.00 in0.0 mm
12:59 PM 86.7°F30.4°C 73.1°F22.8°C 64% 3.8 mph SSE6.1 kmh SSE 5.4 mph8.7 kmh 29.88 in1011.9 mb 0.00 in0.0 mm 0.00 in/hr0.0 mm/hr 0.00 in0.0 mm
12:58 PM 86.7°F30.4°C 73.6°F23.1°C 65% 3.6 mph S5.8 kmh S 4.6 mph7.4 kmh 29.88 in1011.9 mb 0.00 in0.0 mm 0.00 in/hr0.0 mm/hr 0.00 in0.0 mm
12:57 PM 86.9°F30.5°C 73.8°F23.2°C 65% 3.4 mph S5.5 kmh S 4.6 mph7.4 kmh 29.88 in1011.9 mb 0.00 in0.0 mm 0.00 in/hr0.0 mm/hr 0.00 in0.0 mm
12:56 PM 86.9°F30.5°C 73.8°F23.2°C 65% 3.3 mph S5.3 kmh S 4.6 mph7.4 kmh 29.88 in1011.9 mb 0.00 in0.0 mm 0.00 in/hr0.0 mm/hr 0.00 in0.0 mm
12:55 PM 86.9°F30.5°C 73.8°F23.2°C 65% 3.2 mph SSE5.1 kmh SSE 4.6 mph7.4 kmh 29.88 in1011.9 mb 0.00 in0.0 mm 0.00 in/hr0.0 mm/hr 0.00 in0.0 mm
12:54 PM 86.9°F30.5°C 74.2°F23.4°C 66% 3.3 mph S5.3 kmh S 4.6 mph7.4 kmh 29.88 in1011.9 mb 0.00 in0.0 mm 0.00 in/hr0.0 mm/hr 0.00 in0.0 mm
12:53 PM 86.7°F30.4°C 74.1°F23.4°C 66% 3.4 mph S5.5 kmh S 4.6 mph7.4 kmh 29.87 in1011.5 mb 0.00 in0.0 mm 0.00 in/hr0.0 mm/hr 0.00 in0.0 mm
12:52 PM 86.9°F30.5°C 74.2°F23.4°C 66% 3.4 mph S5.5 kmh S 4.6 mph7.4 kmh 29.87 in1011.5 mb 0.00 in0.0 mm 0.00 in/hr0.0 mm/hr 0.00 in0.0 mm
12:51 PM 86.7°F30.4°C 74.1°F23.4°C 66% 3.3 mph S5.3 kmh S 4.6 mph7.4 kmh 29.87 in1011.5 mb 0.00 in0.0 mm 0.00 in/hr0.0 mm/hr 0.00 in0.0 mm
12:50 PM 86.7°F30.4°C 74.1°F23.4°C 66% 3.2 mph SSE5.1 kmh SSE 4.6 mph7.4 kmh 29.88 in1011.9 mb 0.00 in0.0 mm 0.00 in/hr0.0 mm/hr 0.00 in0.0 mm
12:49 PM 86.7°F30.4°C 74.1°F23.4°C 66% 3.1 mph SSE5.0 kmh SSE 4.6 mph7.4 kmh 29.88 in1011.9 mb 0.00 in0.0 mm 0.00 in/hr0.0 mm/hr 0.00 in0.0 mm
12:48 PM 86.7°F30.4°C 73.6°F23.1°C 65% 3.2 mph SSE5.1 kmh SSE 4.6 mph7.4 kmh 29.88 in1011.9 mb 0.00 in0.0 mm 0.00 in/hr0.0 mm/hr 0.00 in0.0 mm
12:47 PM 86.5°F30.3°C 73.4°F23.0°C 65% 3.3 mph SE5.3 kmh SE 4.6 mph7.4 kmh 29.88 in1011.9 mb 0.00 in0.0 mm 0.00 in/hr0.0 mm/hr 0.00 in0.0 mm
12:46 PM 86.7°F30.4°C 73.6°F23.1°C 65% 3.5 mph SE5.6 kmh SE 4.6 mph7.4 kmh 29.88 in1011.9 mb 0.00 in0.0 mm 0.00 in/hr0.0 mm/hr 0.00 in0.0 mm
12:45 PM 86.7°F30.4°C 73.1°F22.8°C 64% 3.6 mph SSE5.8 kmh SSE 4.6 mph7.4 kmh 29.88 in1011.9 mb 0.00 in0.0 mm 0.00 in/hr0.0 mm/hr 0.00 in0.0 mm
12:44 PM 86.7°F30.4°C 73.6°F23.1°C 65% 3.7 mph SE6.0 kmh SE 5.4 mph8.7 kmh 29.88 in1011.9 mb 0.00 in0.0 mm 0.00 in/hr0.0 mm/hr 0.00 in0.0 mm
12:43 PM 86.7°F30.4°C 73.6°F23.1°C 65% 3.7 mph SE6.0 kmh SE 5.4 mph8.7 kmh 29.88 in1011.9 mb 0.00 in0.0 mm 0.00 in/hr0.0 mm/hr 0.00 in0.0 mm
12:42 PM 86.9°F30.5°C 73.3°F22.9°C 64% 3.6 mph SE5.8 kmh SE 5.4 mph8.7 kmh 29.88 in1011.9 mb 0.00 in0.0 mm 0.00 in/hr0.0 mm/hr 0.00 in0.0 mm
12:41 PM 86.7°F30.4°C 73.6°F23.1°C 65% 3.6 mph SW5.8 kmh SW 5.4 mph8.7 kmh 29.88 in1011.9 mb 0.00 in0.0 mm 0.00 in/hr0.0 mm/hr 0.00 in0.0 mm
12:40 PM 86.7°F30.4°C 73.6°F23.1°C 65% 3.8 mph SW6.1 kmh SW 5.4 mph8.7 kmh 29.88 in1011.9 mb 0.00 in0.0 mm 0.00 in/hr0.0 mm/hr 0.00 in0.0 mm
12:39 PM 86.7°F30.4°C 73.1°F22.8°C 64% 4.0 mph SW6.4 kmh SW 5.4 mph8.7 kmh 29.88 in1011.9 mb 0.00 in0.0 mm 0.00 in/hr0.0 mm/hr 0.00 in0.0 mm
12:38 PM 86.7°F30.4°C 72.7°F22.6°C 63% 4.0 mph SW6.4 kmh SW 5.4 mph8.7 kmh 29.88 in1011.9 mb 0.00 in0.0 mm 0.00 in/hr0.0 mm/hr 0.00 in0.0 mm
12:37 PM 86.7°F30.4°C 73.6°F23.1°C 65% 4.0 mph SW6.4 kmh SW 5.4 mph8.7 kmh 29.88 in1011.9 mb 0.00 in0.0 mm 0.00 in/hr0.0 mm/hr 0.00 in0.0 mm
12:36 PM 86.7°F30.4°C 73.6°F23.1°C 65% 3.9 mph SW6.3 kmh SW 5.4 mph8.7 kmh 29.88 in1011.9 mb 0.00 in0.0 mm 0.00 in/hr0.0 mm/hr 0.00 in0.0 mm
12:35 PM 86.7°F30.4°C 73.6°F23.1°C 65% 3.9 mph SW6.3 kmh SW 5.4 mph8.7 kmh 29.88 in1011.9 mb 0.00 in0.0 mm 0.00 in/hr0.0 mm/hr 0.00 in0.0 mm
12:34 PM 86.5°F30.3°C 73.4°F23.0°C 65% 3.7 mph SSW6.0 kmh SSW 4.6 mph7.4 kmh 29.88 in1011.9 mb 0.00 in0.0 mm 0.00 in/hr0.0 mm/hr 0.00 in0.0 mm
12:33 PM 86.4°F30.2°C 73.3°F22.9°C 65% 3.6 mph S5.8 kmh S 4.6 mph7.4 kmh 29.89 in1012.2 mb 0.00 in0.0 mm 0.00 in/hr0.0 mm/hr 0.00 in0.0 mm
12:32 PM 86.4°F30.2°C 73.3°F22.9°C 65% 3.6 mph SSE5.8 kmh SSE 4.6 mph7.4 kmh 29.89 in1012.2 mb 0.00 in0.0 mm 0.00 in/hr0.0 mm/hr 0.00 in0.0 mm
12:31 PM 86.4°F30.2°C 73.3°F22.9°C 65% 3.5 mph SE5.6 kmh SE 4.6 mph7.4 kmh 29.89 in1012.2 mb 0.00 in0.0 mm 0.00 in/hr0.0 mm/hr 0.00 in0.0 mm
12:30 PM 86.4°F30.2°C 73.3°F22.9°C 65% 3.4 mph ESE5.5 kmh ESE 4.6 mph7.4 kmh 29.89 in1012.2 mb 0.00 in0.0 mm 0.00 in/hr0.0 mm/hr 0.00 in0.0 mm
12:29 PM 86.4°F30.2°C 73.3°F22.9°C 65% 3.3 mph E5.3 kmh E 4.6 mph7.4 kmh 29.89 in1012.2 mb 0.00 in0.0 mm 0.00 in/hr0.0 mm/hr 0.00 in0.0 mm
12:28 PM 86.4°F30.2°C 73.7°F23.2°C 66% 3.3 mph E5.3 kmh E 4.6 mph7.4 kmh 29.89 in1012.2 mb 0.00 in0.0 mm 0.00 in/hr0.0 mm/hr 0.00 in0.0 mm
12:27 PM 86.4°F30.2°C 74.2°F23.4°C 67% 3.4 mph SE5.5 kmh SE 4.6 mph7.4 kmh 29.89 in1012.2 mb 0.00 in0.0 mm 0.00 in/hr0.0 mm/hr 0.00 in0.0 mm
12:26 PM 86.4°F30.2°C 74.2°F23.4°C 67% 3.6 mph SSE5.8 kmh SSE 4.6 mph7.4 kmh 29.89 in1012.2 mb 0.00 in0.0 mm 0.00 in/hr0.0 mm/hr 0.00 in0.0 mm
12:25 PM 86.2°F30.1°C 74.0°F23.3°C 67% 3.5 mph SSE5.6 kmh SSE 4.6 mph7.4 kmh 29.89 in1012.2 mb 0.00 in0.0 mm 0.00 in/hr0.0 mm/hr 0.00 in0.0 mm
12:24 PM 86.2°F30.1°C 73.6°F23.1°C 66% 3.6 mph SSE5.8 kmh SSE 4.6 mph7.4 kmh 29.89 in1012.2 mb 0.00 in0.0 mm 0.00 in/hr0.0 mm/hr 0.00 in0.0 mm
12:23 PM 86.2°F30.1°C 73.6°F23.1°C 66% 3.7 mph SE6.0 kmh SE 4.6 mph7.4 kmh 29.89 in1012.2 mb 0.00 in0.0 mm 0.00 in/hr0.0 mm/hr 0.00 in0.0 mm
12:22 PM 86.0°F30.0°C 73.4°F23.0°C 66% 3.7 mph SE6.0 kmh SE 4.6 mph7.4 kmh 29.89 in1012.2 mb 0.00 in0.0 mm 0.00 in/hr0.0 mm/hr 0.00 in0.0 mm
12:21 PM 86.0°F30.0°C 73.8°F23.2°C 67% 3.8 mph SSE6.1 kmh SSE 4.6 mph7.4 kmh 29.89 in1012.2 mb 0.00 in0.0 mm 0.00 in/hr0.0 mm/hr 0.00 in0.0 mm
12:20 PM 86.0°F30.0°C 73.4°F23.0°C 66% 4.1 mph SSE6.6 kmh SSE 5.4 mph8.7 kmh 29.89 in1012.2 mb 0.00 in0.0 mm 0.00 in/hr0.0 mm/hr 0.00 in0.0 mm
12:19 PM 85.8°F29.9°C 73.2°F22.9°C 66% 4.1 mph SE6.6 kmh SE 5.4 mph8.7 kmh 29.89 in1012.2 mb 0.00 in0.0 mm 0.00 in/hr0.0 mm/hr 0.00 in0.0 mm
12:18 PM 85.8°F29.9°C 73.7°F23.2°C 67% 4.1 mph SE6.6 kmh SE 5.4 mph8.7 kmh 29.89 in1012.2 mb 0.00 in0.0 mm 0.00 in/hr0.0 mm/hr 0.00 in0.0 mm
12:17 PM 85.8°F29.9°C 73.7°F23.2°C 67% 4.0 mph SE6.4 kmh SE 5.4 mph8.7 kmh 29.89 in1012.2 mb 0.00 in0.0 mm 0.00 in/hr0.0 mm/hr 0.00 in0.0 mm
12:16 PM 85.8°F29.9°C 73.7°F23.2°C 67% 4.0 mph ESE6.4 kmh ESE 5.4 mph8.7 kmh 29.89 in1012.2 mb 0.00 in0.0 mm 0.00 in/hr0.0 mm/hr 0.00 in0.0 mm
12:15 PM 85.8°F29.9°C 73.2°F22.9°C 66% 3.9 mph ESE6.3 kmh ESE 5.4 mph8.7 kmh 29.89 in1012.2 mb 0.00 in0.0 mm 0.00 in/hr0.0 mm/hr 0.00 in0.0 mm
12:14 PM 85.8°F29.9°C 74.1°F23.4°C 68% 3.7 mph ESE6.0 kmh ESE 5.4 mph8.7 kmh 29.89 in1012.2 mb 0.00 in0.0 mm 0.00 in/hr0.0 mm/hr 0.00 in0.0 mm
12:13 PM 85.8°F29.9°C 74.1°F23.4°C 68% 3.6 mph SE5.8 kmh SE 5.4 mph8.7 kmh 29.89 in1012.2 mb 0.00 in0.0 mm 0.00 in/hr0.0 mm/hr 0.00 in0.0 mm
12:12 PM 85.6°F29.8°C 74.4°F23.6°C 69% 3.6 mph SE5.8 kmh SE 5.4 mph8.7 kmh 29.89 in1012.2 mb 0.00 in0.0 mm 0.00 in/hr0.0 mm/hr 0.00 in0.0 mm
12:11 PM 85.6°F29.8°C 73.9°F23.3°C 68% 3.5 mph SE5.6 kmh SE 5.4 mph8.7 kmh 29.89 in1012.2 mb 0.00 in0.0 mm 0.00 in/hr0.0 mm/hr 0.00 in0.0 mm
12:10 PM 85.8°F29.9°C 74.1°F23.4°C 68% 3.3 mph SE5.3 kmh SE 4.6 mph7.4 kmh 29.89 in1012.2 mb 0.00 in0.0 mm 0.00 in/hr0.0 mm/hr 0.00 in0.0 mm
12:09 PM 85.8°F29.9°C 73.2°F22.9°C 66% 3.2 mph SSE5.1 kmh SSE 4.6 mph7.4 kmh 29.89 in1012.2 mb 0.00 in0.0 mm 0.00 in/hr0.0 mm/hr 0.00 in0.0 mm
12:08 PM 85.8°F29.9°C 73.7°F23.2°C 67% 3.3 mph S5.3 kmh S 5.4 mph8.7 kmh 29.89 in1012.2 mb 0.00 in0.0 mm 0.00 in/hr0.0 mm/hr 0.00 in0.0 mm
12:07 PM 85.8°F29.9°C 73.2°F22.9°C 66% 3.2 mph S5.1 kmh S 5.4 mph8.7 kmh 29.89 in1012.2 mb 0.00 in0.0 mm 0.00 in/hr0.0 mm/hr 0.00 in0.0 mm
12:06 PM 85.3°F29.6°C 73.6°F23.1°C 68% 3.2 mph S5.1 kmh S 5.4 mph8.7 kmh 29.89 in1012.2 mb 0.00 in0.0 mm 0.00 in/hr0.0 mm/hr 0.00 in0.0 mm
12:05 PM 85.3°F29.6°C 73.6°F23.1°C 68% 3.3 mph SSE5.3 kmh SSE 5.4 mph8.7 kmh 29.90 in1012.5 mb 0.00 in0.0 mm 0.00 in/hr0.0 mm/hr 0.00 in0.0 mm
12:04 PM 85.3°F29.6°C 73.6°F23.1°C 68% 3.3 mph SSE5.3 kmh SSE 5.4 mph8.7 kmh 29.89 in1012.2 mb 0.00 in0.0 mm 0.00 in/hr0.0 mm/hr 0.00 in0.0 mm
12:03 PM 85.3°F29.6°C 73.6°F23.1°C 68% 3.3 mph SSE5.3 kmh SSE 5.4 mph8.7 kmh 29.89 in1012.2 mb 0.00 in0.0 mm 0.00 in/hr0.0 mm/hr 0.00 in0.0 mm
12:02 PM 85.3°F29.6°C 73.6°F23.1°C 68% 3.4 mph S5.5 kmh S 5.4 mph8.7 kmh 29.89 in1012.2 mb 0.00 in0.0 mm 0.00 in/hr0.0 mm/hr 0.00 in0.0 mm
12:01 PM 85.3°F29.6°C 73.6°F23.1°C 68% 3.5 mph S5.6 kmh S 5.4 mph8.7 kmh 29.90 in1012.5 mb 0.00 in0.0 mm 0.00 in/hr0.0 mm/hr 0.00 in0.0 mm
12:00 PM 85.3°F29.6°C 73.6°F23.1°C 68% 3.4 mph SSE5.5 kmh SSE 5.4 mph8.7 kmh 29.90 in1012.5 mb 0.00 in0.0 mm 0.00 in/hr0.0 mm/hr 0.00 in0.0 mm
11:59 AM 85.3°F29.6°C 73.1°F22.8°C 67% 3.4 mph SSE5.5 kmh SSE 5.4 mph8.7 kmh 29.89 in1012.2 mb 0.00 in0.0 mm 0.00 in/hr0.0 mm/hr 0.00 in0.0 mm
11:58 AM 85.3°F29.6°C 73.1°F22.8°C 67% 3.2 mph SE5.1 kmh SE 5.4 mph8.7 kmh 29.90 in1012.5 mb 0.00 in0.0 mm 0.00 in/hr0.0 mm/hr 0.00 in0.0 mm
11:57 AM 85.3°F29.6°C 72.7°F22.6°C 66% 3.4 mph SE5.5 kmh SE 5.4 mph8.7 kmh 29.90 in1012.5 mb 0.00 in0.0 mm 0.00 in/hr0.0 mm/hr 0.00 in0.0 mm
11:56 AM 85.3°F29.6°C 72.7°F22.6°C 66% 3.4 mph S5.5 kmh S 5.4 mph8.7 kmh 29.90 in1012.5 mb 0.00 in0.0 mm 0.00 in/hr0.0 mm/hr 0.00 in0.0 mm
11:55 AM 85.3°F29.6°C 73.6°F23.1°C 68% 3.6 mph S5.8 kmh S 6.4 mph10.3 kmh 29.91 in1012.9 mb 0.00 in0.0 mm 0.00 in/hr0.0 mm/hr 0.00 in0.0 mm
11:54 AM 85.1°F29.5°C 73.4°F23.0°C 68% 3.6 mph SE5.8 kmh SE 6.4 mph10.3 kmh 29.89 in1012.2 mb 0.00 in0.0 mm 0.00 in/hr0.0 mm/hr 0.00 in0.0 mm
11:53 AM 85.1°F29.5°C 73.8°F23.2°C 69% 3.6 mph SE5.8 kmh SE 6.4 mph10.3 kmh 29.90 in1012.5 mb 0.00 in0.0 mm 0.00 in/hr0.0 mm/hr 0.00 in0.0 mm
11:52 AM 84.9°F29.4°C 73.7°F23.2°C 69% 3.3 mph E5.3 kmh E 6.4 mph10.3 kmh 29.90 in1012.5 mb 0.00 in0.0 mm 0.00 in/hr0.0 mm/hr 0.00 in0.0 mm
11:51 AM 84.9°F29.4°C 73.7°F23.2°C 69% 3.4 mph ENE5.5 kmh ENE 6.4 mph10.3 kmh 29.90 in1012.5 mb 0.00 in0.0 mm 0.00 in/hr0.0 mm/hr 0.00 in0.0 mm
11:50 AM 85.1°F29.5°C 73.8°F23.2°C 69% 3.6 mph SE5.8 kmh SE 6.4 mph10.3 kmh 29.90 in1012.5 mb 0.00 in0.0 mm 0.00 in/hr0.0 mm/hr 0.00 in0.0 mm
11:49 AM 85.1°F29.5°C 73.8°F23.2°C 69% 3.5 mph S5.6 kmh S 6.4 mph10.3 kmh 29.90 in1012.5 mb 0.00 in0.0 mm 0.00 in/hr0.0 mm/hr 0.00 in0.0 mm
11:48 AM 85.1°F29.5°C 73.8°F23.2°C 69% 3.4 mph S5.5 kmh S 6.4 mph10.3 kmh 29.90 in1012.5 mb 0.00 in0.0 mm 0.00 in/hr0.0 mm/hr 0.00 in0.0 mm
11:47 AM 85.1°F29.5°C 73.4°F23.0°C 68% 3.4 mph S5.5 kmh S 6.4 mph10.3 kmh 29.91 in1012.9 mb 0.00 in0.0 mm 0.00 in/hr0.0 mm/hr 0.00 in0.0 mm
11:46 AM 85.1°F29.5°C 73.0°F22.8°C 67% 3.2 mph SSE5.1 kmh SSE 6.4 mph10.3 kmh 29.90 in1012.5 mb 0.00 in0.0 mm 0.00 in/hr0.0 mm/hr 0.00 in0.0 mm
11:45 AM 85.1°F29.5°C 73.4°F23.0°C 68% 3.0 mph S4.8 kmh S 4.6 mph7.4 kmh 29.90 in1012.5 mb 0.00 in0.0 mm 0.00 in/hr0.0 mm/hr 0.00 in0.0 mm
11:44 AM 84.9°F29.4°C 73.2°F22.9°C 68% 2.9 mph S4.7 kmh S 4.6 mph7.4 kmh 29.90 in1012.5 mb 0.00 in0.0 mm 0.00 in/hr0.0 mm/hr 0.00 in0.0 mm
11:43 AM 84.9°F29.4°C 72.8°F22.7°C 67% 3.1 mph S5.0 kmh S 4.6 mph7.4 kmh 29.90 in1012.5 mb 0.00 in0.0 mm 0.00 in/hr0.0 mm/hr 0.00 in0.0 mm
11:42 AM 84.9°F29.4°C 72.8°F22.7°C 67% 3.0 mph S4.8 kmh S 4.6 mph7.4 kmh 29.90 in1012.5 mb 0.00 in0.0 mm 0.00 in/hr0.0 mm/hr 0.00 in0.0 mm
11:41 AM 84.9°F29.4°C 73.2°F22.9°C 68% 3.0 mph S4.8 kmh S 4.6 mph7.4 kmh 29.90 in1012.5 mb 0.00 in0.0 mm 0.00 in/hr0.0 mm/hr 0.00 in0.0 mm
11:40 AM 84.7°F29.3°C 73.5°F23.1°C 69% 3.0 mph S4.8 kmh S 4.6 mph7.4 kmh 29.90 in1012.5 mb 0.00 in0.0 mm 0.00 in/hr0.0 mm/hr 0.00 in0.0 mm
11:39 AM 84.7°F29.3°C 73.5°F23.1°C 69% 2.8 mph SSE4.5 kmh SSE 4.6 mph7.4 kmh 29.90 in1012.5 mb 0.00 in0.0 mm 0.00 in/hr0.0 mm/hr 0.00 in0.0 mm
11:38 AM 84.7°F29.3°C 73.5°F23.1°C 69% 2.7 mph S4.3 kmh S 4.6 mph7.4 kmh 29.90 in1012.5 mb 0.00 in0.0 mm 0.00 in/hr0.0 mm/hr 0.00 in0.0 mm
11:37 AM 84.7°F29.3°C 73.5°F23.1°C 69% 2.6 mph S4.2 kmh S 4.6 mph7.4 kmh 29.90 in1012.5 mb 0.00 in0.0 mm 0.00 in/hr0.0 mm/hr 0.00 in0.0 mm
11:36 AM 84.7°F29.3°C 73.5°F23.1°C 69% 2.6 mph S4.2 kmh S 4.6 mph7.4 kmh 29.91 in1012.9 mb 0.00 in0.0 mm 0.00 in/hr0.0 mm/hr 0.00 in0.0 mm
11:35 AM 84.6°F29.2°C 73.3°F22.9°C 69% 2.8 mph SSW4.5 kmh SSW 6.4 mph10.3 kmh 29.91 in1012.9 mb 0.00 in0.0 mm 0.00 in/hr0.0 mm/hr 0.00 in0.0 mm
11:34 AM 84.6°F29.2°C 73.3°F22.9°C 69% 2.9 mph SSW4.7 kmh SSW 6.4 mph10.3 kmh 29.91 in1012.9 mb 0.00 in0.0 mm 0.00 in/hr0.0 mm/hr 0.00 in0.0 mm
11:33 AM 84.6°F29.2°C 72.9°F22.7°C 68% 2.9 mph SSW4.7 kmh SSW 6.4 mph10.3 kmh 29.91 in1012.9 mb 0.00 in0.0 mm 0.00 in/hr0.0 mm/hr 0.00 in0.0 mm
11:32 AM 84.4°F29.1°C 72.7°F22.6°C 68% 3.1 mph SW5.0 kmh SW 6.4 mph10.3 kmh 29.91 in1012.9 mb 0.00 in0.0 mm 0.00 in/hr0.0 mm/hr 0.00 in0.0 mm
11:31 AM 84.2°F29.0°C 72.6°F22.6°C 68% 3.0 mph SW4.8 kmh SW 6.4 mph10.3 kmh 29.91 in1012.9 mb 0.00 in0.0 mm 0.00 in/hr0.0 mm/hr 0.00 in0.0 mm
11:30 AM 84.2°F29.0°C 72.6°F22.6°C 68% 3.0 mph SW4.8 kmh SW 6.4 mph10.3 kmh 29.91 in1012.9 mb 0.00 in0.0 mm 0.00 in/hr0.0 mm/hr 0.00 in0.0 mm
11:29 AM 84.0°F28.9°C 72.4°F22.4°C 68% 3.4 mph SW5.5 kmh SW 6.4 mph10.3 kmh 29.91 in1012.9 mb 0.00 in0.0 mm 0.00 in/hr0.0 mm/hr 0.00 in0.0 mm
11:28 AM 84.0°F28.9°C 72.4°F22.4°C 68% 3.5 mph SW5.6 kmh SW 6.4 mph10.3 kmh 29.91 in1012.9 mb 0.00 in0.0 mm 0.00 in/hr0.0 mm/hr 0.00 in0.0 mm
11:27 AM 83.8°F28.8°C 72.2°F22.3°C 68% 3.6 mph SW5.8 kmh SW 6.4 mph10.3 kmh 29.91 in1012.9 mb 0.00 in0.0 mm 0.00 in/hr0.0 mm/hr 0.00 in0.0 mm
11:26 AM 83.8°F28.8°C 72.2°F22.3°C 68% 3.7 mph NE6.0 kmh NE 6.4 mph10.3 kmh 29.91 in1012.9 mb 0.00 in0.0 mm 0.00 in/hr0.0 mm/hr 0.00 in0.0 mm
11:25 AM 83.8°F28.8°C 72.2°F22.3°C 68% 3.7 mph SE6.0 kmh SE 5.4 mph8.7 kmh 29.91 in1012.9 mb 0.00 in0.0 mm 0.00 in/hr0.0 mm/hr 0.00 in0.0 mm
11:24 AM 83.8°F28.8°C 72.2°F22.3°C 68% 3.7 mph SE6.0 kmh SE 5.4 mph8.7 kmh 29.91 in1012.9 mb 0.00 in0.0 mm 0.00 in/hr0.0 mm/hr 0.00 in0.0 mm
11:23 AM 83.7°F28.7°C 72.0°F22.2°C 68% 3.6 mph SE5.8 kmh SE 5.4 mph8.7 kmh 29.91 in1012.9 mb 0.00 in0.0 mm 0.00 in/hr0.0 mm/hr 0.00 in0.0 mm
11:22 AM 83.7°F28.7°C 72.5°F22.5°C 69% 3.5 mph SE5.6 kmh SE 5.4 mph8.7 kmh 29.92 in1013.2 mb 0.00 in0.0 mm 0.00 in/hr0.0 mm/hr 0.00 in0.0 mm
11:21 AM 83.7°F28.7°C 72.5°F22.5°C 69% 3.4 mph SE5.5 kmh SE 5.4 mph8.7 kmh 29.91 in1012.9 mb 0.00 in0.0 mm 0.00 in/hr0.0 mm/hr 0.00 in0.0 mm
11:20 AM 83.7°F28.7°C 72.5°F22.5°C 69% 3.3 mph SE5.3 kmh SE 5.4 mph8.7 kmh 29.91 in1012.9 mb 0.00 in0.0 mm 0.00 in/hr0.0 mm/hr 0.00 in0.0 mm
11:19 AM 83.5°F28.6°C 72.3°F22.4°C 69% 3.1 mph SSE5.0 kmh SSE 5.4 mph8.7 kmh 29.91 in1012.9 mb 0.00 in0.0 mm 0.00 in/hr0.0 mm/hr 0.00 in0.0 mm
11:18 AM 83.5°F28.6°C 72.3°F22.4°C 69% 3.0 mph SSE4.8 kmh SSE 5.4 mph8.7 kmh 29.91 in1012.9 mb 0.00 in0.0 mm 0.00 in/hr0.0 mm/hr 0.00 in0.0 mm
11:17 AM 83.5°F28.6°C 72.7°F22.6°C 70% 2.7 mph S4.3 kmh S 5.4 mph8.7 kmh 29.91 in1012.9 mb 0.00 in0.0 mm 0.00 in/hr0.0 mm/hr 0.00 in0.0 mm
11:16 AM 83.5°F28.6°C 72.7°F22.6°C 70% 2.6 mph S4.2 kmh S 5.4 mph8.7 kmh 29.91 in1012.9 mb 0.00 in0.0 mm 0.00 in/hr0.0 mm/hr 0.00 in0.0 mm
11:15 AM 83.3°F28.5°C 73.0°F22.8°C 71% 2.5 mph SSE4.0 kmh SSE 4.6 mph7.4 kmh 29.91 in1012.9 mb 0.00 in0.0 mm 0.00 in/hr0.0 mm/hr 0.00 in0.0 mm
11:14 AM 83.7°F28.7°C 73.3°F22.9°C 71% 2.6 mph SE4.2 kmh SE 4.6 mph7.4 kmh 29.91 in1012.9 mb 0.00 in0.0 mm 0.00 in/hr0.0 mm/hr 0.00 in0.0 mm
11:13 AM 83.3°F28.5°C 73.0°F22.8°C 71% 2.8 mph ESE4.5 kmh ESE 4.6 mph7.4 kmh 29.91 in1012.9 mb 0.00 in0.0 mm 0.00 in/hr0.0 mm/hr 0.00 in0.0 mm
11:12 AM 83.1°F28.4°C 72.8°F22.7°C 71% 3.1 mph ESE5.0 kmh ESE 4.6 mph7.4 kmh 29.91 in1012.9 mb 0.00 in0.0 mm 0.00 in/hr0.0 mm/hr 0.00 in0.0 mm
11:11 AM 82.9°F28.3°C 73.0°F22.8°C 72% 3.3 mph E5.3 kmh E 4.6 mph7.4 kmh 29.92 in1013.2 mb 0.00 in0.0 mm 0.00 in/hr0.0 mm/hr 0.00 in0.0 mm
11:10 AM 82.9°F28.3°C 73.0°F22.8°C 72% 3.4 mph E5.5 kmh E 4.6 mph7.4 kmh 29.91 in1012.9 mb 0.00 in0.0 mm 0.00 in/hr0.0 mm/hr 0.00 in0.0 mm
11:09 AM 82.9°F28.3°C 73.0°F22.8°C 72% 3.5 mph E5.6 kmh E 4.6 mph7.4 kmh 29.92 in1013.2 mb 0.00 in0.0 mm 0.00 in/hr0.0 mm/hr 0.00 in0.0 mm
11:08 AM 82.8°F28.2°C 72.9°F22.7°C 72% 3.7 mph E6.0 kmh E 4.6 mph7.4 kmh 29.92 in1013.2 mb 0.00 in0.0 mm 0.00 in/hr0.0 mm/hr 0.00 in0.0 mm
11:07 AM 82.8°F28.2°C 72.5°F22.5°C 71% 3.8 mph E6.1 kmh E 4.6 mph7.4 kmh 29.91 in1012.9 mb 0.00 in0.0 mm 0.00 in/hr0.0 mm/hr 0.00 in0.0 mm
11:06 AM 82.8°F28.2°C 72.5°F22.5°C 71% 3.9 mph E6.3 kmh E 4.6 mph7.4 kmh 29.91 in1012.9 mb 0.00 in0.0 mm 0.00 in/hr0.0 mm/hr 0.00 in0.0 mm
11:05 AM 82.8°F28.2°C 72.5°F22.5°C 71% 3.8 mph ESE6.1 kmh ESE 4.6 mph7.4 kmh 29.92 in1013.2 mb 0.00 in0.0 mm 0.00 in/hr0.0 mm/hr 0.00 in0.0 mm
11:04 AM 82.8°F28.2°C 72.5°F22.5°C 71% 3.6 mph ESE5.8 kmh ESE 4.6 mph7.4 kmh 29.92 in1013.2 mb 0.00 in0.0 mm 0.00 in/hr0.0 mm/hr 0.00 in0.0 mm
11:03 AM 82.8°F28.2°C 72.5°F22.5°C 71% 3.5 mph SE5.6 kmh SE 4.6 mph7.4 kmh 29.91 in1012.9 mb 0.00 in0.0 mm 0.00 in/hr0.0 mm/hr 0.00 in0.0 mm
11:02 AM 82.8°F28.2°C 72.5°F22.5°C 71% 3.4 mph SE5.5 kmh SE 4.6 mph7.4 kmh 29.92 in1013.2 mb 0.00 in0.0 mm 0.00 in/hr0.0 mm/hr 0.00 in0.0 mm
11:01 AM 82.8°F28.2°C 72.5°F22.5°C 71% 3.5 mph SE5.6 kmh SE 5.4 mph8.7 kmh 29.92 in1013.2 mb 0.00 in0.0 mm 0.00 in/hr0.0 mm/hr 0.00 in0.0 mm
11:00 AM 82.8°F28.2°C 72.5°F22.5°C 71% 3.5 mph SE5.6 kmh SE 5.4 mph8.7 kmh 29.92 in1013.2 mb 0.00 in0.0 mm 0.00 in/hr0.0 mm/hr 0.00 in0.0 mm
10:59 AM 82.6°F28.1°C 72.7°F22.6°C 72% 3.4 mph SSE5.5 kmh SSE 5.4 mph8.7 kmh 29.92 in1013.2 mb 0.00 in0.0 mm 0.00 in/hr0.0 mm/hr 0.00 in0.0 mm
10:58 AM 82.6°F28.1°C 72.7°F22.6°C 72% 3.5 mph SE5.6 kmh SE 5.4 mph8.7 kmh 29.92 in1013.2 mb 0.00 in0.0 mm 0.00 in/hr0.0 mm/hr 0.00 in0.0 mm
10:57 AM 82.4°F28.0°C 72.1°F22.3°C 71% 3.5 mph SE5.6 kmh SE 5.4 mph8.7 kmh 29.92 in1013.2 mb 0.00 in0.0 mm 0.00 in/hr0.0 mm/hr 0.00 in0.0 mm
10:56 AM 82.4°F28.0°C 72.1°F22.3°C 71% 3.4 mph SE5.5 kmh SE 5.4 mph8.7 kmh 29.92 in1013.2 mb 0.00 in0.0 mm 0.00 in/hr0.0 mm/hr 0.00 in0.0 mm
10:55 AM 82.2°F27.9°C 72.3°F22.4°C 72% 3.4 mph SE5.5 kmh SE 5.4 mph8.7 kmh 29.92 in1013.2 mb 0.00 in0.0 mm 0.00 in/hr0.0 mm/hr 0.00 in0.0 mm
10:54 AM 82.2°F27.9°C 71.9°F22.2°C 71% 3.3 mph SE5.3 kmh SE 5.4 mph8.7 kmh 29.92 in1013.2 mb 0.00 in0.0 mm 0.00 in/hr0.0 mm/hr 0.00 in0.0 mm
10:53 AM 82.2°F27.9°C 71.9°F22.2°C 71% 3.4 mph SE5.5 kmh SE 5.4 mph8.7 kmh 29.92 in1013.2 mb 0.00 in0.0 mm 0.00 in/hr0.0 mm/hr 0.00 in0.0 mm
10:52 AM 82.2°F27.9°C 71.9°F22.2°C 71% 3.4 mph SSE5.5 kmh SSE 5.4 mph8.7 kmh 29.92 in1013.2 mb 0.00 in0.0 mm 0.00 in/hr0.0 mm/hr 0.00 in0.0 mm
10:51 AM 82.0°F27.8°C 72.2°F22.3°C 72% 3.2 mph SE5.1 kmh SE 4.6 mph7.4 kmh 29.92 in1013.2 mb 0.00 in0.0 mm 0.00 in/hr0.0 mm/hr 0.00 in0.0 mm
10:50 AM 82.0°F27.8°C 72.6°F22.6°C 73% 3.2 mph SE5.1 kmh SE 4.6 mph7.4 kmh 29.93 in1013.5 mb 0.00 in0.0 mm 0.00 in/hr0.0 mm/hr 0.00 in0.0 mm
10:49 AM 82.0°F27.8°C 72.6°F22.6°C 73% 3.3 mph SSE5.3 kmh SSE 4.6 mph7.4 kmh 29.93 in1013.5 mb 0.00 in0.0 mm 0.00 in/hr0.0 mm/hr 0.00 in0.0 mm
10:48 AM 82.0°F27.8°C 72.6°F22.6°C 73% 3.4 mph SSE5.5 kmh SSE 4.6 mph7.4 kmh 29.92 in1013.2 mb 0.00 in0.0 mm 0.00 in/hr0.0 mm/hr 0.00 in0.0 mm
10:47 AM 81.9°F27.7°C 72.4°F22.4°C 73% 3.4 mph SSE5.5 kmh SSE 4.6 mph7.4 kmh 29.92 in1013.2 mb 0.00 in0.0 mm 0.00 in/hr0.0 mm/hr 0.00 in0.0 mm
10:46 AM 81.9°F27.7°C 72.4°F22.4°C 73% 3.4 mph SSE5.5 kmh SSE 4.6 mph7.4 kmh 29.93 in1013.5 mb 0.00 in0.0 mm 0.00 in/hr0.0 mm/hr 0.00 in0.0 mm
10:45 AM 81.9°F27.7°C 72.4°F22.4°C 73% 3.4 mph SSE5.5 kmh SSE 4.6 mph7.4 kmh 29.93 in1013.5 mb 0.00 in0.0 mm 0.00 in/hr0.0 mm/hr 0.00 in0.0 mm
10:44 AM 81.9°F27.7°C 72.4°F22.4°C 73% 3.6 mph SSE5.8 kmh SSE 4.6 mph7.4 kmh 29.92 in1013.2 mb 0.00 in0.0 mm 0.00 in/hr0.0 mm/hr 0.00 in0.0 mm
10:43 AM 81.9°F27.7°C 72.0°F22.2°C 72% 3.5 mph SSE5.6 kmh SSE 5.4 mph8.7 kmh 29.92 in1013.2 mb 0.00 in0.0 mm 0.00 in/hr0.0 mm/hr 0.00 in0.0 mm
10:42 AM 81.9°F27.7°C 72.0°F22.2°C 72% 3.4 mph SE5.5 kmh SE 5.4 mph8.7 kmh 29.92 in1013.2 mb 0.00 in0.0 mm 0.00 in/hr0.0 mm/hr 0.00 in0.0 mm
10:41 AM 81.9°F27.7°C 72.4°F22.4°C 73% 3.4 mph SSE5.5 kmh SSE 5.4 mph8.7 kmh 29.93 in1013.5 mb 0.00 in0.0 mm 0.00 in/hr0.0 mm/hr 0.00 in0.0 mm
10:40 AM 81.9°F27.7°C 72.4°F22.4°C 73% 3.3 mph S5.3 kmh S 5.4 mph8.7 kmh 29.93 in1013.5 mb 0.00 in0.0 mm 0.00 in/hr0.0 mm/hr 0.00 in0.0 mm
10:39 AM 81.9°F27.7°C 72.4°F22.4°C 73% 3.2 mph SSE5.1 kmh SSE 5.4 mph8.7 kmh 29.93 in1013.5 mb 0.00 in0.0 mm 0.00 in/hr0.0 mm/hr 0.00 in0.0 mm
10:38 AM 81.9°F27.7°C 72.4°F22.4°C 73% 3.0 mph S4.8 kmh S 5.4 mph8.7 kmh 29.93 in1013.5 mb 0.00 in0.0 mm 0.00 in/hr0.0 mm/hr 0.00 in0.0 mm
10:37 AM 81.9°F27.7°C 72.4°F22.4°C 73% 3.1 mph S5.0 kmh S 5.4 mph8.7 kmh 29.93 in1013.5 mb 0.00 in0.0 mm 0.00 in/hr0.0 mm/hr 0.00 in0.0 mm
10:36 AM 81.9°F27.7°C 72.4°F22.4°C 73% 3.3 mph S5.3 kmh S 5.4 mph8.7 kmh 29.93 in1013.5 mb 0.00 in0.0 mm 0.00 in/hr0.0 mm/hr 0.00 in0.0 mm
10:35 AM 81.9°F27.7°C 72.4°F22.4°C 73% 3.3 mph S5.3 kmh S 5.4 mph8.7 kmh 29.93 in1013.5 mb 0.00 in0.0 mm 0.00 in/hr0.0 mm/hr 0.00 in0.0 mm
10:34 AM 81.9°F27.7°C 72.4°F22.4°C 73% 3.2 mph S5.1 kmh S 5.4 mph8.7 kmh 29.93 in1013.5 mb 0.00 in0.0 mm 0.00 in/hr0.0 mm/hr 0.00 in0.0 mm
10:33 AM 81.7°F27.6°C 72.2°F22.3°C 73% 3.1 mph S5.0 kmh S 5.4 mph8.7 kmh 29.93 in1013.5 mb 0.00 in0.0 mm 0.00 in/hr0.0 mm/hr 0.00 in0.0 mm
10:32 AM 81.7°F27.6°C 72.6°F22.6°C 74% 3.1 mph S5.0 kmh S 4.6 mph7.4 kmh 29.93 in1013.5 mb 0.00 in0.0 mm 0.00 in/hr0.0 mm/hr 0.00 in0.0 mm
10:31 AM 81.7°F27.6°C 72.6°F22.6°C 74% 3.0 mph S4.8 kmh S 4.6 mph7.4 kmh 29.93 in1013.5 mb 0.00 in0.0 mm 0.00 in/hr0.0 mm/hr 0.00 in0.0 mm
10:30 AM 81.7°F27.6°C 72.6°F22.6°C 74% 3.2 mph ESE5.1 kmh ESE 4.6 mph7.4 kmh 29.93 in1013.5 mb 0.00 in0.0 mm 0.00 in/hr0.0 mm/hr 0.00 in0.0 mm
10:29 AM 81.7°F27.6°C 72.6°F22.6°C 74% 3.1 mph SE5.0 kmh SE 4.6 mph7.4 kmh 29.93 in1013.5 mb 0.00 in0.0 mm 0.00 in/hr0.0 mm/hr 0.00 in0.0 mm
10:28 AM 81.7°F27.6°C 72.6°F22.6°C 74% 3.2 mph SSE5.1 kmh SSE 4.6 mph7.4 kmh 29.93 in1013.5 mb 0.00 in0.0 mm 0.00 in/hr0.0 mm/hr 0.00 in0.0 mm
10:27 AM 81.7°F27.6°C 72.6°F22.6°C 74% 3.0 mph SSE4.8 kmh SSE 4.6 mph7.4 kmh 29.93 in1013.5 mb 0.00 in0.0 mm 0.00 in/hr0.0 mm/hr 0.00 in0.0 mm
10:26 AM 81.7°F27.6°C 72.6°F22.6°C 74% 2.8 mph WSW4.5 kmh WSW 3.8 mph6.1 kmh 29.93 in1013.5 mb 0.00 in0.0 mm 0.00 in/hr0.0 mm/hr 0.00 in0.0 mm
10:25 AM 81.5°F27.5°C 72.5°F22.5°C 74% 2.8 mph SW4.5 kmh SW 3.8 mph6.1 kmh 29.93 in1013.5 mb 0.00 in0.0 mm 0.00 in/hr0.0 mm/hr 0.00 in0.0 mm
10:24 AM 81.5°F27.5°C 72.5°F22.5°C 74% 2.9 mph SSW4.7 kmh SSW 3.8 mph6.1 kmh 29.93 in1013.5 mb 0.00 in0.0 mm 0.00 in/hr0.0 mm/hr 0.00 in0.0 mm
10:23 AM 81.5°F27.5°C 72.1°F22.3°C 73% 3.1 mph SW5.0 kmh SW 3.8 mph6.1 kmh 29.93 in1013.5 mb 0.00 in0.0 mm 0.00 in/hr0.0 mm/hr 0.00 in0.0 mm
10:22 AM 81.5°F27.5°C 72.1°F22.3°C 73% 3.1 mph SSW5.0 kmh SSW 3.8 mph6.1 kmh 29.93 in1013.5 mb 0.00 in0.0 mm 0.00 in/hr0.0 mm/hr 0.00 in0.0 mm
10:21 AM 81.5°F27.5°C 72.5°F22.5°C 74% 3.1 mph S5.0 kmh S 3.8 mph6.1 kmh 29.93 in1013.5 mb 0.00 in0.0 mm 0.00 in/hr0.0 mm/hr 0.00 in0.0 mm
10:20 AM 81.5°F27.5°C 72.5°F22.5°C 74% 2.9 mph SSW4.7 kmh SSW 3.8 mph6.1 kmh 29.93 in1013.5 mb 0.00 in0.0 mm 0.00 in/hr0.0 mm/hr 0.00 in0.0 mm
10:19 AM 81.5°F27.5°C 72.5°F22.5°C 74% 2.9 mph SW4.7 kmh SW 3.8 mph6.1 kmh 29.93 in1013.5 mb 0.00 in0.0 mm 0.00 in/hr0.0 mm/hr 0.00 in0.0 mm
10:18 AM 81.5°F27.5°C 72.5°F22.5°C 74% 2.8 mph SW4.5 kmh SW 3.8 mph6.1 kmh 29.93 in1013.5 mb 0.00 in0.0 mm 0.00 in/hr0.0 mm/hr 0.00 in0.0 mm
10:17 AM 81.5°F27.5°C 72.5°F22.5°C 74% 2.8 mph SW4.5 kmh SW 3.8 mph6.1 kmh 29.94 in1013.9 mb 0.00 in0.0 mm 0.00 in/hr0.0 mm/hr 0.00 in0.0 mm
10:16 AM 81.5°F27.5°C 72.5°F22.5°C 74% 2.6 mph SW4.2 kmh SW 3.8 mph6.1 kmh 29.93 in1013.5 mb 0.00 in0.0 mm 0.00 in/hr0.0 mm/hr 0.00 in0.0 mm
10:15 AM 81.3°F27.4°C 72.3°F22.4°C 74% 2.5 mph SW4.0 kmh SW 3.8 mph6.1 kmh 29.94 in1013.9 mb 0.00 in0.0 mm 0.00 in/hr0.0 mm/hr 0.00 in0.0 mm
10:14 AM 81.3°F27.4°C 71.9°F22.2°C 73% 2.4 mph W3.9 kmh W 3.8 mph6.1 kmh 29.94 in1013.9 mb 0.00 in0.0 mm 0.00 in/hr0.0 mm/hr 0.00 in0.0 mm
10:13 AM 81.3°F27.4°C 72.3°F22.4°C 74% 2.2 mph NW3.5 kmh NW 3.8 mph6.1 kmh 29.93 in1013.5 mb 0.00 in0.0 mm 0.00 in/hr0.0 mm/hr 0.00 in0.0 mm
10:12 AM 81.5°F27.5°C 72.5°F22.5°C 74% 2.1 mph NNW3.4 kmh NNW 2.7 mph4.3 kmh 29.94 in1013.9 mb 0.00 in0.0 mm 0.00 in/hr0.0 mm/hr 0.00 in0.0 mm
10:11 AM 81.3°F27.4°C 72.3°F22.4°C 74% 2.0 mph NNW3.2 kmh NNW 2.7 mph4.3 kmh 29.94 in1013.9 mb 0.00 in0.0 mm 0.00 in/hr0.0 mm/hr 0.00 in0.0 mm
10:10 AM 81.3°F27.4°C 71.9°F22.2°C 73% 2.0 mph N3.2 kmh N 2.7 mph4.3 kmh 29.94 in1013.9 mb 0.00 in0.0 mm 0.00 in/hr0.0 mm/hr 0.00 in0.0 mm
10:09 AM 81.3°F27.4°C 72.3°F22.4°C 74% 1.8 mph N2.9 kmh N 2.7 mph4.3 kmh 29.94 in1013.9 mb 0.00 in0.0 mm 0.00 in/hr0.0 mm/hr 0.00 in0.0 mm
10:08 AM 81.1°F27.3°C 72.1°F22.3°C 74% 1.8 mph NNW2.9 kmh NNW 2.7 mph4.3 kmh 29.94 in1013.9 mb 0.00 in0.0 mm 0.00 in/hr0.0 mm/hr 0.00 in0.0 mm
10:07 AM 81.0°F27.2°C 72.3°F22.4°C 75% 1.8 mph NNW2.9 kmh NNW 2.7 mph4.3 kmh 29.94 in1013.9 mb 0.00 in0.0 mm 0.00 in/hr0.0 mm/hr 0.00 in0.0 mm
10:06 AM 80.6°F27.0°C 72.0°F22.2°C 75% 1.9 mph NW3.1 kmh NW 2.7 mph4.3 kmh 29.94 in1013.9 mb 0.00 in0.0 mm 0.00 in/hr0.0 mm/hr 0.00 in0.0 mm
10:05 AM 80.6°F27.0°C 72.0°F22.2°C 75% 1.8 mph NW2.9 kmh NW 2.7 mph4.3 kmh 29.94 in1013.9 mb 0.00 in0.0 mm 0.00 in/hr0.0 mm/hr 0.00 in0.0 mm
10:04 AM 80.6°F27.0°C 72.0°F22.2°C 75% 1.8 mph NW2.9 kmh NW 2.7 mph4.3 kmh 29.94 in1013.9 mb 0.00 in0.0 mm 0.00 in/hr0.0 mm/hr 0.00 in0.0 mm
10:03 AM 80.6°F27.0°C 72.0°F22.2°C 75% 1.9 mph W3.1 kmh W 2.7 mph4.3 kmh 29.94 in1013.9 mb 0.00 in0.0 mm 0.00 in/hr0.0 mm/hr 0.00 in0.0 mm
10:02 AM 80.6°F27.0°C 72.0°F22.2°C 75% 1.9 mph WNW3.1 kmh WNW 2.7 mph4.3 kmh 29.94 in1013.9 mb 0.00 in0.0 mm 0.00 in/hr0.0 mm/hr 0.00 in0.0 mm
10:01 AM 80.6°F27.0°C 72.0°F22.2°C 75% 2.0 mph W3.2 kmh W 2.7 mph4.3 kmh 29.94 in1013.9 mb 0.00 in0.0 mm 0.00 in/hr0.0 mm/hr 0.00 in0.0 mm
10:00 AM 80.4°F26.9°C 72.2°F22.3°C 76% 2.1 mph SW3.4 kmh SW 3.8 mph6.1 kmh 29.93 in1013.5 mb 0.00 in0.0 mm 0.00 in/hr0.0 mm/hr 0.00 in0.0 mm
09:59 AM 80.2°F26.8°C 72.0°F22.2°C 76% 2.3 mph S3.7 kmh S 3.8 mph6.1 kmh 29.94 in1013.9 mb 0.00 in0.0 mm 0.00 in/hr0.0 mm/hr 0.00 in0.0 mm
09:58 AM 80.2°F26.8°C 72.0°F22.2°C 76% 2.1 mph S3.4 kmh S 3.8 mph6.1 kmh 29.94 in1013.9 mb 0.00 in0.0 mm 0.00 in/hr0.0 mm/hr 0.00 in0.0 mm
09:57 AM 80.1°F26.7°C 71.9°F22.2°C 76% 2.1 mph S3.4 kmh S 3.8 mph6.1 kmh 29.94 in1013.9 mb 0.00 in0.0 mm 0.00 in/hr0.0 mm/hr 0.00 in0.0 mm
09:56 AM 80.1°F26.7°C 71.9°F22.2°C 76% 2.2 mph N3.5 kmh N 3.8 mph6.1 kmh 29.94 in1013.9 mb 0.00 in0.0 mm 0.00 in/hr0.0 mm/hr 0.00 in0.0 mm
09:55 AM 79.9°F26.6°C 71.7°F22.1°C 76% 2.3 mph NNW3.7 kmh NNW 3.8 mph6.1 kmh 29.95 in1014.2 mb 0.00 in0.0 mm 0.00 in/hr0.0 mm/hr 0.00 in0.0 mm
09:54 AM 79.9°F26.6°C 71.7°F22.1°C 76% 2.5 mph NNW4.0 kmh NNW 3.8 mph6.1 kmh 29.95 in1014.2 mb 0.00 in0.0 mm 0.00 in/hr0.0 mm/hr 0.00 in0.0 mm
09:53 AM 79.9°F26.6°C 71.7°F22.1°C 76% 2.5 mph N4.0 kmh N 3.8 mph6.1 kmh 29.95 in1014.2 mb 0.00 in0.0 mm 0.00 in/hr0.0 mm/hr 0.00 in0.0 mm
09:52 AM 79.9°F26.6°C 71.7°F22.1°C 76% 2.6 mph NW4.2 kmh NW 3.8 mph6.1 kmh 29.94 in1013.9 mb 0.00 in0.0 mm 0.00 in/hr0.0 mm/hr 0.00 in0.0 mm
09:51 AM 79.7°F26.5°C 71.5°F21.9°C 76% 2.7 mph NE4.3 kmh NE 4.6 mph7.4 kmh 29.95 in1014.2 mb 0.00 in0.0 mm 0.00 in/hr0.0 mm/hr 0.00 in0.0 mm
09:50 AM 79.7°F26.5°C 71.1°F21.7°C 75% 3.0 mph N4.8 kmh N 7.2 mph11.6 kmh 29.95 in1014.2 mb 0.00 in0.0 mm 0.00 in/hr0.0 mm/hr 0.00 in0.0 mm
09:49 AM 79.7°F26.5°C 71.5°F21.9°C 76% 3.2 mph NW5.1 kmh NW 7.2 mph11.6 kmh 29.95 in1014.2 mb 0.00 in0.0 mm 0.00 in/hr0.0 mm/hr 0.00 in0.0 mm
09:48 AM 79.5°F26.4°C 71.3°F21.8°C 76% 3.5 mph N5.6 kmh N 7.2 mph11.6 kmh 29.95 in1014.2 mb 0.00 in0.0 mm 0.00 in/hr0.0 mm/hr 0.00 in0.0 mm
09:47 AM 79.3°F26.3°C 71.2°F21.8°C 76% 3.4 mph NNE5.5 kmh NNE 7.2 mph11.6 kmh 29.95 in1014.2 mb 0.00 in0.0 mm 0.00 in/hr0.0 mm/hr 0.00 in0.0 mm
09:46 AM 79.3°F26.3°C 71.2°F21.8°C 76% 3.4 mph ENE5.5 kmh ENE 7.2 mph11.6 kmh 29.95 in1014.2 mb 0.00 in0.0 mm 0.00 in/hr0.0 mm/hr 0.00 in0.0 mm
09:45 AM 79.2°F26.2°C 71.4°F21.9°C 77% 3.4 mph E5.5 kmh E 7.2 mph11.6 kmh 29.95 in1014.2 mb 0.00 in0.0 mm 0.00 in/hr0.0 mm/hr 0.00 in0.0 mm
09:44 AM 79.2°F26.2°C 71.4°F21.9°C 77% 3.3 mph SE5.3 kmh SE 7.2 mph11.6 kmh 29.95 in1014.2 mb 0.00 in0.0 mm 0.00 in/hr0.0 mm/hr 0.00 in0.0 mm
09:43 AM 79.0°F26.1°C 71.2°F21.8°C 77% 3.3 mph SE5.3 kmh SE 7.2 mph11.6 kmh 29.95 in1014.2 mb 0.00 in0.0 mm 0.00 in/hr0.0 mm/hr 0.00 in0.0 mm
09:42 AM 78.8°F26.0°C 71.0°F21.7°C 77% 3.2 mph SE5.1 kmh SE 7.2 mph11.6 kmh 29.94 in1013.9 mb 0.00 in0.0 mm 0.00 in/hr0.0 mm/hr 0.00 in0.0 mm
09:41 AM 78.8°F26.0°C 71.0°F21.7°C 77% 3.3 mph SE5.3 kmh SE 7.2 mph11.6 kmh 29.95 in1014.2 mb 0.00 in0.0 mm 0.00 in/hr0.0 mm/hr 0.00 in0.0 mm
09:40 AM 78.8°F26.0°C 71.0°F21.7°C 77% 3.0 mph SE4.8 kmh SE 7.2 mph11.6 kmh 29.95 in1014.2 mb 0.00 in0.0 mm 0.00 in/hr0.0 mm/hr 0.00 in0.0 mm
09:39 AM 78.6°F25.9°C 71.2°F21.8°C 78% 2.7 mph ESE4.3 kmh ESE 4.6 mph7.4 kmh 29.95 in1014.2 mb 0.00 in0.0 mm 0.00 in/hr0.0 mm/hr 0.00 in0.0 mm
09:38 AM 78.6°F25.9°C 71.6°F22.0°C 79% 2.5 mph ESE4.0 kmh ESE 3.8 mph6.1 kmh 29.95 in1014.2 mb 0.00 in0.0 mm 0.00 in/hr0.0 mm/hr 0.00 in0.0 mm
09:37 AM 78.4°F25.8°C 71.4°F21.9°C 79% 2.6 mph ESE4.2 kmh ESE 3.8 mph6.1 kmh 29.95 in1014.2 mb 0.00 in0.0 mm 0.00 in/hr0.0 mm/hr 0.00 in0.0 mm
09:36 AM 78.4°F25.8°C 71.4°F21.9°C 79% 2.6 mph E4.2 kmh E 3.8 mph6.1 kmh 29.94 in1013.9 mb 0.00 in0.0 mm 0.00 in/hr0.0 mm/hr 0.00 in0.0 mm
09:35 AM 78.3°F25.7°C 71.3°F21.8°C 79% 2.6 mph ESE4.2 kmh ESE 3.8 mph6.1 kmh 29.95 in1014.2 mb 0.00 in0.0 mm 0.00 in/hr0.0 mm/hr 0.00 in0.0 mm
09:34 AM 78.3°F25.7°C 71.6°F22.0°C 80% 2.5 mph ESE4.0 kmh ESE 3.8 mph6.1 kmh 29.95 in1014.2 mb 0.00 in0.0 mm 0.00 in/hr0.0 mm/hr 0.00 in0.0 mm
09:33 AM 78.1°F25.6°C 71.5°F21.9°C 80% 2.5 mph NE4.0 kmh NE 3.8 mph6.1 kmh 29.95 in1014.2 mb 0.00 in0.0 mm 0.00 in/hr0.0 mm/hr 0.00 in0.0 mm
09:32 AM 78.1°F25.6°C 71.5°F21.9°C 80% 2.4 mph N3.9 kmh N 3.8 mph6.1 kmh 29.95 in1014.2 mb 0.00 in0.0 mm 0.00 in/hr0.0 mm/hr 0.00 in0.0 mm
09:31 AM 78.1°F25.6°C 71.5°F21.9°C 80% 2.2 mph NNE3.5 kmh NNE 3.8 mph6.1 kmh 29.95 in1014.2 mb 0.00 in0.0 mm 0.00 in/hr0.0 mm/hr 0.00 in0.0 mm
09:30 AM 77.9°F25.5°C 71.3°F21.8°C 80% 2.1 mph NNE3.4 kmh NNE 2.7 mph4.3 kmh 29.95 in1014.2 mb 0.00 in0.0 mm 0.00 in/hr0.0 mm/hr 0.00 in0.0 mm
09:29 AM 77.9°F25.5°C 71.3°F21.8°C 80% 2.0 mph SE3.2 kmh SE 2.7 mph4.3 kmh 29.95 in1014.2 mb 0.00 in0.0 mm 0.00 in/hr0.0 mm/hr 0.00 in0.0 mm
09:28 AM 77.9°F25.5°C 71.3°F21.8°C 80% 2.0 mph SE3.2 kmh SE 2.7 mph4.3 kmh 29.95 in1014.2 mb 0.00 in0.0 mm 0.00 in/hr0.0 mm/hr 0.00 in0.0 mm
09:27 AM 77.7°F25.4°C 71.5°F21.9°C 81% 1.9 mph SSE3.1 kmh SSE 2.7 mph4.3 kmh 29.95 in1014.2 mb 0.00 in0.0 mm 0.00 in/hr0.0 mm/hr 0.00 in0.0 mm
09:26 AM 77.7°F25.4°C 71.5°F21.9°C 81% 1.9 mph S3.1 kmh S 2.7 mph4.3 kmh 29.95 in1014.2 mb 0.00 in0.0 mm 0.00 in/hr0.0 mm/hr 0.00 in0.0 mm
09:25 AM 77.7°F25.4°C 71.5°F21.9°C 81% 1.8 mph SSW2.9 kmh SSW 2.7 mph4.3 kmh 29.95 in1014.2 mb 0.00 in0.0 mm 0.00 in/hr0.0 mm/hr 0.00 in0.0 mm
09:24 AM 77.5°F25.3°C 71.7°F22.1°C 82% 1.9 mph WSW3.1 kmh WSW 2.7 mph4.3 kmh 29.95 in1014.2 mb 0.00 in0.0 mm 0.00 in/hr0.0 mm/hr 0.00 in0.0 mm
09:23 AM 77.5°F25.3°C 71.7°F22.1°C 82% 1.9 mph SW3.1 kmh SW 2.7 mph4.3 kmh 29.95 in1014.2 mb 0.00 in0.0 mm 0.00 in/hr0.0 mm/hr 0.00 in0.0 mm
09:22 AM 77.4°F25.2°C 71.5°F21.9°C 82% 2.0 mph SSW3.2 kmh SSW 2.7 mph4.3 kmh 29.95 in1014.2 mb 0.00 in0.0 mm 0.00 in/hr0.0 mm/hr 0.00 in0.0 mm
09:21 AM 77.2°F25.1°C 71.7°F22.1°C 83% 2.0 mph S3.2 kmh S 2.7 mph4.3 kmh 29.95 in1014.2 mb 0.00 in0.0 mm 0.00 in/hr0.0 mm/hr 0.00 in0.0 mm
09:20 AM 77.2°F25.1°C 71.7°F22.1°C 83% 2.3 mph N3.7 kmh N 4.6 mph7.4 kmh 29.95 in1014.2 mb 0.00 in0.0 mm 0.00 in/hr0.0 mm/hr 0.00 in0.0 mm
09:19 AM 77.0°F25.0°C 71.5°F21.9°C 83% 2.4 mph N3.9 kmh N 4.6 mph7.4 kmh 29.95 in1014.2 mb 0.00 in0.0 mm 0.00 in/hr0.0 mm/hr 0.00 in0.0 mm
09:18 AM 77.0°F25.0°C 71.5°F21.9°C 83% 2.4 mph NW3.9 kmh NW 4.6 mph7.4 kmh 29.95 in1014.2 mb 0.00 in0.0 mm 0.00 in/hr0.0 mm/hr 0.00 in0.0 mm
09:17 AM 76.8°F24.9°C 71.3°F21.8°C 83% 2.5 mph W4.0 kmh W 4.6 mph7.4 kmh 29.96 in1014.6 mb 0.00 in0.0 mm 0.00 in/hr0.0 mm/hr 0.00 in0.0 mm
09:16 AM 76.8°F24.9°C 71.3°F21.8°C 83% 2.6 mph WSW4.2 kmh WSW 4.6 mph7.4 kmh 29.96 in1014.6 mb 0.00 in0.0 mm 0.00 in/hr0.0 mm/hr 0.00 in0.0 mm
09:15 AM 76.6°F24.8°C 71.1°F21.7°C 83% 2.6 mph W4.2 kmh W 4.6 mph7.4 kmh 29.96 in1014.6 mb 0.00 in0.0 mm 0.00 in/hr0.0 mm/hr 0.00 in0.0 mm
09:14 AM 76.5°F24.7°C 71.0°F21.7°C 83% 2.6 mph SSE4.2 kmh SSE 4.6 mph7.4 kmh 29.95 in1014.2 mb 0.00 in0.0 mm 0.00 in/hr0.0 mm/hr 0.00 in0.0 mm
09:13 AM 76.5°F24.7°C 71.0°F21.7°C 83% 2.7 mph S4.3 kmh S 4.6 mph7.4 kmh 29.95 in1014.2 mb 0.00 in0.0 mm 0.00 in/hr0.0 mm/hr 0.00 in0.0 mm
09:12 AM 76.5°F24.7°C 71.0°F21.7°C 83% 2.7 mph SSW4.3 kmh SSW 4.6 mph7.4 kmh 29.96 in1014.6 mb 0.00 in0.0 mm 0.00 in/hr0.0 mm/hr 0.00 in0.0 mm
09:11 AM 76.3°F24.6°C 70.8°F21.6°C 83% 2.7 mph SSW4.3 kmh SSW 4.6 mph7.4 kmh 29.95 in1014.2 mb 0.00 in0.0 mm 0.00 in/hr0.0 mm/hr 0.00 in0.0 mm
09:10 AM 76.1°F24.5°C 71.3°F21.8°C 85% 2.5 mph S4.0 kmh S 3.8 mph6.1 kmh 29.95 in1014.2 mb 0.00 in0.0 mm 0.00 in/hr0.0 mm/hr 0.00 in0.0 mm
09:09 AM 76.1°F24.5°C 71.3°F21.8°C 85% 2.3 mph S3.7 kmh S 3.8 mph6.1 kmh 29.96 in1014.6 mb 0.00 in0.0 mm 0.00 in/hr0.0 mm/hr 0.00 in0.0 mm
09:08 AM 76.1°F24.5°C 71.3°F21.8°C 85% 2.1 mph S3.4 kmh S 3.8 mph6.1 kmh 29.96 in1014.6 mb 0.00 in0.0 mm 0.00 in/hr0.0 mm/hr 0.00 in0.0 mm
09:07 AM 75.9°F24.4°C 71.5°F21.9°C 86% 1.9 mph SSE3.1 kmh SSE 3.8 mph6.1 kmh 29.96 in1014.6 mb 0.00 in0.0 mm 0.00 in/hr0.0 mm/hr 0.00 in0.0 mm
09:06 AM 75.7°F24.3°C 71.6°F22.0°C 87% 1.6 mph SE2.6 kmh SE 3.8 mph6.1 kmh 29.96 in1014.6 mb 0.00 in0.0 mm 0.00 in/hr0.0 mm/hr 0.00 in0.0 mm
09:05 AM 75.7°F24.3°C 71.6°F22.0°C 87% 1.5 mph SSE2.4 kmh SSE 3.8 mph6.1 kmh 29.96 in1014.6 mb 0.00 in0.0 mm 0.00 in/hr0.0 mm/hr 0.00 in0.0 mm
09:04 AM 75.7°F24.3°C 72.0°F22.2°C 88% 1.2 mph SSE1.9 kmh SSE 2.7 mph4.3 kmh 29.96 in1014.6 mb 0.00 in0.0 mm 0.00 in/hr0.0 mm/hr 0.00 in0.0 mm
09:03 AM 75.7°F24.3°C 72.0°F22.2°C 88% 1.1 mph SSE1.8 kmh SSE 2.7 mph4.3 kmh 29.96 in1014.6 mb 0.00 in0.0 mm 0.00 in/hr0.0 mm/hr 0.00 in0.0 mm
09:02 AM 75.4°F24.1°C 71.6°F22.0°C 88% 1.0 mph SSE1.6 kmh SSE 2.7 mph4.3 kmh 29.96 in1014.6 mb 0.00 in0.0 mm 0.00 in/hr0.0 mm/hr 0.00 in0.0 mm
09:01 AM 75.4°F24.1°C 71.6°F22.0°C 88% 1.1 mph S1.8 kmh S 3.8 mph6.1 kmh 29.96 in1014.6 mb 0.00 in0.0 mm 0.00 in/hr0.0 mm/hr 0.00 in0.0 mm
09:00 AM 75.2°F24.0°C 71.8°F22.1°C 89% 1.1 mph S1.8 kmh S 3.8 mph6.1 kmh 29.96 in1014.6 mb 0.00 in0.0 mm 0.00 in/hr0.0 mm/hr 0.00 in0.0 mm
08:59 AM 75.0°F23.9°C 71.6°F22.0°C 89% 1.1 mph S1.8 kmh S 3.8 mph6.1 kmh 29.96 in1014.6 mb 0.00 in0.0 mm 0.00 in/hr0.0 mm/hr 0.00 in0.0 mm
08:58 AM 74.8°F23.8°C 71.4°F21.9°C 89% 1.3 mph S2.1 kmh S 3.8 mph6.1 kmh 29.97 in1014.9 mb 0.00 in0.0 mm 0.00 in/hr0.0 mm/hr 0.00 in0.0 mm
08:57 AM 74.7°F23.7°C 71.2°F21.8°C 89% 1.4 mph SSE2.3 kmh SSE 3.8 mph6.1 kmh 29.97 in1014.9 mb 0.00 in0.0 mm 0.00 in/hr0.0 mm/hr 0.00 in0.0 mm
08:56 AM 74.7°F23.7°C 71.6°F22.0°C 90% 1.6 mph SE2.6 kmh SE 3.8 mph6.1 kmh 29.97 in1014.9 mb 0.00 in0.0 mm 0.00 in/hr0.0 mm/hr 0.00 in0.0 mm
08:55 AM 74.7°F23.7°C 71.6°F22.0°C 90% 1.7 mph SE2.7 kmh SE 3.8 mph6.1 kmh 29.97 in1014.9 mb 0.00 in0.0 mm 0.00 in/hr0.0 mm/hr 0.00 in0.0 mm
08:54 AM 74.5°F23.6°C 71.4°F21.9°C 90% 1.9 mph SE3.1 kmh SE 3.8 mph6.1 kmh 29.97 in1014.9 mb 0.00 in0.0 mm 0.00 in/hr0.0 mm/hr 0.00 in0.0 mm
08:53 AM 74.5°F23.6°C 71.4°F21.9°C 90% 2.0 mph SE3.2 kmh SE 3.8 mph6.1 kmh 29.97 in1014.9 mb 0.00 in0.0 mm 0.00 in/hr0.0 mm/hr 0.00 in0.0 mm
08:52 AM 74.3°F23.5°C 71.2°F21.8°C 90% 2.1 mph SSE3.4 kmh SSE 3.8 mph6.1 kmh 29.97 in1014.9 mb 0.00 in0.0 mm 0.00 in/hr0.0 mm/hr 0.00 in0.0 mm
08:51 AM 74.3°F23.5°C 71.5°F21.9°C 91% 2.0 mph SE3.2 kmh SE 3.8 mph6.1 kmh 29.97 in1014.9 mb 0.00 in0.0 mm 0.00 in/hr0.0 mm/hr 0.00 in0.0 mm
08:50 AM 74.1°F23.4°C 71.4°F21.9°C 91% 2.0 mph S3.2 kmh S 2.7 mph4.3 kmh 29.97 in1014.9 mb 0.00 in0.0 mm 0.00 in/hr0.0 mm/hr 0.00 in0.0 mm
08:49 AM 73.9°F23.3°C 71.2°F21.8°C 91% 2.1 mph S3.4 kmh S 2.7 mph4.3 kmh 29.97 in1014.9 mb 0.00 in0.0 mm 0.00 in/hr0.0 mm/hr 0.00 in0.0 mm
08:48 AM 73.9°F23.3°C 71.2°F21.8°C 91% 2.3 mph ESE3.7 kmh ESE 3.8 mph6.1 kmh 29.98 in1015.2 mb 0.00 in0.0 mm 0.00 in/hr0.0 mm/hr 0.00 in0.0 mm
08:47 AM 73.6°F23.1°C 70.8°F21.6°C 91% 2.4 mph SSE3.9 kmh SSE 3.8 mph6.1 kmh 29.97 in1014.9 mb 0.00 in0.0 mm 0.00 in/hr0.0 mm/hr 0.00 in0.0 mm
08:46 AM 73.6°F23.1°C 70.8°F21.6°C 91% 2.4 mph S3.9 kmh S 3.8 mph6.1 kmh 29.97 in1014.9 mb 0.00 in0.0 mm 0.00 in/hr0.0 mm/hr 0.00 in0.0 mm
08:45 AM 73.6°F23.1°C 71.2°F21.8°C 92% 2.2 mph S3.5 kmh S 3.8 mph6.1 kmh 29.97 in1014.9 mb 0.00 in0.0 mm 0.00 in/hr0.0 mm/hr 0.00 in0.0 mm
08:44 AM 73.4°F23.0°C 71.0°F21.7°C 92% 2.2 mph S3.5 kmh S 3.8 mph6.1 kmh 29.98 in1015.2 mb 0.00 in0.0 mm 0.00 in/hr0.0 mm/hr 0.00 in0.0 mm
08:43 AM 73.4°F23.0°C 71.0°F21.7°C 92% 2.0 mph S3.2 kmh S 3.8 mph6.1 kmh 29.98 in1015.2 mb 0.00 in0.0 mm 0.00 in/hr0.0 mm/hr 0.00 in0.0 mm
08:42 AM 73.2°F22.9°C 70.8°F21.6°C 92% 2.0 mph SSE3.2 kmh SSE 3.8 mph6.1 kmh 29.98 in1015.2 mb 0.00 in0.0 mm 0.00 in/hr0.0 mm/hr 0.00 in0.0 mm
08:41 AM 73.0°F22.8°C 70.6°F21.4°C 92% 2.0 mph SSE3.2 kmh SSE 3.8 mph6.1 kmh 29.98 in1015.2 mb 0.00 in0.0 mm 0.00 in/hr0.0 mm/hr 0.00 in0.0 mm
08:40 AM 73.0°F22.8°C 70.6°F21.4°C 92% 1.8 mph SE2.9 kmh SE 3.8 mph6.1 kmh 29.97 in1014.9 mb 0.00 in0.0 mm 0.00 in/hr0.0 mm/hr 0.00 in0.0 mm
08:39 AM 72.9°F22.7°C 70.4°F21.3°C 92% 1.6 mph SE2.6 kmh SE 3.8 mph6.1 kmh 29.97 in1014.9 mb 0.00 in0.0 mm 0.00 in/hr0.0 mm/hr 0.00 in0.0 mm
08:38 AM 72.7°F22.6°C 70.6°F21.4°C 93% 1.4 mph S2.3 kmh S 2.7 mph4.3 kmh 29.97 in1014.9 mb 0.00 in0.0 mm 0.00 in/hr0.0 mm/hr 0.00 in0.0 mm
08:37 AM 72.7°F22.6°C 70.6°F21.4°C 93% 1.4 mph S2.3 kmh S 2.7 mph4.3 kmh 29.97 in1014.9 mb 0.00 in0.0 mm 0.00 in/hr0.0 mm/hr 0.00 in0.0 mm
08:36 AM 72.7°F22.6°C 70.6°F21.4°C 93% 1.5 mph S2.4 kmh S 2.7 mph4.3 kmh 29.97 in1014.9 mb 0.00 in0.0 mm 0.00 in/hr0.0 mm/hr 0.00 in0.0 mm
08:35 AM 72.7°F22.6°C 70.6°F21.4°C 93% 1.5 mph SSE2.4 kmh SSE 2.7 mph4.3 kmh 29.97 in1014.9 mb 0.00 in0.0 mm 0.00 in/hr0.0 mm/hr 0.00 in0.0 mm
08:34 AM 72.5°F22.5°C 70.7°F21.5°C 94% 1.4 mph SSE2.3 kmh SSE 2.7 mph4.3 kmh 29.97 in1014.9 mb 0.00 in0.0 mm 0.00 in/hr0.0 mm/hr 0.00 in0.0 mm
08:33 AM 72.3°F22.4°C 70.5°F21.4°C 94% 1.4 mph S2.3 kmh S 2.7 mph4.3 kmh 29.98 in1015.2 mb 0.00 in0.0 mm 0.00 in/hr0.0 mm/hr 0.00 in0.0 mm
08:32 AM 72.3°F22.4°C 70.5°F21.4°C 94% 1.3 mph S2.1 kmh S 2.7 mph4.3 kmh 29.98 in1015.2 mb 0.00 in0.0 mm 0.00 in/hr0.0 mm/hr 0.00 in0.0 mm
08:31 AM 72.3°F22.4°C 70.5°F21.4°C 94% 1.3 mph SSW2.1 kmh SSW 2.7 mph4.3 kmh 29.98 in1015.2 mb 0.00 in0.0 mm 0.00 in/hr0.0 mm/hr 0.00 in0.0 mm
08:30 AM 72.1°F22.3°C 70.4°F21.3°C 94% 1.4 mph SW2.3 kmh SW 2.7 mph4.3 kmh 29.98 in1015.2 mb 0.00 in0.0 mm 0.00 in/hr0.0 mm/hr 0.00 in0.0 mm
08:29 AM 72.1°F22.3°C 70.4°F21.3°C 94% 1.6 mph SW2.6 kmh SW 2.7 mph4.3 kmh 29.98 in1015.2 mb 0.00 in0.0 mm 0.00 in/hr0.0 mm/hr 0.00 in0.0 mm
08:28 AM 72.1°F22.3°C 70.4°F21.3°C 94% 1.5 mph SW2.4 kmh SW 2.7 mph4.3 kmh 29.98 in1015.2 mb 0.00 in0.0 mm 0.00 in/hr0.0 mm/hr 0.00 in0.0 mm
08:27 AM 72.0°F22.2°C 70.5°F21.4°C 95% 1.3 mph SW2.1 kmh SW 2.7 mph4.3 kmh 29.97 in1014.9 mb 0.00 in0.0 mm 0.00 in/hr0.0 mm/hr 0.00 in0.0 mm
08:26 AM 72.0°F22.2°C 70.5°F21.4°C 95% 1.1 mph W1.8 kmh W 2.7 mph4.3 kmh 29.98 in1015.2 mb 0.00 in0.0 mm 0.00 in/hr0.0 mm/hr 0.00 in0.0 mm
08:25 AM 71.8°F22.1°C 70.3°F21.3°C 95% 1.2 mph WNW1.9 kmh WNW 2.7 mph4.3 kmh 29.98 in1015.2 mb 0.00 in0.0 mm 0.00 in/hr0.0 mm/hr 0.00 in0.0 mm
08:24 AM 71.8°F22.1°C 70.3°F21.3°C 95% 1.2 mph WNW1.9 kmh WNW 2.7 mph4.3 kmh 29.98 in1015.2 mb 0.00 in0.0 mm 0.00 in/hr0.0 mm/hr 0.00 in0.0 mm
08:23 AM 71.6°F22.0°C 70.4°F21.3°C 96% 1.0 mph NW1.6 kmh NW 2.7 mph4.3 kmh 29.98 in1015.2 mb 0.00 in0.0 mm 0.00 in/hr0.0 mm/hr 0.00 in0.0 mm
08:22 AM 71.6°F22.0°C 70.4°F21.3°C 96% 1.1 mph NW1.8 kmh NW 2.7 mph4.3 kmh 29.98 in1015.2 mb 0.00 in0.0 mm 0.00 in/hr0.0 mm/hr 0.00 in0.0 mm
08:21 AM 71.4°F21.9°C 70.3°F21.3°C 96% 1.0 mph WNW1.6 kmh WNW 2.7 mph4.3 kmh 29.98 in1015.2 mb 0.00 in0.0 mm 0.00 in/hr0.0 mm/hr 0.00 in0.0 mm
08:20 AM 71.4°F21.9°C 70.3°F21.3°C 96% 0.9 mph WNW1.4 kmh WNW 2.7 mph4.3 kmh 29.98 in1015.2 mb 0.00 in0.0 mm 0.00 in/hr0.0 mm/hr 0.00 in0.0 mm
08:19 AM 71.2°F21.8°C 70.1°F21.2°C 96% 0.9 mph WNW1.4 kmh WNW 1.9 mph3.1 kmh 29.98 in1015.2 mb 0.00 in0.0 mm 0.00 in/hr0.0 mm/hr 0.00 in0.0 mm
08:18 AM 71.1°F21.7°C 69.9°F21.1°C 96% 0.9 mph W1.4 kmh W 1.9 mph3.1 kmh 29.98 in1015.2 mb 0.00 in0.0 mm 0.00 in/hr0.0 mm/hr 0.00 in0.0 mm
08:17 AM 71.1°F21.7°C 69.9°F21.1°C 96% 0.9 mph WSW1.4 kmh WSW 1.9 mph3.1 kmh 29.97 in1014.9 mb 0.00 in0.0 mm 0.00 in/hr0.0 mm/hr 0.00 in0.0 mm
08:16 AM 71.1°F21.7°C 69.9°F21.1°C 96% 0.9 mph WSW1.4 kmh WSW 1.9 mph3.1 kmh 29.98 in1015.2 mb 0.00 in0.0 mm 0.00 in/hr0.0 mm/hr 0.00 in0.0 mm
08:15 AM 70.9°F21.6°C 69.7°F20.9°C 96% 0.9 mph SW1.4 kmh SW 1.9 mph3.1 kmh 29.98 in1015.2 mb 0.00 in0.0 mm 0.00 in/hr0.0 mm/hr 0.00 in0.0 mm
08:14 AM 70.9°F21.6°C 69.7°F20.9°C 96% 1.0 mph SW1.6 kmh SW 1.9 mph3.1 kmh 29.97 in1014.9 mb 0.00 in0.0 mm 0.00 in/hr0.0 mm/hr 0.00 in0.0 mm
08:13 AM 70.9°F21.6°C 69.7°F20.9°C 96% 1.1 mph SW1.8 kmh SW 1.9 mph3.1 kmh 29.97 in1014.9 mb 0.00 in0.0 mm 0.00 in/hr0.0 mm/hr 0.00 in0.0 mm
08:12 AM 70.7°F21.5°C 69.8°F21.0°C 97% 1.0 mph SW1.6 kmh SW 1.9 mph3.1 kmh 29.97 in1014.9 mb 0.00 in0.0 mm 0.00 in/hr0.0 mm/hr 0.00 in0.0 mm
08:11 AM 70.7°F21.5°C 69.8°F21.0°C 97% 1.0 mph SW1.6 kmh SW 1.9 mph3.1 kmh 29.98 in1015.2 mb 0.00 in0.0 mm 0.00 in/hr0.0 mm/hr 0.00 in0.0 mm
08:10 AM 70.5°F21.4°C 69.7°F20.9°C 97% 1.0 mph SW1.6 kmh SW 1.9 mph3.1 kmh 29.97 in1014.9 mb 0.00 in0.0 mm 0.00 in/hr0.0 mm/hr 0.00 in0.0 mm
08:09 AM 70.5°F21.4°C 69.7°F20.9°C 97% 1.0 mph SSW1.6 kmh SSW 1.9 mph3.1 kmh 29.97 in1014.9 mb 0.00 in0.0 mm 0.00 in/hr0.0 mm/hr 0.00 in0.0 mm
08:08 AM 70.5°F21.4°C 69.7°F20.9°C 97% 1.1 mph SSW1.8 kmh SSW 1.9 mph3.1 kmh 29.97 in1014.9 mb 0.00 in0.0 mm 0.00 in/hr0.0 mm/hr 0.00 in0.0 mm
08:07 AM 70.3°F21.3°C 69.5°F20.8°C 97% 1.0 mph SSW1.6 kmh SSW 1.9 mph3.1 kmh 29.97 in1014.9 mb 0.00 in0.0 mm 0.00 in/hr0.0 mm/hr 0.00 in0.0 mm
08:06 AM 70.3°F21.3°C 69.5°F20.8°C 97% 1.0 mph SSW1.6 kmh SSW 1.9 mph3.1 kmh 29.98 in1015.2 mb 0.00 in0.0 mm 0.00 in/hr0.0 mm/hr 0.00 in0.0 mm
08:05 AM 70.3°F21.3°C 69.5°F20.8°C 97% 0.9 mph S1.4 kmh S 1.9 mph3.1 kmh 29.97 in1014.9 mb 0.00 in0.0 mm 0.00 in/hr0.0 mm/hr 0.00 in0.0 mm
08:04 AM 70.3°F21.3°C 69.5°F20.8°C 97% 0.9 mph S1.4 kmh S 1.9 mph3.1 kmh 29.97 in1014.9 mb 0.00 in0.0 mm 0.00 in/hr0.0 mm/hr 0.00 in0.0 mm
08:03 AM 70.2°F21.2°C 69.6°F20.9°C 98% 0.9 mph S1.4 kmh S 1.9 mph3.1 kmh 29.98 in1015.2 mb 0.00 in0.0 mm 0.00 in/hr0.0 mm/hr 0.00 in0.0 mm
08:02 AM 70.0°F21.1°C 69.4°F20.8°C 98% 0.9 mph S1.4 kmh S 1.9 mph3.1 kmh 29.97 in1014.9 mb 0.00 in0.0 mm 0.00 in/hr0.0 mm/hr 0.00 in0.0 mm
08:01 AM 70.0°F21.1°C 69.4°F20.8°C 98% 0.8 mph S1.3 kmh S 1.9 mph3.1 kmh 29.98 in1015.2 mb 0.00 in0.0 mm 0.00 in/hr0.0 mm/hr 0.00 in0.0 mm
08:00 AM 70.0°F21.1°C 69.4°F20.8°C 98% 0.8 mph S1.3 kmh S 1.9 mph3.1 kmh 29.98 in1015.2 mb 0.00 in0.0 mm 0.00 in/hr0.0 mm/hr 0.00 in0.0 mm
07:59 AM 69.8°F21.0°C 69.2°F20.7°C 98% 0.8 mph SW1.3 kmh SW 1.9 mph3.1 kmh 29.97 in1014.9 mb 0.00 in0.0 mm 0.00 in/hr0.0 mm/hr 0.00 in0.0 mm
07:58 AM 69.8°F21.0°C 69.2°F20.7°C 98% 0.7 mph SW1.1 kmh SW 1.9 mph3.1 kmh 29.98 in1015.2 mb 0.00 in0.0 mm 0.00 in/hr0.0 mm/hr 0.00 in0.0 mm
07:57 AM 69.8°F21.0°C 69.2°F20.7°C 98% 0.8 mph SW1.3 kmh SW 1.9 mph3.1 kmh 29.98 in1015.2 mb 0.00 in0.0 mm 0.00 in/hr0.0 mm/hr 0.00 in0.0 mm
07:56 AM 69.6°F20.9°C 69.1°F20.6°C 98% 0.8 mph SW1.3 kmh SW 1.9 mph3.1 kmh 29.98 in1015.2 mb 0.00 in0.0 mm 0.00 in/hr0.0 mm/hr 0.00 in0.0 mm
07:55 AM 69.6°F20.9°C 69.1°F20.6°C 98% 0.8 mph SW1.3 kmh SW 1.9 mph3.1 kmh 29.97 in1014.9 mb 0.00 in0.0 mm 0.00 in/hr0.0 mm/hr 0.00 in0.0 mm
07:54 AM 69.4°F20.8°C 68.9°F20.5°C 98% 0.8 mph SW1.3 kmh SW 1.9 mph3.1 kmh 29.98 in1015.2 mb 0.00 in0.0 mm 0.00 in/hr0.0 mm/hr 0.00 in0.0 mm
07:53 AM 69.4°F20.8°C 68.9°F20.5°C 98% 1.0 mph SW1.6 kmh SW 1.9 mph3.1 kmh 29.98 in1015.2 mb 0.00 in0.0 mm 0.00 in/hr0.0 mm/hr 0.00 in0.0 mm
07:52 AM 69.4°F20.8°C 68.9°F20.5°C 98% 1.0 mph SW1.6 kmh SW 1.9 mph3.1 kmh 29.98 in1015.2 mb 0.00 in0.0 mm 0.00 in/hr0.0 mm/hr 0.00 in0.0 mm
07:51 AM 69.3°F20.7°C 68.7°F20.4°C 98% 1.0 mph SW1.6 kmh SW 1.9 mph3.1 kmh 29.98 in1015.2 mb 0.00 in0.0 mm 0.00 in/hr0.0 mm/hr 0.00 in0.0 mm
07:50 AM 69.3°F20.7°C 68.7°F20.4°C 98% 1.1 mph SW1.8 kmh SW 2.7 mph4.3 kmh 29.97 in1014.9 mb 0.00 in0.0 mm 0.00 in/hr0.0 mm/hr 0.00 in0.0 mm
07:49 AM 69.3°F20.7°C 68.7°F20.4°C 98% 1.3 mph SW2.1 kmh SW 3.8 mph6.1 kmh 29.97 in1014.9 mb 0.00 in0.0 mm 0.00 in/hr0.0 mm/hr 0.00 in0.0 mm
07:48 AM 69.3°F20.7°C 68.7°F20.4°C 98% 1.3 mph SW2.1 kmh SW 3.8 mph6.1 kmh 29.97 in1014.9 mb 0.00 in0.0 mm 0.00 in/hr0.0 mm/hr 0.00 in0.0 mm
07:47 AM 69.1°F20.6°C 68.5°F20.3°C 98% 1.3 mph SW2.1 kmh SW 3.8 mph6.1 kmh 29.97 in1014.9 mb 0.00 in0.0 mm 0.00 in/hr0.0 mm/hr 0.00 in0.0 mm
07:46 AM 69.1°F20.6°C 68.5°F20.3°C 98% 1.4 mph SW2.3 kmh SW 3.8 mph6.1 kmh 29.97 in1014.9 mb 0.00 in0.0 mm 0.00 in/hr0.0 mm/hr 0.00 in0.0 mm
07:45 AM 69.1°F20.6°C 68.5°F20.3°C 98% 1.4 mph SW2.3 kmh SW 3.8 mph6.1 kmh 29.97 in1014.9 mb 0.00 in0.0 mm 0.00 in/hr0.0 mm/hr 0.00 in0.0 mm
07:44 AM 69.1°F20.6°C 68.5°F20.3°C 98% 1.5 mph SW2.4 kmh SW 3.8 mph6.1 kmh 29.97 in1014.9 mb 0.00 in0.0 mm 0.00 in/hr0.0 mm/hr 0.00 in0.0 mm
07:43 AM 68.9°F20.5°C 68.3°F20.2°C 98% 1.4 mph SW2.3 kmh SW 3.8 mph6.1 kmh 29.98 in1015.2 mb 0.00 in0.0 mm 0.00 in/hr0.0 mm/hr 0.00 in0.0 mm
07:42 AM 68.9°F20.5°C 68.6°F20.3°C 99% 1.5 mph SW2.4 kmh SW 3.8 mph6.1 kmh 29.97 in1014.9 mb 0.00 in0.0 mm 0.00 in/hr0.0 mm/hr 0.00 in0.0 mm
07:41 AM 68.9°F20.5°C 68.6°F20.3°C 99% 1.5 mph SW2.4 kmh SW 3.8 mph6.1 kmh 29.98 in1015.2 mb 0.00 in0.0 mm 0.00 in/hr0.0 mm/hr 0.00 in0.0 mm
07:40 AM 68.9°F20.5°C 68.6°F20.3°C 99% 1.5 mph SSW2.4 kmh SSW 3.8 mph6.1 kmh 29.97 in1014.9 mb 0.00 in0.0 mm 0.00 in/hr0.0 mm/hr 0.00 in0.0 mm
07:39 AM 68.7°F20.4°C 68.5°F20.3°C 99% 1.3 mph SSW2.1 kmh SSW 1.9 mph3.1 kmh 29.98 in1015.2 mb 0.00 in0.0 mm 0.00 in/hr0.0 mm/hr 0.00 in0.0 mm
07:38 AM 68.7°F20.4°C 68.5°F20.3°C 99% 1.4 mph SSW2.3 kmh SSW 1.9 mph3.1 kmh 29.98 in1015.2 mb 0.00 in0.0 mm 0.00 in/hr0.0 mm/hr 0.00 in0.0 mm
07:37 AM 68.7°F20.4°C 68.5°F20.3°C 99% 1.3 mph S2.1 kmh S 1.9 mph3.1 kmh 29.97 in1014.9 mb 0.00 in0.0 mm 0.00 in/hr0.0 mm/hr 0.00 in0.0 mm
07:36 AM 68.5°F20.3°C 68.3°F20.2°C 99% 1.1 mph S1.8 kmh S 1.9 mph3.1 kmh 29.98 in1015.2 mb 0.00 in0.0 mm 0.00 in/hr0.0 mm/hr 0.00 in0.0 mm
07:35 AM 68.5°F20.3°C 68.3°F20.2°C 99% 1.2 mph S1.9 kmh S 1.9 mph3.1 kmh 29.97 in1014.9 mb 0.00 in0.0 mm 0.00 in/hr0.0 mm/hr 0.00 in0.0 mm
07:34 AM 68.5°F20.3°C 68.3°F20.2°C 99% 1.1 mph S1.8 kmh S 1.9 mph3.1 kmh 29.97 in1014.9 mb 0.00 in0.0 mm 0.00 in/hr0.0 mm/hr 0.00 in0.0 mm
07:33 AM 68.5°F20.3°C 68.3°F20.2°C 99% 1.0 mph S1.6 kmh S 1.9 mph3.1 kmh 29.97 in1014.9 mb 0.00 in0.0 mm 0.00 in/hr0.0 mm/hr 0.00 in0.0 mm
07:32 AM 68.5°F20.3°C 68.3°F20.2°C 99% 1.0 mph S1.6 kmh S 1.9 mph3.1 kmh 29.97 in1014.9 mb 0.00 in0.0 mm 0.00 in/hr0.0 mm/hr 0.00 in0.0 mm
07:31 AM 68.5°F20.3°C 68.3°F20.2°C 99% 1.1 mph SSW1.8 kmh SSW 1.9 mph3.1 kmh 29.98 in1015.2 mb 0.00 in0.0 mm 0.00 in/hr0.0 mm/hr 0.00 in0.0 mm
07:30 AM 68.5°F20.3°C 68.3°F20.2°C 99% 1.0 mph SW1.6 kmh SW 1.9 mph3.1 kmh 29.97 in1014.9 mb 0.00 in0.0 mm 0.00 in/hr0.0 mm/hr 0.00 in0.0 mm
07:29 AM 68.4°F20.2°C 68.1°F20.1°C 99% 0.9 mph SW1.4 kmh SW 1.9 mph3.1 kmh 29.98 in1015.2 mb 0.00 in0.0 mm 0.00 in/hr0.0 mm/hr 0.00 in0.0 mm
07:28 AM 68.4°F20.2°C 68.1°F20.1°C 99% 0.7 mph WSW1.1 kmh WSW 1.9 mph3.1 kmh 29.98 in1015.2 mb 0.00 in0.0 mm 0.00 in/hr0.0 mm/hr 0.00 in0.0 mm
07:27 AM 68.4°F20.2°C 68.1°F20.1°C 99% 0.9 mph WSW1.4 kmh WSW 1.9 mph3.1 kmh 29.98 in1015.2 mb 0.00 in0.0 mm 0.00 in/hr0.0 mm/hr 0.00 in0.0 mm
07:26 AM 68.4°F20.2°C 68.1°F20.1°C 99% 0.8 mph WSW1.3 kmh WSW 1.9 mph3.1 kmh 29.98 in1015.2 mb 0.00 in0.0 mm 0.00 in/hr0.0 mm/hr 0.00 in0.0 mm
07:25 AM 68.2°F20.1°C 67.9°F19.9°C 99% 0.7 mph WSW1.1 kmh WSW 1.9 mph3.1 kmh 29.98 in1015.2 mb 0.00 in0.0 mm 0.00 in/hr0.0 mm/hr 0.00 in0.0 mm
07:24 AM 68.2°F20.1°C 67.9°F19.9°C 99% 0.6 mph W1.0 kmh W 1.9 mph3.1 kmh 29.98 in1015.2 mb 0.00 in0.0 mm 0.00 in/hr0.0 mm/hr 0.00 in0.0 mm
07:23 AM 68.2°F20.1°C 67.9°F19.9°C 99% 0.6 mph WSW1.0 kmh WSW 1.9 mph3.1 kmh 29.98 in1015.2 mb 0.00 in0.0 mm 0.00 in/hr0.0 mm/hr 0.00 in0.0 mm
07:22 AM 68.2°F20.1°C 67.9°F19.9°C 99% 0.7 mph SW1.1 kmh SW 1.9 mph3.1 kmh 29.98 in1015.2 mb 0.00 in0.0 mm 0.00 in/hr0.0 mm/hr 0.00 in0.0 mm
07:21 AM 68.2°F20.1°C 67.9°F19.9°C 99% 0.5 mph SW0.8 kmh SW 1.9 mph3.1 kmh 29.98 in1015.2 mb 0.00 in0.0 mm 0.00 in/hr0.0 mm/hr 0.00 in0.0 mm
07:20 AM 68.0°F20.0°C 67.7°F19.8°C 99% 0.4 mph SW0.6 kmh SW 1.9 mph3.1 kmh 29.98 in1015.2 mb 0.00 in0.0 mm 0.00 in/hr0.0 mm/hr 0.00 in0.0 mm
07:19 AM 68.0°F20.0°C 67.7°F19.8°C 99% 0.5 mph SW0.8 kmh SW 1.9 mph3.1 kmh 29.98 in1015.2 mb 0.00 in0.0 mm 0.00 in/hr0.0 mm/hr 0.00 in0.0 mm
07:18 AM 68.0°F20.0°C 67.7°F19.8°C 99% 0.5 mph SW0.8 kmh SW 1.9 mph3.1 kmh 29.97 in1014.9 mb 0.00 in0.0 mm 0.00 in/hr0.0 mm/hr 0.00 in0.0 mm
07:17 AM 67.8°F19.9°C 67.6°F19.8°C 99% 0.5 mph SW0.8 kmh SW 1.9 mph3.1 kmh 29.97 in1014.9 mb 0.00 in0.0 mm 0.00 in/hr0.0 mm/hr 0.00 in0.0 mm
07:16 AM 67.8°F19.9°C 67.6°F19.8°C 99% 0.6 mph SW1.0 kmh SW 1.9 mph3.1 kmh 29.97 in1014.9 mb 0.00 in0.0 mm 0.00 in/hr0.0 mm/hr 0.00 in0.0 mm
07:15 AM 67.8°F19.9°C 67.6°F19.8°C 99% 0.8 mph SW1.3 kmh SW 1.9 mph3.1 kmh 29.98 in1015.2 mb 0.00 in0.0 mm 0.00 in/hr0.0 mm/hr 0.00 in0.0 mm
07:14 AM 67.8°F19.9°C 67.6°F19.8°C 99% 1.0 mph SW1.6 kmh SW 2.7 mph4.3 kmh 29.97 in1014.9 mb 0.00 in0.0 mm 0.00 in/hr0.0 mm/hr 0.00 in0.0 mm
07:13 AM 67.6°F19.8°C 67.4°F19.7°C 99% 1.0 mph SW1.6 kmh SW 2.7 mph4.3 kmh 29.97 in1014.9 mb 0.00 in0.0 mm 0.00 in/hr0.0 mm/hr 0.00 in0.0 mm
07:12 AM 67.6°F19.8°C 67.4°F19.7°C 99% 1.0 mph SW1.6 kmh SW 2.7 mph4.3 kmh 29.97 in1014.9 mb 0.00 in0.0 mm 0.00 in/hr0.0 mm/hr 0.00 in0.0 mm
07:11 AM 67.6°F19.8°C 67.4°F19.7°C 99% 1.0 mph SW1.6 kmh SW 2.7 mph4.3 kmh 29.97 in1014.9 mb 0.00 in0.0 mm 0.00 in/hr0.0 mm/hr 0.00 in0.0 mm
07:10 AM 67.5°F19.7°C 67.2°F19.6°C 99% 1.1 mph SW1.8 kmh SW 2.7 mph4.3 kmh 29.97 in1014.9 mb 0.00 in0.0 mm 0.00 in/hr0.0 mm/hr 0.00 in0.0 mm
07:09 AM 67.5°F19.7°C 67.2°F19.6°C 99% 1.1 mph SW1.8 kmh SW 2.7 mph4.3 kmh 29.97 in1014.9 mb 0.00 in0.0 mm 0.00 in/hr0.0 mm/hr 0.00 in0.0 mm
07:08 AM 67.5°F19.7°C 67.2°F19.6°C 99% 1.1 mph SW1.8 kmh SW 2.7 mph4.3 kmh 29.97 in1014.9 mb 0.00 in0.0 mm 0.00 in/hr0.0 mm/hr 0.00 in0.0 mm
07:07 AM 67.3°F19.6°C 67.0°F19.4°C 99% 1.1 mph SW1.8 kmh SW 2.7 mph4.3 kmh 29.98 in1015.2 mb 0.00 in0.0 mm 0.00 in/hr0.0 mm/hr 0.00 in0.0 mm
07:06 AM 67.3°F19.6°C 67.0°F19.4°C 99% 1.1 mph SW1.8 kmh SW 2.7 mph4.3 kmh 29.97 in1014.9 mb 0.00 in0.0 mm 0.00 in/hr0.0 mm/hr 0.00 in0.0 mm
07:05 AM 67.3°F19.6°C 67.0°F19.4°C 99% 1.0 mph SW1.6 kmh SW 2.7 mph4.3 kmh 29.98 in1015.2 mb 0.00 in0.0 mm 0.00 in/hr0.0 mm/hr 0.00 in0.0 mm
07:04 AM 67.1°F19.5°C 66.8°F19.3°C 99% 0.9 mph SW1.4 kmh SW 2.7 mph4.3 kmh 29.97 in1014.9 mb 0.00 in0.0 mm 0.00 in/hr0.0 mm/hr 0.00 in0.0 mm
07:03 AM 67.1°F19.5°C 66.8°F19.3°C 99% 0.8 mph SW1.3 kmh SW 1.9 mph3.1 kmh 29.97 in1014.9 mb 0.00 in0.0 mm 0.00 in/hr0.0 mm/hr 0.00 in0.0 mm
07:02 AM 66.9°F19.4°C 66.7°F19.3°C 99% 0.7 mph SW1.1 kmh SW 1.9 mph3.1 kmh 29.97 in1014.9 mb 0.00 in0.0 mm 0.00 in/hr0.0 mm/hr 0.00 in0.0 mm
07:01 AM 66.9°F19.4°C 66.7°F19.3°C 99% 0.8 mph SW1.3 kmh SW 1.9 mph3.1 kmh 29.97 in1014.9 mb 0.00 in0.0 mm 0.00 in/hr0.0 mm/hr 0.00 in0.0 mm
07:00 AM 66.9°F19.4°C 66.7°F19.3°C 99% 0.7 mph SW1.1 kmh SW 1.9 mph3.1 kmh 29.97 in1014.9 mb 0.00 in0.0 mm 0.00 in/hr0.0 mm/hr 0.00 in0.0 mm
06:59 AM 66.9°F19.4°C 66.7°F19.3°C 99% 0.6 mph SW1.0 kmh SW 1.9 mph3.1 kmh 29.97 in1014.9 mb 0.00 in0.0 mm 0.00 in/hr0.0 mm/hr 0.00 in0.0 mm
06:58 AM 66.9°F19.4°C 66.7°F19.3°C 99% 0.6 mph SW1.0 kmh SW 1.9 mph3.1 kmh 29.97 in1014.9 mb 0.00 in0.0 mm 0.00 in/hr0.0 mm/hr 0.00 in0.0 mm
06:57 AM 66.9°F19.4°C 66.7°F19.3°C 99% 0.4 mph SW0.6 kmh SW 0.8 mph1.3 kmh 29.97 in1014.9 mb 0.00 in0.0 mm 0.00 in/hr0.0 mm/hr 0.00 in0.0 mm
06:56 AM 66.9°F19.4°C 66.7°F19.3°C 99% 0.3 mph SW0.5 kmh SW 0.8 mph1.3 kmh 29.97 in1014.9 mb 0.00 in0.0 mm 0.00 in/hr0.0 mm/hr 0.00 in0.0 mm
06:55 AM 66.9°F19.4°C 66.7°F19.3°C 99% 0.3 mph SW0.5 kmh SW 0.8 mph1.3 kmh 29.97 in1014.9 mb 0.00 in0.0 mm 0.00 in/hr0.0 mm/hr 0.00 in0.0 mm
06:54 AM 66.9°F19.4°C 66.7°F19.3°C 99% 0.2 mph SW0.3 kmh SW 0.8 mph1.3 kmh 29.97 in1014.9 mb 0.00 in0.0 mm 0.00 in/hr0.0 mm/hr 0.00 in0.0 mm
06:53 AM 66.9°F19.4°C 66.7°F19.3°C 99% 0.2 mph SW0.3 kmh SW 0.8 mph1.3 kmh 29.96 in1014.6 mb 0.00 in0.0 mm 0.00 in/hr0.0 mm/hr 0.00 in0.0 mm
06:52 AM 66.7°F19.3°C 66.5°F19.2°C 99% 0.1 mph SW0.2 kmh SW 0.8 mph1.3 kmh 29.97 in1014.9 mb 0.00 in0.0 mm 0.00 in/hr0.0 mm/hr 0.00 in0.0 mm
06:51 AM 66.7°F19.3°C 66.5°F19.2°C 99% Calm Calm -- 29.97 in1014.9 mb 0.00 in0.0 mm 0.00 in/hr0.0 mm/hr 0.00 in0.0 mm
06:50 AM 66.7°F19.3°C 66.5°F19.2°C 99% Calm Calm -- 29.97 in1014.9 mb 0.00 in0.0 mm 0.00 in/hr0.0 mm/hr 0.00 in0.0 mm
06:49 AM 66.7°F19.3°C 66.5°F19.2°C 99% Calm Calm -- 29.97 in1014.9 mb 0.00 in0.0 mm 0.00 in/hr0.0 mm/hr 0.00 in0.0 mm
06:48 AM 66.7°F19.3°C 66.5°F19.2°C 99% Calm Calm -- 29.97 in1014.9 mb 0.00 in0.0 mm 0.00 in/hr0.0 mm/hr 0.00 in0.0 mm
06:47 AM 66.7°F19.3°C 66.5°F19.2°C 99% Calm Calm -- 29.97 in1014.9 mb 0.00 in0.0 mm 0.00 in/hr0.0 mm/hr 0.00 in0.0 mm
06:46 AM 66.7°F19.3°C 66.5°F19.2°C 99% Calm Calm -- 29.96 in1014.6 mb 0.00 in0.0 mm 0.00 in/hr0.0 mm/hr 0.00 in0.0 mm
06:45 AM 66.7°F19.3°C 66.5°F19.2°C 99% Calm Calm -- 29.97 in1014.9 mb 0.00 in0.0 mm 0.00 in/hr0.0 mm/hr 0.00 in0.0 mm
06:44 AM 66.7°F19.3°C 66.5°F19.2°C 99% Calm Calm -- 29.96 in1014.6 mb 0.00 in0.0 mm 0.00 in/hr0.0 mm/hr 0.00 in0.0 mm
06:43 AM 66.7°F19.3°C 66.5°F19.2°C 99% 0.2 mph SW0.3 kmh SW 1.9 mph3.1 kmh 29.96 in1014.6 mb 0.00 in0.0 mm 0.00 in/hr0.0 mm/hr 0.00 in0.0 mm
06:42 AM 66.7°F19.3°C 66.5°F19.2°C 99% 0.2 mph SW0.3 kmh SW 1.9 mph3.1 kmh 29.96 in1014.6 mb 0.00 in0.0 mm 0.00 in/hr0.0 mm/hr 0.00 in0.0 mm
06:41 AM 66.6°F19.2°C 66.3°F19.1°C 99% 0.2 mph SW0.3 kmh SW 1.9 mph3.1 kmh 29.97 in1014.9 mb 0.00 in0.0 mm 0.00 in/hr0.0 mm/hr 0.00 in0.0 mm
06:40 AM 66.6°F19.2°C 66.3°F19.1°C 99% 0.2 mph SW0.3 kmh SW 1.9 mph3.1 kmh 29.96 in1014.6 mb 0.00 in0.0 mm 0.00 in/hr0.0 mm/hr 0.00 in0.0 mm
06:39 AM 66.6°F19.2°C 66.3°F19.1°C 99% 0.2 mph SW0.3 kmh SW 1.9 mph3.1 kmh 29.97 in1014.9 mb 0.00 in0.0 mm 0.00 in/hr0.0 mm/hr 0.00 in0.0 mm
06:38 AM 66.6°F19.2°C 66.3°F19.1°C 99% 0.2 mph SW0.3 kmh SW 1.9 mph3.1 kmh 29.97 in1014.9 mb 0.00 in0.0 mm 0.00 in/hr0.0 mm/hr 0.00 in0.0 mm
06:37 AM 66.6°F19.2°C 66.3°F19.1°C 99% 0.2 mph SW0.3 kmh SW 1.9 mph3.1 kmh 29.96 in1014.6 mb 0.00 in0.0 mm 0.00 in/hr0.0 mm/hr 0.00 in0.0 mm
06:36 AM 66.6°F19.2°C 66.3°F19.1°C 99% 0.2 mph SW0.3 kmh SW 1.9 mph3.1 kmh 29.97 in1014.9 mb 0.00 in0.0 mm 0.00 in/hr0.0 mm/hr 0.00 in0.0 mm
06:35 AM 66.6°F19.2°C 66.3°F19.1°C 99% 0.2 mph SW0.3 kmh SW 1.9 mph3.1 kmh 29.97 in1014.9 mb 0.00 in0.0 mm 0.00 in/hr0.0 mm/hr 0.00 in0.0 mm
06:34 AM 66.6°F19.2°C 66.3°F19.1°C 99% 0.2 mph SW0.3 kmh SW 1.9 mph3.1 kmh 29.97 in1014.9 mb 0.00 in0.0 mm 0.00 in/hr0.0 mm/hr 0.00 in0.0 mm
06:33 AM 66.4°F19.1°C 66.1°F18.9°C 99% 0.1 mph SSW0.2 kmh SSW 0.8 mph1.3 kmh 29.97 in1014.9 mb 0.00 in0.0 mm 0.00 in/hr0.0 mm/hr 0.00 in0.0 mm
06:32 AM 66.4°F19.1°C 66.1°F18.9°C 99% Calm Calm 0.8 mph1.3 kmh 29.97 in1014.9 mb 0.00 in0.0 mm 0.00 in/hr0.0 mm/hr 0.00 in0.0 mm
06:31 AM 66.4°F19.1°C 66.1°F18.9°C 99% Calm Calm 0.8 mph1.3 kmh 29.96 in1014.6 mb 0.00 in0.0 mm 0.00 in/hr0.0 mm/hr 0.00 in0.0 mm
06:30 AM 66.4°F19.1°C 66.1°F18.9°C 99% Calm Calm 0.8 mph1.3 kmh 29.96 in1014.6 mb 0.00 in0.0 mm 0.00 in/hr0.0 mm/hr 0.00 in0.0 mm
06:29 AM 66.4°F19.1°C 66.1°F18.9°C 99% Calm Calm 0.8 mph1.3 kmh 29.97 in1014.9 mb 0.00 in0.0 mm 0.00 in/hr0.0 mm/hr 0.00 in0.0 mm
06:28 AM 66.4°F19.1°C 66.1°F18.9°C 99% Calm Calm 0.8 mph1.3 kmh 29.97 in1014.9 mb 0.00 in0.0 mm 0.00 in/hr0.0 mm/hr 0.00 in0.0 mm
06:27 AM 66.4°F19.1°C 66.1°F18.9°C 99% 0.1 mph S0.2 kmh S 0.8 mph1.3 kmh 29.96 in1014.6 mb 0.00 in0.0 mm 0.00 in/hr0.0 mm/hr 0.00 in0.0 mm
06:26 AM 66.4°F19.1°C 66.1°F18.9°C 99% 0.2 mph S0.3 kmh S 0.8 mph1.3 kmh 29.97 in1014.9 mb 0.00 in0.0 mm 0.00 in/hr0.0 mm/hr 0.00 in0.0 mm
06:25 AM 66.4°F19.1°C 66.1°F18.9°C 99% 0.3 mph S0.5 kmh S 0.8 mph1.3 kmh 29.97 in1014.9 mb 0.00 in0.0 mm 0.00 in/hr0.0 mm/hr 0.00 in0.0 mm
06:24 AM 66.4°F19.1°C 66.1°F18.9°C 99% 0.3 mph S0.5 kmh S 0.8 mph1.3 kmh 29.97 in1014.9 mb 0.00 in0.0 mm 0.00 in/hr0.0 mm/hr 0.00 in0.0 mm
06:23 AM 66.4°F19.1°C 66.1°F18.9°C 99% 0.3 mph S0.5 kmh S 0.8 mph1.3 kmh 29.97 in1014.9 mb 0.00 in0.0 mm 0.00 in/hr0.0 mm/hr 0.00 in0.0 mm
06:22 AM 66.4°F19.1°C 66.1°F18.9°C 99% 0.3 mph S0.5 kmh S 0.8 mph1.3 kmh 29.97 in1014.9 mb 0.00 in0.0 mm 0.00 in/hr0.0 mm/hr 0.00 in0.0 mm
06:21 AM 66.4°F19.1°C 66.1°F18.9°C 99% 0.3 mph S0.5 kmh S 0.8 mph1.3 kmh 29.97 in1014.9 mb 0.00 in0.0 mm 0.00 in/hr0.0 mm/hr 0.00 in0.0 mm
06:20 AM 66.4°F19.1°C 66.1°F18.9°C 99% 0.3 mph S0.5 kmh S 0.8 mph1.3 kmh 29.96 in1014.6 mb 0.00 in0.0 mm 0.00 in/hr0.0 mm/hr 0.00 in0.0 mm
06:19 AM 66.4°F19.1°C 66.1°F18.9°C 99% 0.3 mph S0.5 kmh S 0.8 mph1.3 kmh 29.96 in1014.6 mb 0.00 in0.0 mm 0.00 in/hr0.0 mm/hr 0.00 in0.0 mm
06:18 AM 66.4°F19.1°C 66.1°F18.9°C 99% 0.3 mph S0.5 kmh S 0.8 mph1.3 kmh 29.96 in1014.6 mb 0.00 in0.0 mm 0.00 in/hr0.0 mm/hr 0.00 in0.0 mm
06:17 AM 66.2°F19.0°C 65.9°F18.8°C 99% 0.2 mph S0.3 kmh S 0.8 mph1.3 kmh 29.96 in1014.6 mb 0.00 in0.0 mm 0.00 in/hr0.0 mm/hr 0.00 in0.0 mm
06:16 AM 66.2°F19.0°C 65.9°F18.8°C 99% 0.2 mph S0.3 kmh S 0.8 mph1.3 kmh 29.96 in1014.6 mb 0.00 in0.0 mm 0.00 in/hr0.0 mm/hr 0.00 in0.0 mm
06:15 AM 66.2°F19.0°C 65.9°F18.8°C 99% 0.1 mph S0.2 kmh S 0.8 mph1.3 kmh 29.96 in1014.6 mb 0.00 in0.0 mm 0.00 in/hr0.0 mm/hr 0.00 in0.0 mm
06:14 AM 66.2°F19.0°C 65.9°F18.8°C 99% 0.1 mph S0.2 kmh S 0.8 mph1.3 kmh 29.97 in1014.9 mb 0.00 in0.0 mm 0.00 in/hr0.0 mm/hr 0.00 in0.0 mm
06:13 AM 66.2°F19.0°C 65.9°F18.8°C 99% Calm Calm -- 29.96 in1014.6 mb 0.00 in0.0 mm 0.00 in/hr0.0 mm/hr 0.00 in0.0 mm
06:12 AM 66.2°F19.0°C 65.9°F18.8°C 99% Calm Calm -- 29.97 in1014.9 mb 0.00 in0.0 mm 0.00 in/hr0.0 mm/hr 0.00 in0.0 mm
06:11 AM 66.2°F19.0°C 65.9°F18.8°C 99% Calm Calm -- 29.97 in1014.9 mb 0.00 in0.0 mm 0.00 in/hr0.0 mm/hr 0.00 in0.0 mm
06:10 AM 66.2°F19.0°C 65.9°F18.8°C 99% Calm Calm -- 29.96 in1014.6 mb 0.00 in0.0 mm 0.00 in/hr0.0 mm/hr 0.00 in0.0 mm
06:09 AM 66.2°F19.0°C 65.9°F18.8°C 99% Calm Calm -- 29.97 in1014.9 mb 0.00 in0.0 mm 0.00 in/hr0.0 mm/hr 0.00 in0.0 mm
06:08 AM 66.2°F19.0°C 65.9°F18.8°C 99% Calm Calm -- 29.97 in1014.9 mb 0.00 in0.0 mm 0.00 in/hr0.0 mm/hr 0.00 in0.0 mm
06:07 AM 66.2°F19.0°C 65.9°F18.8°C 99% Calm Calm -- 29.97 in1014.9 mb 0.00 in0.0 mm 0.00 in/hr0.0 mm/hr 0.00 in0.0 mm
06:06 AM 66.2°F19.0°C 65.9°F18.8°C 99% Calm Calm -- 29.96 in1014.6 mb 0.00 in0.0 mm 0.00 in/hr0.0 mm/hr 0.00 in0.0 mm
06:05 AM 66.2°F19.0°C 65.9°F18.8°C 99% Calm Calm -- 29.96 in1014.6 mb 0.00 in0.0 mm 0.00 in/hr0.0 mm/hr 0.00 in0.0 mm
06:04 AM 66.2°F19.0°C 65.9°F18.8°C 99% Calm Calm -- 29.96 in1014.6 mb 0.00 in0.0 mm 0.00 in/hr0.0 mm/hr 0.00 in0.0 mm
06:03 AM 66.2°F19.0°C 65.9°F18.8°C 99% Calm Calm -- 29.96 in1014.6 mb 0.00 in0.0 mm 0.00 in/hr0.0 mm/hr 0.00 in0.0 mm
06:02 AM 66.2°F19.0°C 65.9°F18.8°C 99% Calm Calm -- 29.96 in1014.6 mb 0.00 in0.0 mm 0.00 in/hr0.0 mm/hr 0.00 in0.0 mm
06:01 AM 66.2°F19.0°C 65.9°F18.8°C 99% Calm Calm -- 29.96 in1014.6 mb 0.00 in0.0 mm 0.00 in/hr0.0 mm/hr 0.00 in0.0 mm
06:00 AM 66.2°F19.0°C 65.9°F18.8°C 99% Calm Calm -- 29.96 in1014.6 mb 0.00 in0.0 mm 0.00 in/hr0.0 mm/hr 0.00 in0.0 mm
05:59 AM 66.2°F19.0°C 65.9°F18.8°C 99% Calm Calm -- 29.96 in1014.6 mb 0.00 in0.0 mm 0.00 in/hr0.0 mm/hr 0.00 in0.0 mm
05:58 AM 66.2°F19.0°C 65.9°F18.8°C 99% Calm Calm -- 29.96 in1014.6 mb 0.00 in0.0 mm 0.00 in/hr0.0 mm/hr 0.00 in0.0 mm
05:57 AM 66.2°F19.0°C 65.9°F18.8°C 99% Calm Calm -- 29.96 in1014.6 mb 0.00 in0.0 mm 0.00 in/hr0.0 mm/hr 0.00 in0.0 mm
05:56 AM 66.2°F19.0°C 65.9°F18.8°C 99% Calm Calm -- 29.96 in1014.6 mb 0.00 in0.0 mm 0.00 in/hr0.0 mm/hr 0.00 in0.0 mm
05:55 AM 66.2°F19.0°C 65.9°F18.8°C 99% Calm Calm -- 29.97 in1014.9 mb 0.00 in0.0 mm 0.00 in/hr0.0 mm/hr 0.00 in0.0 mm
05:54 AM 66.2°F19.0°C 65.9°F18.8°C 99% Calm Calm -- 29.97 in1014.9 mb 0.00 in0.0 mm 0.00 in/hr0.0 mm/hr 0.00 in0.0 mm
05:53 AM 66.2°F19.0°C 65.6°F18.7°C 98% Calm Calm -- 29.97 in1014.9 mb 0.00 in0.0 mm 0.00 in/hr0.0 mm/hr 0.00 in0.0 mm
05:52 AM 66.2°F19.0°C 65.6°F18.7°C 98% Calm Calm -- 29.97 in1014.9 mb 0.00 in0.0 mm 0.00 in/hr0.0 mm/hr 0.00 in0.0 mm
05:51 AM 66.2°F19.0°C 65.6°F18.7°C 98% Calm Calm -- 29.97 in1014.9 mb 0.00 in0.0 mm 0.00 in/hr0.0 mm/hr 0.00 in0.0 mm
05:50 AM 66.2°F19.0°C 65.6°F18.7°C 98% Calm Calm -- 29.97 in1014.9 mb 0.00 in0.0 mm 0.00 in/hr0.0 mm/hr 0.00 in0.0 mm
05:49 AM 66.2°F19.0°C 65.6°F18.7°C 98% Calm Calm -- 29.97 in1014.9 mb 0.00 in0.0 mm 0.00 in/hr0.0 mm/hr 0.00 in0.0 mm
05:48 AM 66.2°F19.0°C 65.6°F18.7°C 98% Calm Calm -- 29.97 in1014.9 mb 0.00 in0.0 mm 0.00 in/hr0.0 mm/hr 0.00 in0.0 mm
05:47 AM 66.2°F19.0°C 65.6°F18.7°C 98% Calm Calm -- 29.97 in1014.9 mb 0.00 in0.0 mm 0.00 in/hr0.0 mm/hr 0.00 in0.0 mm
05:46 AM 66.4°F19.1°C 66.1°F18.9°C 99% Calm Calm 0.8 mph1.3 kmh 29.97 in1014.9 mb 0.00 in0.0 mm 0.00 in/hr0.0 mm/hr 0.00 in0.0 mm
05:45 AM 66.4°F19.1°C 66.1°F18.9°C 99% 0.1 mph SW0.2 kmh SW 0.8 mph1.3 kmh 29.97 in1014.9 mb 0.00 in0.0 mm 0.00 in/hr0.0 mm/hr 0.00 in0.0 mm
05:44 AM 66.4°F19.1°C 66.1°F18.9°C 99% 0.1 mph SW0.2 kmh SW 0.8 mph1.3 kmh 29.97 in1014.9 mb 0.00 in0.0 mm 0.00 in/hr0.0 mm/hr 0.00 in0.0 mm
05:43 AM 66.4°F19.1°C 66.1°F18.9°C 99% 0.1 mph SW0.2 kmh SW 0.8 mph1.3 kmh 29.97 in1014.9 mb 0.00 in0.0 mm 0.00 in/hr0.0 mm/hr 0.00 in0.0 mm
05:42 AM 66.2°F19.0°C 65.6°F18.7°C 98% 0.1 mph SW0.2 kmh SW 0.8 mph1.3 kmh 29.96 in1014.6 mb 0.00 in0.0 mm 0.00 in/hr0.0 mm/hr 0.00 in0.0 mm
05:41 AM 66.2°F19.0°C 65.6°F18.7°C 98% 0.1 mph SW0.2 kmh SW 0.8 mph1.3 kmh 29.97 in1014.9 mb 0.00 in0.0 mm 0.00 in/hr0.0 mm/hr 0.00 in0.0 mm
05:40 AM 66.2°F19.0°C 65.6°F18.7°C 98% 0.1 mph SW0.2 kmh SW 0.8 mph1.3 kmh 29.97 in1014.9 mb 0.00 in0.0 mm 0.00 in/hr0.0 mm/hr 0.00 in0.0 mm
05:39 AM 66.2°F19.0°C 65.6°F18.7°C 98% 0.1 mph SW0.2 kmh SW 0.8 mph1.3 kmh 29.97 in1014.9 mb 0.00 in0.0 mm 0.00 in/hr0.0 mm/hr 0.00 in0.0 mm
05:38 AM 66.2°F19.0°C 65.6°F18.7°C 98% 0.1 mph SW0.2 kmh SW 0.8 mph1.3 kmh 29.96 in1014.6 mb 0.00 in0.0 mm 0.00 in/hr0.0 mm/hr 0.00 in0.0 mm
05:37 AM 66.2°F19.0°C 65.6°F18.7°C 98% 0.1 mph SW0.2 kmh SW 0.8 mph1.3 kmh 29.97 in1014.9 mb 0.00 in0.0 mm 0.00 in/hr0.0 mm/hr 0.00 in0.0 mm
05:36 AM 66.2°F19.0°C 65.6°F18.7°C 98% 0.2 mph SW0.3 kmh SW 0.8 mph1.3 kmh 29.96 in1014.6 mb 0.00 in0.0 mm 0.00 in/hr0.0 mm/hr 0.00 in0.0 mm
05:35 AM 66.2°F19.0°C 65.6°F18.7°C 98% 0.2 mph SW0.3 kmh SW 0.8 mph1.3 kmh 29.97 in1014.9 mb 0.00 in0.0 mm 0.00 in/hr0.0 mm/hr 0.00 in0.0 mm
05:34 AM 66.2°F19.0°C 65.6°F18.7°C 98% 0.1 mph SW0.2 kmh SW 0.8 mph1.3 kmh 29.97 in1014.9 mb 0.00 in0.0 mm 0.00 in/hr0.0 mm/hr 0.00 in0.0 mm
05:33 AM 66.2°F19.0°C 65.6°F18.7°C 98% 0.2 mph SW0.3 kmh SW 0.8 mph1.3 kmh 29.97 in1014.9 mb 0.00 in0.0 mm 0.00 in/hr0.0 mm/hr 0.00 in0.0 mm
05:32 AM 66.2°F19.0°C 65.6°F18.7°C 98% 0.1 mph SW0.2 kmh SW 0.8 mph1.3 kmh 29.97 in1014.9 mb 0.00 in0.0 mm 0.00 in/hr0.0 mm/hr 0.00 in0.0 mm
05:31 AM 66.2°F19.0°C 65.6°F18.7°C 98% 0.1 mph SW0.2 kmh SW 0.8 mph1.3 kmh 29.97 in1014.9 mb 0.00 in0.0 mm 0.00 in/hr0.0 mm/hr 0.00 in0.0 mm
05:30 AM 66.2°F19.0°C 65.6°F18.7°C 98% 0.1 mph SW0.2 kmh SW 0.8 mph1.3 kmh 29.97 in1014.9 mb 0.00 in0.0 mm 0.00 in/hr0.0 mm/hr 0.00 in0.0 mm
05:29 AM 66.2°F19.0°C 65.6°F18.7°C 98% 0.2 mph SW0.3 kmh SW 0.8 mph1.3 kmh 29.96 in1014.6 mb 0.00 in0.0 mm 0.00 in/hr0.0 mm/hr 0.00 in0.0 mm
05:28 AM 66.2°F19.0°C 65.6°F18.7°C 98% 0.2 mph WSW0.3 kmh WSW 0.8 mph1.3 kmh 29.97 in1014.9 mb 0.00 in0.0 mm 0.00 in/hr0.0 mm/hr 0.00 in0.0 mm
05:27 AM 66.2°F19.0°C 65.6°F18.7°C 98% 0.3 mph NW0.5 kmh NW 1.9 mph3.1 kmh 29.97 in1014.9 mb 0.00 in0.0 mm 0.00 in/hr0.0 mm/hr 0.00 in0.0 mm
05:26 AM 66.2°F19.0°C 65.6°F18.7°C 98% 0.4 mph NNW0.6 kmh NNW 1.9 mph3.1 kmh 29.97 in1014.9 mb 0.00 in0.0 mm 0.00 in/hr0.0 mm/hr 0.00 in0.0 mm
05:25 AM 66.2°F19.0°C 65.6°F18.7°C 98% 0.5 mph NNW0.8 kmh NNW 1.9 mph3.1 kmh 29.97 in1014.9 mb 0.00 in0.0 mm 0.00 in/hr0.0 mm/hr 0.00 in0.0 mm
05:24 AM 66.2°F19.0°C 65.6°F18.7°C 98% 0.7 mph NNW1.1 kmh NNW 1.9 mph3.1 kmh 29.97 in1014.9 mb 0.00 in0.0 mm 0.00 in/hr0.0 mm/hr 0.00 in0.0 mm
05:23 AM 66.2°F19.0°C 65.6°F18.7°C 98% 0.7 mph NNW1.1 kmh NNW 1.9 mph3.1 kmh 29.97 in1014.9 mb 0.00 in0.0 mm 0.00 in/hr0.0 mm/hr 0.00 in0.0 mm
05:22 AM 66.2°F19.0°C 65.6°F18.7°C 98% 0.9 mph NW1.4 kmh NW 2.7 mph4.3 kmh 29.97 in1014.9 mb 0.00 in0.0 mm 0.00 in/hr0.0 mm/hr 0.00 in0.0 mm
05:21 AM 66.2°F19.0°C 65.6°F18.7°C 98% 1.2 mph NW1.9 kmh NW 2.7 mph4.3 kmh 29.97 in1014.9 mb 0.00 in0.0 mm 0.00 in/hr0.0 mm/hr 0.00 in0.0 mm
05:20 AM 66.2°F19.0°C 65.6°F18.7°C 98% 1.3 mph NNW2.1 kmh NNW 2.7 mph4.3 kmh 29.97 in1014.9 mb 0.00 in0.0 mm 0.00 in/hr0.0 mm/hr 0.00 in0.0 mm
05:19 AM 66.2°F19.0°C 65.6°F18.7°C 98% 1.5 mph NNW2.4 kmh NNW 2.7 mph4.3 kmh 29.97 in1014.9 mb 0.00 in0.0 mm 0.00 in/hr0.0 mm/hr 0.00 in0.0 mm
05:18 AM 66.2°F19.0°C 65.6°F18.7°C 98% 1.7 mph NNW2.7 kmh NNW 2.7 mph4.3 kmh 29.97 in1014.9 mb 0.00 in0.0 mm 0.00 in/hr0.0 mm/hr 0.00 in0.0 mm
05:17 AM 66.2°F19.0°C 65.6°F18.7°C 98% 1.7 mph NW2.7 kmh NW 2.7 mph4.3 kmh 29.97 in1014.9 mb 0.00 in0.0 mm 0.00 in/hr0.0 mm/hr 0.00 in0.0 mm
05:16 AM 66.2°F19.0°C 65.6°F18.7°C 98% 1.6 mph NW2.6 kmh NW 2.7 mph4.3 kmh 29.97 in1014.9 mb 0.00 in0.0 mm 0.00 in/hr0.0 mm/hr 0.00 in0.0 mm
05:15 AM 66.2°F19.0°C 65.6°F18.7°C 98% 1.6 mph NW2.6 kmh NW 2.7 mph4.3 kmh 29.97 in1014.9 mb 0.00 in0.0 mm 0.00 in/hr0.0 mm/hr 0.00 in0.0 mm
05:14 AM 66.2°F19.0°C 65.6°F18.7°C 98% 1.5 mph NW2.4 kmh NW 2.7 mph4.3 kmh 29.97 in1014.9 mb 0.00 in0.0 mm 0.00 in/hr0.0 mm/hr 0.00 in0.0 mm
05:13 AM 66.0°F18.9°C 65.5°F18.6°C 98% 1.5 mph NW2.4 kmh NW 2.7 mph4.3 kmh 29.97 in1014.9 mb 0.00 in0.0 mm 0.00 in/hr0.0 mm/hr 0.00 in0.0 mm
05:12 AM 66.0°F18.9°C 65.5°F18.6°C 98% 1.3 mph NW2.1 kmh NW 2.7 mph4.3 kmh 29.97 in1014.9 mb 0.00 in0.0 mm 0.00 in/hr0.0 mm/hr 0.00 in0.0 mm
05:11 AM 66.0°F18.9°C 65.5°F18.6°C 98% 1.2 mph WNW1.9 kmh WNW 2.7 mph4.3 kmh 29.97 in1014.9 mb 0.00 in0.0 mm 0.00 in/hr0.0 mm/hr 0.00 in0.0 mm
05:10 AM 66.0°F18.9°C 65.5°F18.6°C 98% 1.1 mph W1.8 kmh W 2.7 mph4.3 kmh 29.97 in1014.9 mb 0.00 in0.0 mm 0.00 in/hr0.0 mm/hr 0.00 in0.0 mm
05:09 AM 66.0°F18.9°C 65.5°F18.6°C 98% 0.9 mph WSW1.4 kmh WSW 2.7 mph4.3 kmh 29.97 in1014.9 mb 0.00 in0.0 mm 0.00 in/hr0.0 mm/hr 0.00 in0.0 mm
05:08 AM 66.2°F19.0°C 65.6°F18.7°C 98% 0.7 mph SW1.1 kmh SW 1.9 mph3.1 kmh 29.97 in1014.9 mb 0.00 in0.0 mm 0.00 in/hr0.0 mm/hr 0.00 in0.0 mm
05:07 AM 66.2°F19.0°C 65.6°F18.7°C 98% 0.6 mph SW1.0 kmh SW 0.8 mph1.3 kmh 29.97 in1014.9 mb 0.00 in0.0 mm 0.00 in/hr0.0 mm/hr 0.00 in0.0 mm
05:06 AM 66.2°F19.0°C 65.6°F18.7°C 98% 0.6 mph SW1.0 kmh SW 0.8 mph1.3 kmh 29.97 in1014.9 mb 0.00 in0.0 mm 0.00 in/hr0.0 mm/hr 0.00 in0.0 mm
05:05 AM 66.2°F19.0°C 65.6°F18.7°C 98% 0.5 mph SW0.8 kmh SW 0.8 mph1.3 kmh 29.97 in1014.9 mb 0.00 in0.0 mm 0.00 in/hr0.0 mm/hr 0.00 in0.0 mm
05:04 AM 66.2°F19.0°C 65.6°F18.7°C 98% 0.4 mph SW0.6 kmh SW 0.8 mph1.3 kmh 29.97 in1014.9 mb 0.00 in0.0 mm 0.00 in/hr0.0 mm/hr 0.00 in0.0 mm
05:03 AM 66.2°F19.0°C 65.6°F18.7°C 98% 0.4 mph SW0.6 kmh SW 0.8 mph1.3 kmh 29.97 in1014.9 mb 0.00 in0.0 mm 0.00 in/hr0.0 mm/hr 0.00 in0.0 mm
05:02 AM 66.2°F19.0°C 65.6°F18.7°C 98% 0.3 mph SW0.5 kmh SW 0.8 mph1.3 kmh 29.97 in1014.9 mb 0.00 in0.0 mm 0.00 in/hr0.0 mm/hr 0.00 in0.0 mm
05:01 AM 66.2°F19.0°C 65.6°F18.7°C 98% 0.2 mph SW0.3 kmh SW 0.8 mph1.3 kmh 29.97 in1014.9 mb 0.00 in0.0 mm 0.00 in/hr0.0 mm/hr 0.00 in0.0 mm
05:00 AM 66.2°F19.0°C 65.6°F18.7°C 98% 0.1 mph SW0.2 kmh SW 0.8 mph1.3 kmh 29.97 in1014.9 mb 0.00 in0.0 mm 0.00 in/hr0.0 mm/hr 0.00 in0.0 mm
04:59 AM 66.4°F19.1°C 65.8°F18.8°C 98% 0.1 mph SW0.2 kmh SW 0.8 mph1.3 kmh 29.97 in1014.9 mb 0.00 in0.0 mm 0.00 in/hr0.0 mm/hr 0.00 in0.0 mm
04:58 AM 66.4°F19.1°C 65.8°F18.8°C 98% 0.1 mph SW0.2 kmh SW 0.8 mph1.3 kmh 29.97 in1014.9 mb 0.00 in0.0 mm 0.00 in/hr0.0 mm/hr 0.00 in0.0 mm
04:57 AM 66.4°F19.1°C 65.8°F18.8°C 98% 0.1 mph SW0.2 kmh SW 0.8 mph1.3 kmh 29.97 in1014.9 mb 0.00 in0.0 mm 0.00 in/hr0.0 mm/hr 0.00 in0.0 mm
04:56 AM 66.4°F19.1°C 65.8°F18.8°C 98% Calm Calm 0.8 mph1.3 kmh 29.98 in1015.2 mb 0.00 in0.0 mm 0.00 in/hr0.0 mm/hr 0.00 in0.0 mm
04:55 AM 66.4°F19.1°C 65.8°F18.8°C 98% Calm Calm -- 29.97 in1014.9 mb 0.00 in0.0 mm 0.00 in/hr0.0 mm/hr 0.00 in0.0 mm
04:54 AM 66.4°F19.1°C 65.8°F18.8°C 98% Calm Calm -- 29.97 in1014.9 mb 0.00 in0.0 mm 0.00 in/hr0.0 mm/hr 0.00 in0.0 mm
04:53 AM 66.4°F19.1°C 65.8°F18.8°C 98% Calm Calm -- 29.97 in1014.9 mb 0.00 in0.0 mm 0.00 in/hr0.0 mm/hr 0.00 in0.0 mm
04:52 AM 66.4°F19.1°C 65.8°F18.8°C 98% Calm Calm -- 29.97 in1014.9 mb 0.00 in0.0 mm 0.00 in/hr0.0 mm/hr 0.00 in0.0 mm
04:51 AM 66.6°F19.2°C 66.0°F18.9°C 98% Calm Calm -- 29.98 in1015.2 mb 0.00 in0.0 mm 0.00 in/hr0.0 mm/hr 0.00 in0.0 mm
04:50 AM 66.6°F19.2°C 66.0°F18.9°C 98% Calm Calm -- 29.97 in1014.9 mb 0.00 in0.0 mm 0.00 in/hr0.0 mm/hr 0.00 in0.0 mm
04:49 AM 66.6°F19.2°C 66.0°F18.9°C 98% 0.1 mph SW0.2 kmh SW 0.8 mph1.3 kmh 29.98 in1015.2 mb 0.00 in0.0 mm 0.00 in/hr0.0 mm/hr 0.00 in0.0 mm
04:48 AM 66.6°F19.2°C 66.0°F18.9°C 98% 0.1 mph SW0.2 kmh SW 0.8 mph1.3 kmh 29.97 in1014.9 mb 0.00 in0.0 mm 0.00 in/hr0.0 mm/hr 0.00 in0.0 mm
04:47 AM 66.6°F19.2°C 66.0°F18.9°C 98% 0.2 mph SW0.3 kmh SW 0.8 mph1.3 kmh 29.98 in1015.2 mb 0.00 in0.0 mm 0.00 in/hr0.0 mm/hr 0.00 in0.0 mm
04:46 AM 66.6°F19.2°C 66.0°F18.9°C 98% 0.3 mph SW0.5 kmh SW 0.8 mph1.3 kmh 29.98 in1015.2 mb 0.00 in0.0 mm 0.00 in/hr0.0 mm/hr 0.00 in0.0 mm
04:45 AM 66.6°F19.2°C 66.0°F18.9°C 98% 0.4 mph SW0.6 kmh SW 0.8 mph1.3 kmh 29.98 in1015.2 mb 0.00 in0.0 mm 0.00 in/hr0.0 mm/hr 0.00 in0.0 mm
04:44 AM 66.6°F19.2°C 66.0°F18.9°C 98% 0.4 mph SW0.6 kmh SW 0.8 mph1.3 kmh 29.98 in1015.2 mb 0.00 in0.0 mm 0.00 in/hr0.0 mm/hr 0.00 in0.0 mm
04:43 AM 66.6°F19.2°C 66.0°F18.9°C 98% 0.5 mph SW0.8 kmh SW 0.8 mph1.3 kmh 29.98 in1015.2 mb 0.00 in0.0 mm 0.00 in/hr0.0 mm/hr 0.00 in0.0 mm
04:42 AM 66.6°F19.2°C 66.0°F18.9°C 98% 0.6 mph SW1.0 kmh SW 0.8 mph1.3 kmh 29.98 in1015.2 mb 0.00 in0.0 mm 0.00 in/hr0.0 mm/hr 0.00 in0.0 mm
04:41 AM 66.6°F19.2°C 66.0°F18.9°C 98% 0.7 mph SW1.1 kmh SW 0.8 mph1.3 kmh 29.98 in1015.2 mb 0.00 in0.0 mm 0.00 in/hr0.0 mm/hr 0.00 in0.0 mm
04:40 AM 66.6°F19.2°C 66.0°F18.9°C 98% 0.8 mph SW1.3 kmh SW 0.8 mph1.3 kmh 29.98 in1015.2 mb 0.00 in0.0 mm 0.00 in/hr0.0 mm/hr 0.00 in0.0 mm
04:39 AM 66.7°F19.3°C 66.2°F19.0°C 98% 0.8 mph SW1.3 kmh SW 0.8 mph1.3 kmh 29.98 in1015.2 mb 0.00 in0.0 mm 0.00 in/hr0.0 mm/hr 0.00 in0.0 mm
04:38 AM 66.7°F19.3°C 66.2°F19.0°C 98% 0.8 mph SW1.3 kmh SW 0.8 mph1.3 kmh 29.97 in1014.9 mb 0.00 in0.0 mm 0.00 in/hr0.0 mm/hr 0.00 in0.0 mm
04:37 AM 66.7°F19.3°C 66.2°F19.0°C 98% 0.8 mph SW1.3 kmh SW 0.8 mph1.3 kmh 29.97 in1014.9 mb 0.00 in0.0 mm 0.00 in/hr0.0 mm/hr 0.00 in0.0 mm
04:36 AM 66.7°F19.3°C 66.2°F19.0°C 98% 0.8 mph SW1.3 kmh SW 0.8 mph1.3 kmh 29.98 in1015.2 mb 0.00 in0.0 mm 0.00 in/hr0.0 mm/hr 0.00 in0.0 mm
04:35 AM 66.7°F19.3°C 66.2°F19.0°C 98% 0.9 mph SW1.4 kmh SW 1.9 mph3.1 kmh 29.97 in1014.9 mb 0.00 in0.0 mm 0.00 in/hr0.0 mm/hr 0.00 in0.0 mm
04:34 AM 66.7°F19.3°C 66.2°F19.0°C 98% 1.0 mph SW1.6 kmh SW 1.9 mph3.1 kmh 29.98 in1015.2 mb 0.00 in0.0 mm 0.00 in/hr0.0 mm/hr 0.00 in0.0 mm
04:33 AM 66.7°F19.3°C 66.2°F19.0°C 98% 1.0 mph SW1.6 kmh SW 1.9 mph3.1 kmh 29.98 in1015.2 mb 0.00 in0.0 mm 0.00 in/hr0.0 mm/hr 0.00 in0.0 mm
04:32 AM 66.7°F19.3°C 66.2°F19.0°C 98% 0.9 mph SW1.4 kmh SW 1.9 mph3.1 kmh 29.98 in1015.2 mb 0.00 in0.0 mm 0.00 in/hr0.0 mm/hr 0.00 in0.0 mm
04:31 AM 66.7°F19.3°C 66.2°F19.0°C 98% 0.8 mph SW1.3 kmh SW 1.9 mph3.1 kmh 29.98 in1015.2 mb 0.00 in0.0 mm 0.00 in/hr0.0 mm/hr 0.00 in0.0 mm
04:30 AM 66.7°F19.3°C 66.2°F19.0°C 98% 0.7 mph SW1.1 kmh SW 1.9 mph3.1 kmh 29.98 in1015.2 mb 0.00 in0.0 mm 0.00 in/hr0.0 mm/hr 0.00 in0.0 mm
04:29 AM 66.7°F19.3°C 65.9°F18.8°C 97% 0.6 mph SW1.0 kmh SW 1.9 mph3.1 kmh 29.98 in1015.2 mb 0.00 in0.0 mm 0.00 in/hr0.0 mm/hr 0.00 in0.0 mm
04:28 AM 66.7°F19.3°C 66.2°F19.0°C 98% 0.6 mph SW1.0 kmh SW 1.9 mph3.1 kmh 29.98 in1015.2 mb 0.00 in0.0 mm 0.00 in/hr0.0 mm/hr 0.00 in0.0 mm
04:27 AM 66.7°F19.3°C 66.2°F19.0°C 98% 0.5 mph SW0.8 kmh SW 1.9 mph3.1 kmh 29.98 in1015.2 mb 0.00 in0.0 mm 0.00 in/hr0.0 mm/hr 0.00 in0.0 mm
04:26 AM 66.7°F19.3°C 66.2°F19.0°C 98% 0.4 mph SW0.6 kmh SW 1.9 mph3.1 kmh 29.98 in1015.2 mb 0.00 in0.0 mm 0.00 in/hr0.0 mm/hr 0.00 in0.0 mm
04:25 AM 66.7°F19.3°C 66.2°F19.0°C 98% 0.2 mph SW0.3 kmh SW 1.9 mph3.1 kmh 29.98 in1015.2 mb 0.00 in0.0 mm 0.00 in/hr0.0 mm/hr 0.00 in0.0 mm
04:24 AM 66.7°F19.3°C 65.9°F18.8°C 97% 0.1 mph SW0.2 kmh SW 0.8 mph1.3 kmh 29.98 in1015.2 mb 0.00 in0.0 mm 0.00 in/hr0.0 mm/hr 0.00 in0.0 mm
04:23 AM 66.7°F19.3°C 65.9°F18.8°C 97% Calm Calm -- 29.98 in1015.2 mb 0.00 in0.0 mm 0.00 in/hr0.0 mm/hr 0.00 in0.0 mm
04:22 AM 66.7°F19.3°C 66.2°F19.0°C 98% Calm Calm -- 29.98 in1015.2 mb 0.00 in0.0 mm 0.00 in/hr0.0 mm/hr 0.00 in0.0 mm
04:21 AM 66.7°F19.3°C 65.9°F18.8°C 97% Calm Calm -- 29.98 in1015.2 mb 0.00 in0.0 mm 0.00 in/hr0.0 mm/hr 0.00 in0.0 mm
04:20 AM 66.7°F19.3°C 66.2°F19.0°C 98% Calm Calm -- 29.98 in1015.2 mb 0.00 in0.0 mm 0.00 in/hr0.0 mm/hr 0.00 in0.0 mm
04:19 AM 66.7°F19.3°C 65.9°F18.8°C 97% Calm Calm -- 29.98 in1015.2 mb 0.00 in0.0 mm 0.00 in/hr0.0 mm/hr 0.00 in0.0 mm
04:18 AM 66.7°F19.3°C 65.9°F18.8°C 97% Calm Calm -- 29.98 in1015.2 mb 0.00 in0.0 mm 0.00 in/hr0.0 mm/hr 0.00 in0.0 mm
04:17 AM 66.7°F19.3°C 65.9°F18.8°C 97% Calm Calm -- 29.98 in1015.2 mb 0.00 in0.0 mm 0.00 in/hr0.0 mm/hr 0.00 in0.0 mm
04:16 AM 66.7°F19.3°C 65.9°F18.8°C 97% Calm Calm -- 29.98 in1015.2 mb 0.00 in0.0 mm 0.00 in/hr0.0 mm/hr 0.00 in0.0 mm
04:15 AM 66.7°F19.3°C 65.9°F18.8°C 97% Calm Calm -- 29.98 in1015.2 mb 0.00 in0.0 mm 0.00 in/hr0.0 mm/hr 0.00 in0.0 mm
04:14 AM 66.7°F19.3°C 65.9°F18.8°C 97% Calm Calm -- 29.98 in1015.2 mb 0.00 in0.0 mm 0.00 in/hr0.0 mm/hr 0.00 in0.0 mm
04:13 AM 66.7°F19.3°C 65.9°F18.8°C 97% Calm Calm -- 29.98 in1015.2 mb 0.00 in0.0 mm 0.00 in/hr0.0 mm/hr 0.00 in0.0 mm
04:12 AM 66.7°F19.3°C 65.9°F18.8°C 97% Calm Calm -- 29.98 in1015.2 mb 0.00 in0.0 mm 0.00 in/hr0.0 mm/hr 0.00 in0.0 mm
04:11 AM 66.9°F19.4°C 66.1°F18.9°C 97% Calm Calm -- 29.98 in1015.2 mb 0.00 in0.0 mm 0.00 in/hr0.0 mm/hr 0.00 in0.0 mm
04:10 AM 66.9°F19.4°C 66.1°F18.9°C 97% Calm Calm -- 29.98 in1015.2 mb 0.00 in0.0 mm 0.00 in/hr0.0 mm/hr 0.00 in0.0 mm
04:09 AM 66.9°F19.4°C 66.1°F18.9°C 97% Calm Calm -- 29.98 in1015.2 mb 0.00 in0.0 mm 0.00 in/hr0.0 mm/hr 0.00 in0.0 mm
04:08 AM 66.9°F19.4°C 66.1°F18.9°C 97% Calm Calm -- 29.98 in1015.2 mb 0.00 in0.0 mm 0.00 in/hr0.0 mm/hr 0.00 in0.0 mm
04:07 AM 66.9°F19.4°C 66.1°F18.9°C 97% Calm Calm -- 29.98 in1015.2 mb 0.00 in0.0 mm 0.00 in/hr0.0 mm/hr 0.00 in0.0 mm
04:06 AM 66.9°F19.4°C 66.1°F18.9°C 97% Calm Calm -- 29.98 in1015.2 mb 0.00 in0.0 mm 0.00 in/hr0.0 mm/hr 0.00 in0.0 mm
04:05 AM 66.9°F19.4°C 66.1°F18.9°C 97% Calm Calm -- 29.98 in1015.2 mb 0.00 in0.0 mm 0.00 in/hr0.0 mm/hr 0.00 in0.0 mm
04:04 AM 66.9°F19.4°C 66.1°F18.9°C 97% 0.1 mph NW0.2 kmh NW 0.8 mph1.3 kmh 29.98 in1015.2 mb 0.00 in0.0 mm 0.00 in/hr0.0 mm/hr 0.00 in0.0 mm
04:03 AM 66.9°F19.4°C 66.1°F18.9°C 97% 0.1 mph NW0.2 kmh NW 0.8 mph1.3 kmh 29.99 in1015.6 mb 0.00 in0.0 mm 0.00 in/hr0.0 mm/hr 0.00 in0.0 mm
04:02 AM 66.9°F19.4°C 66.1°F18.9°C 97% 0.1 mph NW0.2 kmh NW 0.8 mph1.3 kmh 29.98 in1015.2 mb 0.00 in0.0 mm 0.00 in/hr0.0 mm/hr 0.00 in0.0 mm
04:01 AM 66.9°F19.4°C 66.1°F18.9°C 97% 0.1 mph NW0.2 kmh NW 0.8 mph1.3 kmh 29.99 in1015.6 mb 0.00 in0.0 mm 0.00 in/hr0.0 mm/hr 0.00 in0.0 mm
04:00 AM 66.9°F19.4°C 66.1°F18.9°C 97% 0.1 mph NW0.2 kmh NW 0.8 mph1.3 kmh 29.99 in1015.6 mb 0.00 in0.0 mm 0.00 in/hr0.0 mm/hr 0.00 in0.0 mm
03:59 AM 66.9°F19.4°C 66.1°F18.9°C 97% 0.1 mph NW0.2 kmh NW 0.8 mph1.3 kmh 29.99 in1015.6 mb 0.00 in0.0 mm 0.00 in/hr0.0 mm/hr 0.00 in0.0 mm
03:58 AM 66.9°F19.4°C 66.1°F18.9°C 97% 0.1 mph NW0.2 kmh NW 0.8 mph1.3 kmh 29.99 in1015.6 mb 0.00 in0.0 mm 0.00 in/hr0.0 mm/hr 0.00 in0.0 mm
03:57 AM 66.9°F19.4°C 66.1°F18.9°C 97% 0.1 mph NW0.2 kmh NW 0.8 mph1.3 kmh 29.99 in1015.6 mb 0.00 in0.0 mm 0.00 in/hr0.0 mm/hr 0.00 in0.0 mm
03:56 AM 66.9°F19.4°C 66.1°F18.9°C 97% 0.1 mph NW0.2 kmh NW 0.8 mph1.3 kmh 29.98 in1015.2 mb 0.00 in0.0 mm 0.00 in/hr0.0 mm/hr 0.00 in0.0 mm
03:55 AM 66.9°F19.4°C 66.1°F18.9°C 97% 0.1 mph NW0.2 kmh NW 0.8 mph1.3 kmh 29.99 in1015.6 mb 0.00 in0.0 mm 0.00 in/hr0.0 mm/hr 0.00 in0.0 mm
03:54 AM 66.9°F19.4°C 66.1°F18.9°C 97% 0.2 mph NW0.3 kmh NW 1.9 mph3.1 kmh 29.99 in1015.6 mb 0.00 in0.0 mm 0.00 in/hr0.0 mm/hr 0.00 in0.0 mm
03:53 AM 66.7°F19.3°C 65.9°F18.8°C 97% 0.4 mph NW0.6 kmh NW 1.9 mph3.1 kmh 29.99 in1015.6 mb 0.00 in0.0 mm 0.00 in/hr0.0 mm/hr 0.00 in0.0 mm
03:52 AM 66.9°F19.4°C 66.1°F18.9°C 97% 0.7 mph NW1.1 kmh NW 2.7 mph4.3 kmh 29.98 in1015.2 mb 0.00 in0.0 mm 0.00 in/hr0.0 mm/hr 0.00 in0.0 mm
03:51 AM 66.9°F19.4°C 66.1°F18.9°C 97% 0.8 mph NW1.3 kmh NW 2.7 mph4.3 kmh 29.98 in1015.2 mb 0.00 in0.0 mm 0.00 in/hr0.0 mm/hr 0.00 in0.0 mm
03:50 AM 66.7°F19.3°C 65.9°F18.8°C 97% 0.9 mph NW1.4 kmh NW 2.7 mph4.3 kmh 29.98 in1015.2 mb 0.00 in0.0 mm 0.00 in/hr0.0 mm/hr 0.00 in0.0 mm
03:49 AM 66.7°F19.3°C 65.9°F18.8°C 97% 0.9 mph NW1.4 kmh NW 2.7 mph4.3 kmh 29.98 in1015.2 mb 0.00 in0.0 mm 0.00 in/hr0.0 mm/hr 0.00 in0.0 mm
03:48 AM 66.7°F19.3°C 65.9°F18.8°C 97% 1.1 mph NW1.8 kmh NW 2.7 mph4.3 kmh 29.98 in1015.2 mb 0.00 in0.0 mm 0.00 in/hr0.0 mm/hr 0.00 in0.0 mm
03:47 AM 66.9°F19.4°C 66.1°F18.9°C 97% 1.2 mph NW1.9 kmh NW 2.7 mph4.3 kmh 29.99 in1015.6 mb 0.00 in0.0 mm 0.00 in/hr0.0 mm/hr 0.00 in0.0 mm
03:46 AM 66.9°F19.4°C 66.1°F18.9°C 97% 1.3 mph NW2.1 kmh NW 2.7 mph4.3 kmh 29.99 in1015.6 mb 0.00 in0.0 mm 0.00 in/hr0.0 mm/hr 0.00 in0.0 mm
03:45 AM 66.9°F19.4°C 66.1°F18.9°C 97% 1.4 mph NW2.3 kmh NW 2.7 mph4.3 kmh 29.99 in1015.6 mb 0.00 in0.0 mm 0.00 in/hr0.0 mm/hr 0.00 in0.0 mm
03:44 AM 66.9°F19.4°C 66.1°F18.9°C 97% 1.3 mph NW2.1 kmh NW 2.7 mph4.3 kmh 29.99 in1015.6 mb 0.00 in0.0 mm 0.00 in/hr0.0 mm/hr 0.00 in0.0 mm
03:43 AM 66.9°F19.4°C 66.1°F18.9°C 97% 1.1 mph NNW1.8 kmh NNW 2.7 mph4.3 kmh 29.99 in1015.6 mb 0.00 in0.0 mm 0.00 in/hr0.0 mm/hr 0.00 in0.0 mm
03:42 AM 66.9°F19.4°C 66.1°F18.9°C 97% 1.0 mph NNW1.6 kmh NNW 1.9 mph3.1 kmh 29.99 in1015.6 mb 0.00 in0.0 mm 0.00 in/hr0.0 mm/hr 0.00 in0.0 mm
03:41 AM 66.9°F19.4°C 66.1°F18.9°C 97% 0.9 mph NNW1.4 kmh NNW 1.9 mph3.1 kmh 29.99 in1015.6 mb 0.00 in0.0 mm 0.00 in/hr0.0 mm/hr 0.00 in0.0 mm
03:40 AM 66.9°F19.4°C 66.1°F18.9°C 97% 0.8 mph N1.3 kmh N 1.9 mph3.1 kmh 29.99 in1015.6 mb 0.00 in0.0 mm 0.00 in/hr0.0 mm/hr 0.00 in0.0 mm
03:39 AM 66.9°F19.4°C 66.1°F18.9°C 97% 0.9 mph N1.4 kmh N 1.9 mph3.1 kmh 29.99 in1015.6 mb 0.00 in0.0 mm 0.00 in/hr0.0 mm/hr 0.00 in0.0 mm
03:38 AM 66.9°F19.4°C 66.1°F18.9°C 97% 0.9 mph N1.4 kmh N 1.9 mph3.1 kmh 29.99 in1015.6 mb 0.00 in0.0 mm 0.00 in/hr0.0 mm/hr 0.00 in0.0 mm
03:37 AM 66.9°F19.4°C 66.1°F18.9°C 97% 1.0 mph N1.6 kmh N 1.9 mph3.1 kmh 29.99 in1015.6 mb 0.00 in0.0 mm 0.00 in/hr0.0 mm/hr 0.00 in0.0 mm
03:36 AM 66.9°F19.4°C 66.1°F18.9°C 97% 1.0 mph N1.6 kmh N 1.9 mph3.1 kmh 29.99 in1015.6 mb 0.00 in0.0 mm 0.00 in/hr0.0 mm/hr 0.00 in0.0 mm
03:35 AM 66.9°F19.4°C 66.1°F18.9°C 97% 1.0 mph N1.6 kmh N 1.9 mph3.1 kmh 29.99 in1015.6 mb 0.00 in0.0 mm 0.00 in/hr0.0 mm/hr 0.00 in0.0 mm
03:34 AM 66.9°F19.4°C 66.1°F18.9°C 97% 1.1 mph N1.8 kmh N 1.9 mph3.1 kmh 29.99 in1015.6 mb 0.00 in0.0 mm 0.00 in/hr0.0 mm/hr 0.00 in0.0 mm
03:33 AM 66.9°F19.4°C 66.1°F18.9°C 97% 1.1 mph N1.8 kmh N 1.9 mph3.1 kmh 29.99 in1015.6 mb 0.00 in0.0 mm 0.00 in/hr0.0 mm/hr 0.00 in0.0 mm
03:32 AM 66.9°F19.4°C 66.1°F18.9°C 97% 1.1 mph N1.8 kmh N 1.9 mph3.1 kmh 29.99 in1015.6 mb 0.00 in0.0 mm 0.00 in/hr0.0 mm/hr 0.00 in0.0 mm
03:31 AM 66.9°F19.4°C 66.1°F18.9°C 97% 1.2 mph N1.9 kmh N 1.9 mph3.1 kmh 29.99 in1015.6 mb 0.00 in0.0 mm 0.00 in/hr0.0 mm/hr 0.00 in0.0 mm
03:30 AM 66.9°F19.4°C 66.1°F18.9°C 97% 1.3 mph N2.1 kmh N 1.9 mph3.1 kmh 29.99 in1015.6 mb 0.00 in0.0 mm 0.00 in/hr0.0 mm/hr 0.00 in0.0 mm
03:29 AM 66.9°F19.4°C 66.1°F18.9°C 97% 1.4 mph N2.3 kmh N 1.9 mph3.1 kmh 29.99 in1015.6 mb 0.00 in0.0 mm 0.00 in/hr0.0 mm/hr 0.00 in0.0 mm
03:28 AM 66.9°F19.4°C 66.1°F18.9°C 97% 1.3 mph N2.1 kmh N 1.9 mph3.1 kmh 29.99 in1015.6 mb 0.00 in0.0 mm 0.00 in/hr0.0 mm/hr 0.00 in0.0 mm
03:27 AM 66.9°F19.4°C 65.8°F18.8°C 96% 1.2 mph NNW1.9 kmh NNW 1.9 mph3.1 kmh 29.99 in1015.6 mb 0.00 in0.0 mm 0.00 in/hr0.0 mm/hr 0.00 in0.0 mm
03:26 AM 66.9°F19.4°C 66.1°F18.9°C 97% 1.1 mph N1.8 kmh N 1.9 mph3.1 kmh 30.00 in1015.9 mb 0.00 in0.0 mm 0.00 in/hr0.0 mm/hr 0.00 in0.0 mm
03:25 AM 66.9°F19.4°C 65.8°F18.8°C 96% 1.1 mph N1.8 kmh N 1.9 mph3.1 kmh 30.00 in1015.9 mb 0.00 in0.0 mm 0.00 in/hr0.0 mm/hr 0.00 in0.0 mm
03:24 AM 66.9°F19.4°C 66.1°F18.9°C 97% 1.1 mph NNW1.8 kmh NNW 1.9 mph3.1 kmh 30.00 in1015.9 mb 0.00 in0.0 mm 0.00 in/hr0.0 mm/hr 0.00 in0.0 mm
03:23 AM 66.9°F19.4°C 65.8°F18.8°C 96% 1.1 mph NNW1.8 kmh NNW 1.9 mph3.1 kmh 30.00 in1015.9 mb 0.00 in0.0 mm 0.00 in/hr0.0 mm/hr 0.00 in0.0 mm
03:22 AM 66.9°F19.4°C 65.8°F18.8°C 96% 1.1 mph NNW1.8 kmh NNW 1.9 mph3.1 kmh 30.00 in1015.9 mb 0.00 in0.0 mm 0.00 in/hr0.0 mm/hr 0.00 in0.0 mm
03:21 AM 66.9°F19.4°C 65.8°F18.8°C 96% 1.1 mph NNW1.8 kmh NNW 1.9 mph3.1 kmh 30.00 in1015.9 mb 0.00 in0.0 mm 0.00 in/hr0.0 mm/hr 0.00 in0.0 mm
03:20 AM 66.9°F19.4°C 65.8°F18.8°C 96% 0.9 mph NW1.4 kmh NW 1.9 mph3.1 kmh 30.00 in1015.9 mb 0.00 in0.0 mm 0.00 in/hr0.0 mm/hr 0.00 in0.0 mm
03:19 AM 67.1°F19.5°C 66.0°F18.9°C 96% 0.7 mph NW1.1 kmh NW 1.9 mph3.1 kmh 30.00 in1015.9 mb 0.00 in0.0 mm 0.00 in/hr0.0 mm/hr 0.00 in0.0 mm
03:18 AM 67.1°F19.5°C 66.0°F18.9°C 96% 0.7 mph NW1.1 kmh NW 1.9 mph3.1 kmh 30.00 in1015.9 mb 0.00 in0.0 mm 0.00 in/hr0.0 mm/hr 0.00 in0.0 mm
03:17 AM 67.1°F19.5°C 66.0°F18.9°C 96% 0.6 mph NW1.0 kmh NW 1.9 mph3.1 kmh 30.00 in1015.9 mb 0.00 in0.0 mm 0.00 in/hr0.0 mm/hr 0.00 in0.0 mm
03:16 AM 67.1°F19.5°C 66.0°F18.9°C 96% 0.6 mph NW1.0 kmh NW 1.9 mph3.1 kmh 30.00 in1015.9 mb 0.00 in0.0 mm 0.00 in/hr0.0 mm/hr 0.00 in0.0 mm
03:15 AM 67.1°F19.5°C 66.0°F18.9°C 96% 0.5 mph NW0.8 kmh NW 1.9 mph3.1 kmh 30.00 in1015.9 mb 0.00 in0.0 mm 0.00 in/hr0.0 mm/hr 0.00 in0.0 mm
03:14 AM 67.1°F19.5°C 66.0°F18.9°C 96% 0.4 mph NW0.6 kmh NW 1.9 mph3.1 kmh 30.00 in1015.9 mb 0.00 in0.0 mm 0.00 in/hr0.0 mm/hr 0.00 in0.0 mm
03:13 AM 67.1°F19.5°C 66.0°F18.9°C 96% 0.3 mph NW0.5 kmh NW 1.9 mph3.1 kmh 30.00 in1015.9 mb 0.00 in0.0 mm 0.00 in/hr0.0 mm/hr 0.00 in0.0 mm
03:12 AM 67.1°F19.5°C 66.0°F18.9°C 96% 0.2 mph NW0.3 kmh NW 1.9 mph3.1 kmh 30.00 in1015.9 mb 0.00 in0.0 mm 0.00 in/hr0.0 mm/hr 0.00 in0.0 mm
03:11 AM 67.1°F19.5°C 66.0°F18.9°C 96% 0.1 mph S0.2 kmh S 0.8 mph1.3 kmh 30.00 in1015.9 mb 0.00 in0.0 mm 0.00 in/hr0.0 mm/hr 0.00 in0.0 mm
03:10 AM 67.1°F19.5°C 66.0°F18.9°C 96% 0.1 mph S0.2 kmh S 0.8 mph1.3 kmh 29.99 in1015.6 mb 0.00 in0.0 mm 0.00 in/hr0.0 mm/hr 0.00 in0.0 mm
03:09 AM 67.1°F19.5°C 66.0°F18.9°C 96% 0.1 mph S0.2 kmh S 0.8 mph1.3 kmh 30.00 in1015.9 mb 0.00 in0.0 mm 0.00 in/hr0.0 mm/hr 0.00 in0.0 mm
03:08 AM 67.1°F19.5°C 66.0°F18.9°C 96% Calm Calm 0.8 mph1.3 kmh 30.00 in1015.9 mb 0.00 in0.0 mm 0.00 in/hr0.0 mm/hr 0.00 in0.0 mm
03:07 AM 67.1°F19.5°C 66.0°F18.9°C 96% Calm Calm -- 30.00 in1015.9 mb 0.00 in0.0 mm 0.00 in/hr0.0 mm/hr 0.00 in0.0 mm
03:06 AM 67.1°F19.5°C 66.0°F18.9°C 96% Calm Calm -- 29.99 in1015.6 mb 0.00 in0.0 mm 0.00 in/hr0.0 mm/hr 0.00 in0.0 mm
03:05 AM 67.1°F19.5°C 66.0°F18.9°C 96% Calm Calm -- 30.00 in1015.9 mb 0.00 in0.0 mm 0.00 in/hr0.0 mm/hr 0.00 in0.0 mm
03:04 AM 67.1°F19.5°C 66.0°F18.9°C 96% Calm Calm -- 30.00 in1015.9 mb 0.00 in0.0 mm 0.00 in/hr0.0 mm/hr 0.00 in0.0 mm
03:03 AM 67.1°F19.5°C 66.0°F18.9°C 96% Calm Calm -- 30.00 in1015.9 mb 0.00 in0.0 mm 0.00 in/hr0.0 mm/hr 0.00 in0.0 mm
03:02 AM 67.1°F19.5°C 66.0°F18.9°C 96% Calm Calm -- 29.99 in1015.6 mb 0.00 in0.0 mm 0.00 in/hr0.0 mm/hr 0.00 in0.0 mm
03:01 AM 67.1°F19.5°C 66.0°F18.9°C 96% Calm Calm 0.8 mph1.3 kmh 30.00 in1015.9 mb 0.00 in0.0 mm 0.00 in/hr0.0 mm/hr 0.00 in0.0 mm
03:00 AM 67.1°F19.5°C 66.0°F18.9°C 96% 0.1 mph NW0.2 kmh NW 0.8 mph1.3 kmh 29.99 in1015.6 mb 0.00 in0.0 mm 0.00 in/hr0.0 mm/hr 0.00 in0.0 mm
02:59 AM 67.1°F19.5°C 66.0°F18.9°C 96% 0.1 mph NW0.2 kmh NW 0.8 mph1.3 kmh 30.00 in1015.9 mb 0.00 in0.0 mm 0.00 in/hr0.0 mm/hr 0.00 in0.0 mm
02:58 AM 67.1°F19.5°C 66.0°F18.9°C 96% 0.1 mph NW0.2 kmh NW 0.8 mph1.3 kmh 30.00 in1015.9 mb 0.00 in0.0 mm 0.00 in/hr0.0 mm/hr 0.00 in0.0 mm
02:57 AM 67.1°F19.5°C 66.0°F18.9°C 96% 0.1 mph NW0.2 kmh NW 0.8 mph1.3 kmh 30.00 in1015.9 mb 0.00 in0.0 mm 0.00 in/hr0.0 mm/hr 0.00 in0.0 mm
02:56 AM 67.1°F19.5°C 66.0°F18.9°C 96% 0.2 mph NW0.3 kmh NW 0.8 mph1.3 kmh 30.00 in1015.9 mb 0.00 in0.0 mm 0.00 in/hr0.0 mm/hr 0.00 in0.0 mm
02:55 AM 67.1°F19.5°C 66.0°F18.9°C 96% 0.3 mph NW0.5 kmh NW 1.9 mph3.1 kmh 30.00 in1015.9 mb 0.00 in0.0 mm 0.00 in/hr0.0 mm/hr 0.00 in0.0 mm
02:54 AM 67.1°F19.5°C 66.0°F18.9°C 96% 0.5 mph NW0.8 kmh NW 1.9 mph3.1 kmh 30.00 in1015.9 mb 0.00 in0.0 mm 0.00 in/hr0.0 mm/hr 0.00 in0.0 mm
02:53 AM 67.1°F19.5°C 66.0°F18.9°C 96% 0.7 mph NW1.1 kmh NW 1.9 mph3.1 kmh 30.00 in1015.9 mb 0.00 in0.0 mm 0.00 in/hr0.0 mm/hr 0.00 in0.0 mm
02:52 AM 67.1°F19.5°C 66.0°F18.9°C 96% 0.7 mph NW1.1 kmh NW 1.9 mph3.1 kmh 30.00 in1015.9 mb 0.00 in0.0 mm 0.00 in/hr0.0 mm/hr 0.00 in0.0 mm
02:51 AM 67.1°F19.5°C 66.0°F18.9°C 96% 0.7 mph NW1.1 kmh NW 1.9 mph3.1 kmh 30.00 in1015.9 mb 0.00 in0.0 mm 0.00 in/hr0.0 mm/hr 0.00 in0.0 mm
02:50 AM 67.1°F19.5°C 66.0°F18.9°C 96% 0.6 mph NW1.0 kmh NW 1.9 mph3.1 kmh 30.00 in1015.9 mb 0.00 in0.0 mm 0.00 in/hr0.0 mm/hr 0.00 in0.0 mm
02:49 AM 67.1°F19.5°C 66.0°F18.9°C 96% 0.6 mph NW1.0 kmh NW 1.9 mph3.1 kmh 30.00 in1015.9 mb 0.00 in0.0 mm 0.00 in/hr0.0 mm/hr 0.00 in0.0 mm
02:48 AM 67.1°F19.5°C 66.0°F18.9°C 96% 0.6 mph NW1.0 kmh NW 1.9 mph3.1 kmh 30.00 in1015.9 mb 0.00 in0.0 mm 0.00 in/hr0.0 mm/hr 0.00 in0.0 mm
02:47 AM 67.1°F19.5°C 66.0°F18.9°C 96% 0.7 mph NW1.1 kmh NW 1.9 mph3.1 kmh 30.00 in1015.9 mb 0.00 in0.0 mm 0.00 in/hr0.0 mm/hr 0.00 in0.0 mm
02:46 AM 67.1°F19.5°C 66.0°F18.9°C 96% 0.8 mph NW1.3 kmh NW 1.9 mph3.1 kmh 30.00 in1015.9 mb 0.00 in0.0 mm 0.00 in/hr0.0 mm/hr 0.00 in0.0 mm
02:45 AM 67.1°F19.5°C 66.0°F18.9°C 96% 0.7 mph NW1.1 kmh NW 1.9 mph3.1 kmh 30.00 in1015.9 mb 0.00 in0.0 mm 0.00 in/hr0.0 mm/hr 0.00 in0.0 mm
02:44 AM 67.1°F19.5°C 66.0°F18.9°C 96% 0.6 mph NW1.0 kmh NW 1.9 mph3.1 kmh 30.00 in1015.9 mb 0.00 in0.0 mm 0.00 in/hr0.0 mm/hr 0.00 in0.0 mm
02:43 AM 67.1°F19.5°C 66.0°F18.9°C 96% 0.5 mph NW0.8 kmh NW 1.9 mph3.1 kmh 30.00 in1015.9 mb 0.00 in0.0 mm 0.00 in/hr0.0 mm/hr 0.00 in0.0 mm
02:42 AM 67.1°F19.5°C 66.0°F18.9°C 96% 0.6 mph NW1.0 kmh NW 1.9 mph3.1 kmh 30.00 in1015.9 mb 0.00 in0.0 mm 0.00 in/hr0.0 mm/hr 0.00 in0.0 mm
02:41 AM 67.1°F19.5°C 65.6°F18.7°C 95% 0.7 mph NW1.1 kmh NW 1.9 mph3.1 kmh 30.00 in1015.9 mb 0.00 in0.0 mm 0.00 in/hr0.0 mm/hr 0.00 in0.0 mm
02:40 AM 67.1°F19.5°C 65.6°F18.7°C 95% 0.8 mph NW1.3 kmh NW 1.9 mph3.1 kmh 30.00 in1015.9 mb 0.00 in0.0 mm 0.00 in/hr0.0 mm/hr 0.00 in0.0 mm
02:39 AM 67.1°F19.5°C 65.6°F18.7°C 95% 0.9 mph NW1.4 kmh NW 1.9 mph3.1 kmh 30.00 in1015.9 mb 0.00 in0.0 mm 0.00 in/hr0.0 mm/hr 0.00 in0.0 mm
02:38 AM 67.1°F19.5°C 65.6°F18.7°C 95% 1.0 mph NW1.6 kmh NW 1.9 mph3.1 kmh 30.00 in1015.9 mb 0.00 in0.0 mm 0.00 in/hr0.0 mm/hr 0.00 in0.0 mm
02:37 AM 67.1°F19.5°C 65.6°F18.7°C 95% 0.9 mph NW1.4 kmh NW 1.9 mph3.1 kmh 30.00 in1015.9 mb 0.00 in0.0 mm 0.00 in/hr0.0 mm/hr 0.00 in0.0 mm
02:36 AM 67.1°F19.5°C 65.6°F18.7°C 95% 0.8 mph NW1.3 kmh NW 1.9 mph3.1 kmh 30.00 in1015.9 mb 0.00 in0.0 mm 0.00 in/hr0.0 mm/hr 0.00 in0.0 mm
02:35 AM 67.3°F19.6°C 65.8°F18.8°C 95% 0.7 mph NW1.1 kmh NW 1.9 mph3.1 kmh 30.00 in1015.9 mb 0.00 in0.0 mm 0.00 in/hr0.0 mm/hr 0.00 in0.0 mm
02:34 AM 67.3°F19.6°C 65.8°F18.8°C 95% 0.6 mph NW1.0 kmh NW 1.9 mph3.1 kmh 30.01 in1016.3 mb 0.00 in0.0 mm 0.00 in/hr0.0 mm/hr 0.00 in0.0 mm
02:33 AM 67.3°F19.6°C 65.8°F18.8°C 95% 0.5 mph NW0.8 kmh NW 1.9 mph3.1 kmh 30.00 in1015.9 mb 0.00 in0.0 mm 0.00 in/hr0.0 mm/hr 0.00 in0.0 mm
02:32 AM 67.3°F19.6°C 65.8°F18.8°C 95% 0.5 mph NW0.8 kmh NW 1.9 mph3.1 kmh 30.00 in1015.9 mb 0.00 in0.0 mm 0.00 in/hr0.0 mm/hr 0.00 in0.0 mm
02:31 AM 67.3°F19.6°C 65.8°F18.8°C 95% 0.3 mph NW0.5 kmh NW 0.8 mph1.3 kmh 30.00 in1015.9 mb 0.00 in0.0 mm 0.00 in/hr0.0 mm/hr 0.00 in0.0 mm
02:30 AM 67.5°F19.7°C 66.0°F18.9°C 95% 0.2 mph NW0.3 kmh NW 0.8 mph1.3 kmh 30.00 in1015.9 mb 0.00 in0.0 mm 0.00 in/hr0.0 mm/hr 0.00 in0.0 mm
02:29 AM 67.5°F19.7°C 66.0°F18.9°C 95% 0.1 mph NW0.2 kmh NW 0.8 mph1.3 kmh 30.00 in1015.9 mb 0.00 in0.0 mm 0.00 in/hr0.0 mm/hr 0.00 in0.0 mm
02:28 AM 67.5°F19.7°C 66.0°F18.9°C 95% 0.1 mph NW0.2 kmh NW 0.8 mph1.3 kmh 30.00 in1015.9 mb 0.00 in0.0 mm 0.00 in/hr0.0 mm/hr 0.00 in0.0 mm
02:27 AM 67.5°F19.7°C 66.0°F18.9°C 95% Calm Calm -- 30.00 in1015.9 mb 0.00 in0.0 mm 0.00 in/hr0.0 mm/hr 0.00 in0.0 mm
02:26 AM 67.5°F19.7°C 66.0°F18.9°C 95% Calm Calm -- 30.00 in1015.9 mb 0.00 in0.0 mm 0.00 in/hr0.0 mm/hr 0.00 in0.0 mm
02:25 AM 67.5°F19.7°C 66.0°F18.9°C 95% Calm Calm -- 30.00 in1015.9 mb 0.00 in0.0 mm 0.00 in/hr0.0 mm/hr 0.00 in0.0 mm
02:24 AM 67.6°F19.8°C 66.2°F19.0°C 95% Calm Calm -- 30.00 in1015.9 mb 0.00 in0.0 mm 0.00 in/hr0.0 mm/hr 0.00 in0.0 mm
02:23 AM 67.6°F19.8°C 66.2°F19.0°C 95% Calm Calm -- 30.00 in1015.9 mb 0.00 in0.0 mm 0.00 in/hr0.0 mm/hr 0.00 in0.0 mm
02:22 AM 67.6°F19.8°C 66.2°F19.0°C 95% Calm Calm -- 30.00 in1015.9 mb 0.00 in0.0 mm 0.00 in/hr0.0 mm/hr 0.00 in0.0 mm
02:21 AM 67.6°F19.8°C 66.2°F19.0°C 95% Calm Calm -- 30.00 in1015.9 mb 0.00 in0.0 mm 0.00 in/hr0.0 mm/hr 0.00 in0.0 mm
02:20 AM 67.6°F19.8°C 66.2°F19.0°C 95% Calm Calm -- 30.00 in1015.9 mb 0.00 in0.0 mm 0.00 in/hr0.0 mm/hr 0.00 in0.0 mm
02:19 AM 67.6°F19.8°C 66.2°F19.0°C 95% Calm Calm -- 30.00 in1015.9 mb 0.00 in0.0 mm 0.00 in/hr0.0 mm/hr 0.00 in0.0 mm
02:18 AM 67.6°F19.8°C 66.2°F19.0°C 95% Calm Calm -- 30.00 in1015.9 mb 0.00 in0.0 mm 0.00 in/hr0.0 mm/hr 0.00 in0.0 mm
02:17 AM 67.6°F19.8°C 66.2°F19.0°C 95% Calm Calm -- 30.00 in1015.9 mb 0.00 in0.0 mm 0.00 in/hr0.0 mm/hr 0.00 in0.0 mm
02:16 AM 67.8°F19.9°C 66.4°F19.1°C 95% Calm Calm -- 30.00 in1015.9 mb 0.00 in0.0 mm 0.00 in/hr0.0 mm/hr 0.00 in0.0 mm
02:15 AM 67.8°F19.9°C 66.4°F19.1°C 95% Calm Calm -- 30.00 in1015.9 mb 0.00 in0.0 mm 0.00 in/hr0.0 mm/hr 0.00 in0.0 mm
02:14 AM 67.8°F19.9°C 66.4°F19.1°C 95% Calm Calm -- 30.00 in1015.9 mb 0.00 in0.0 mm 0.00 in/hr0.0 mm/hr 0.00 in0.0 mm
02:13 AM 67.8°F19.9°C 66.4°F19.1°C 95% Calm Calm -- 30.01 in1016.3 mb 0.00 in0.0 mm 0.00 in/hr0.0 mm/hr 0.00 in0.0 mm
02:12 AM 67.8°F19.9°C 66.4°F19.1°C 95% Calm Calm -- 30.01 in1016.3 mb 0.00 in0.0 mm 0.00 in/hr0.0 mm/hr 0.00 in0.0 mm
02:11 AM 67.8°F19.9°C 66.4°F19.1°C 95% Calm Calm -- 30.01 in1016.3 mb 0.00 in0.0 mm 0.00 in/hr0.0 mm/hr 0.00 in0.0 mm
02:10 AM 67.8°F19.9°C 66.4°F19.1°C 95% Calm Calm -- 30.01 in1016.3 mb 0.00 in0.0 mm 0.00 in/hr0.0 mm/hr 0.00 in0.0 mm
02:09 AM 67.8°F19.9°C 66.4°F19.1°C 95% Calm Calm -- 30.01 in1016.3 mb 0.00 in0.0 mm 0.00 in/hr0.0 mm/hr 0.00 in0.0 mm
02:08 AM 67.8°F19.9°C 66.1°F18.9°C 94% Calm Calm -- 30.01 in1016.3 mb 0.00 in0.0 mm 0.00 in/hr0.0 mm/hr 0.00 in0.0 mm
02:07 AM 67.8°F19.9°C 66.1°F18.9°C 94% Calm Calm -- 30.01 in1016.3 mb 0.00 in0.0 mm 0.00 in/hr0.0 mm/hr 0.00 in0.0 mm
02:06 AM 67.8°F19.9°C 66.1°F18.9°C 94% 0.1 mph NW0.2 kmh NW 0.8 mph1.3 kmh 30.01 in1016.3 mb 0.00 in0.0 mm 0.00 in/hr0.0 mm/hr 0.00 in0.0 mm
02:05 AM 67.8°F19.9°C 66.1°F18.9°C 94% 0.1 mph NW0.2 kmh NW 0.8 mph1.3 kmh 30.01 in1016.3 mb 0.00 in0.0 mm 0.00 in/hr0.0 mm/hr 0.00 in0.0 mm
02:04 AM 67.8°F19.9°C 66.1°F18.9°C 94% 0.2 mph NW0.3 kmh NW 0.8 mph1.3 kmh 30.01 in1016.3 mb 0.00 in0.0 mm 0.00 in/hr0.0 mm/hr 0.00 in0.0 mm
02:03 AM 67.8°F19.9°C 66.1°F18.9°C 94% 0.2 mph NW0.3 kmh NW 0.8 mph1.3 kmh 30.01 in1016.3 mb 0.00 in0.0 mm 0.00 in/hr0.0 mm/hr 0.00 in0.0 mm
02:02 AM 67.8°F19.9°C 66.1°F18.9°C 94% 0.2 mph NW0.3 kmh NW 0.8 mph1.3 kmh 30.01 in1016.3 mb 0.00 in0.0 mm 0.00 in/hr0.0 mm/hr 0.00 in0.0 mm
02:01 AM 67.8°F19.9°C 66.1°F18.9°C 94% 0.2 mph NW0.3 kmh NW 0.8 mph1.3 kmh 30.01 in1016.3 mb 0.00 in0.0 mm 0.00 in/hr0.0 mm/hr 0.00 in0.0 mm
02:00 AM 67.8°F19.9°C 66.1°F18.9°C 94% 0.2 mph NW0.3 kmh NW 0.8 mph1.3 kmh 30.02 in1016.6 mb 0.00 in0.0 mm 0.00 in/hr0.0 mm/hr 0.00 in0.0 mm
01:59 AM 68.0°F20.0°C 66.2°F19.0°C 94% 0.2 mph NW0.3 kmh NW 0.8 mph1.3 kmh 30.01 in1016.3 mb 0.00 in0.0 mm 0.00 in/hr0.0 mm/hr 0.00 in0.0 mm
01:58 AM 68.0°F20.0°C 66.2°F19.0°C 94% 0.2 mph NW0.3 kmh NW 0.8 mph1.3 kmh 30.01 in1016.3 mb 0.00 in0.0 mm 0.00 in/hr0.0 mm/hr 0.00 in0.0 mm
01:57 AM 68.0°F20.0°C 66.2°F19.0°C 94% 0.2 mph NW0.3 kmh NW 0.8 mph1.3 kmh 30.02 in1016.6 mb 0.00 in0.0 mm 0.00 in/hr0.0 mm/hr 0.00 in0.0 mm
01:56 AM 68.0°F20.0°C 66.2°F19.0°C 94% 0.3 mph NW0.5 kmh NW 1.9 mph3.1 kmh 30.01 in1016.3 mb 0.00 in0.0 mm 0.00 in/hr0.0 mm/hr 0.00 in0.0 mm
01:55 AM 68.0°F20.0°C 66.2°F19.0°C 94% 0.4 mph NW0.6 kmh NW 1.9 mph3.1 kmh 30.01 in1016.3 mb 0.00 in0.0 mm 0.00 in/hr0.0 mm/hr 0.00 in0.0 mm
01:54 AM 68.0°F20.0°C 66.2°F19.0°C 94% 0.4 mph NW0.6 kmh NW 1.9 mph3.1 kmh 30.02 in1016.6 mb 0.00 in0.0 mm 0.00 in/hr0.0 mm/hr 0.00 in0.0 mm
01:53 AM 68.0°F20.0°C 66.2°F19.0°C 94% 0.4 mph NW0.6 kmh NW 1.9 mph3.1 kmh 30.02 in1016.6 mb 0.00 in0.0 mm 0.00 in/hr0.0 mm/hr 0.00 in0.0 mm
01:52 AM 68.0°F20.0°C 66.2°F19.0°C 94% 0.4 mph NW0.6 kmh NW 1.9 mph3.1 kmh 30.01 in1016.3 mb 0.00 in0.0 mm 0.00 in/hr0.0 mm/hr 0.00 in0.0 mm
01:51 AM 68.0°F20.0°C 66.2°F19.0°C 94% 0.4 mph NW0.6 kmh NW 1.9 mph3.1 kmh 30.01 in1016.3 mb 0.00 in0.0 mm 0.00 in/hr0.0 mm/hr 0.00 in0.0 mm
01:50 AM 68.0°F20.0°C 66.2°F19.0°C 94% 0.4 mph NW0.6 kmh NW 1.9 mph3.1 kmh 30.02 in1016.6 mb 0.00 in0.0 mm 0.00 in/hr0.0 mm/hr 0.00 in0.0 mm
01:49 AM 68.0°F20.0°C 66.2°F19.0°C 94% 0.4 mph NW0.6 kmh NW 1.9 mph3.1 kmh 30.01 in1016.3 mb 0.00 in0.0 mm 0.00 in/hr0.0 mm/hr 0.00 in0.0 mm
01:48 AM 68.0°F20.0°C 66.2°F19.0°C 94% 0.4 mph NW0.6 kmh NW 1.9 mph3.1 kmh 30.02 in1016.6 mb 0.00 in0.0 mm 0.00 in/hr0.0 mm/hr 0.00 in0.0 mm
01:47 AM 68.0°F20.0°C 66.2°F19.0°C 94% 0.4 mph NW0.6 kmh NW 1.9 mph3.1 kmh 30.02 in1016.6 mb 0.00 in0.0 mm 0.00 in/hr0.0 mm/hr 0.00 in0.0 mm
01:46 AM 68.0°F20.0°C 66.2°F19.0°C 94% 0.4 mph NW0.6 kmh NW 1.9 mph3.1 kmh 30.02 in1016.6 mb 0.00 in0.0 mm 0.00 in/hr0.0 mm/hr 0.00 in0.0 mm
01:45 AM 68.0°F20.0°C 66.2°F19.0°C 94% 0.3 mph NNW0.5 kmh NNW 1.9 mph3.1 kmh 30.02 in1016.6 mb 0.00 in0.0 mm 0.00 in/hr0.0 mm/hr 0.00 in0.0 mm
01:44 AM 68.2°F20.1°C 66.4°F19.1°C 94% 0.3 mph N0.5 kmh N 0.8 mph1.3 kmh 30.02 in1016.6 mb 0.00 in0.0 mm 0.00 in/hr0.0 mm/hr 0.00 in0.0 mm
01:43 AM 68.2°F20.1°C 66.4°F19.1°C 94% 0.4 mph N0.6 kmh N 1.9 mph3.1 kmh 30.02 in1016.6 mb 0.00 in0.0 mm 0.00 in/hr0.0 mm/hr 0.00 in0.0 mm
01:42 AM 68.2°F20.1°C 66.4°F19.1°C 94% 0.5 mph N0.8 kmh N 1.9 mph3.1 kmh 30.02 in1016.6 mb 0.00 in0.0 mm 0.00 in/hr0.0 mm/hr 0.00 in0.0 mm
01:41 AM 68.2°F20.1°C 66.4°F19.1°C 94% 0.7 mph NNW1.1 kmh NNW 1.9 mph3.1 kmh 30.02 in1016.6 mb 0.00 in0.0 mm 0.00 in/hr0.0 mm/hr 0.00 in0.0 mm
01:40 AM 68.2°F20.1°C 66.4°F19.1°C 94% 0.9 mph N1.4 kmh N 1.9 mph3.1 kmh 30.02 in1016.6 mb 0.00 in0.0 mm 0.00 in/hr0.0 mm/hr 0.00 in0.0 mm
01:39 AM 68.2°F20.1°C 66.4°F19.1°C 94% 1.0 mph NNW1.6 kmh NNW 1.9 mph3.1 kmh 30.03 in1016.9 mb 0.00 in0.0 mm 0.00 in/hr0.0 mm/hr 0.00 in0.0 mm
01:38 AM 68.2°F20.1°C 66.4°F19.1°C 94% 1.1 mph NNW1.8 kmh NNW 1.9 mph3.1 kmh 30.02 in1016.6 mb 0.00 in0.0 mm 0.00 in/hr0.0 mm/hr 0.00 in0.0 mm
01:37 AM 68.2°F20.1°C 66.4°F19.1°C 94% 1.2 mph NNW1.9 kmh NNW 1.9 mph3.1 kmh 30.02 in1016.6 mb 0.00 in0.0 mm 0.00 in/hr0.0 mm/hr 0.00 in0.0 mm
01:36 AM 68.2°F20.1°C 66.4°F19.1°C 94% 1.2 mph NNW1.9 kmh NNW 1.9 mph3.1 kmh 30.03 in1016.9 mb 0.00 in0.0 mm 0.00 in/hr0.0 mm/hr 0.00 in0.0 mm
01:35 AM 68.2°F20.1°C 66.4°F19.1°C 94% 1.2 mph NW1.9 kmh NW 1.9 mph3.1 kmh 30.03 in1016.9 mb 0.00 in0.0 mm 0.00 in/hr0.0 mm/hr 0.00 in0.0 mm
01:34 AM 68.2°F20.1°C 66.4°F19.1°C 94% 1.3 mph NW2.1 kmh NW 1.9 mph3.1 kmh 30.02 in1016.6 mb 0.00 in0.0 mm 0.00 in/hr0.0 mm/hr 0.00 in0.0 mm
01:33 AM 68.2°F20.1°C 66.4°F19.1°C 94% 1.3 mph NW2.1 kmh NW 1.9 mph3.1 kmh 30.02 in1016.6 mb 0.00 in0.0 mm 0.00 in/hr0.0 mm/hr 0.00 in0.0 mm
01:32 AM 68.2°F20.1°C 66.4°F19.1°C 94% 1.3 mph NW2.1 kmh NW 1.9 mph3.1 kmh 30.02 in1016.6 mb 0.00 in0.0 mm 0.00 in/hr0.0 mm/hr 0.00 in0.0 mm
01:31 AM 68.2°F20.1°C 66.4°F19.1°C 94% 1.2 mph NW1.9 kmh NW 1.9 mph3.1 kmh 30.02 in1016.6 mb 0.00 in0.0 mm 0.00 in/hr0.0 mm/hr 0.00 in0.0 mm
01:30 AM 68.2°F20.1°C 66.4°F19.1°C 94% 1.1 mph NW1.8 kmh NW 1.9 mph3.1 kmh 30.02 in1016.6 mb 0.00 in0.0 mm 0.00 in/hr0.0 mm/hr 0.00 in0.0 mm
01:29 AM 68.2°F20.1°C 66.4°F19.1°C 94% 0.9 mph NW1.4 kmh NW 1.9 mph3.1 kmh 30.02 in1016.6 mb 0.00 in0.0 mm 0.00 in/hr0.0 mm/hr 0.00 in0.0 mm
01:28 AM 68.2°F20.1°C 66.1°F18.9°C 93% 0.9 mph NW1.4 kmh NW 1.9 mph3.1 kmh 30.02 in1016.6 mb 0.00 in0.0 mm 0.00 in/hr0.0 mm/hr 0.00 in0.0 mm
01:27 AM 68.4°F20.2°C 66.6°F19.2°C 94% 0.8 mph NW1.3 kmh NW 1.9 mph3.1 kmh 30.03 in1016.9 mb 0.00 in0.0 mm 0.00 in/hr0.0 mm/hr 0.00 in0.0 mm
01:26 AM 68.4°F20.2°C 66.3°F19.1°C 93% 0.7 mph NW1.1 kmh NW 1.9 mph3.1 kmh 30.02 in1016.6 mb 0.00 in0.0 mm 0.00 in/hr0.0 mm/hr 0.00 in0.0 mm
01:25 AM 68.4°F20.2°C 66.3°F19.1°C 93% 0.6 mph NW1.0 kmh NW 1.9 mph3.1 kmh 30.02 in1016.6 mb 0.00 in0.0 mm 0.00 in/hr0.0 mm/hr 0.00 in0.0 mm
01:24 AM 68.4°F20.2°C 66.3°F19.1°C 93% 0.5 mph NW0.8 kmh NW 1.9 mph3.1 kmh 30.02 in1016.6 mb 0.00 in0.0 mm 0.00 in/hr0.0 mm/hr 0.00 in0.0 mm
01:23 AM 68.4°F20.2°C 66.3°F19.1°C 93% 0.6 mph NW1.0 kmh NW 1.9 mph3.1 kmh 30.02 in1016.6 mb 0.00 in0.0 mm 0.00 in/hr0.0 mm/hr 0.00 in0.0 mm
01:22 AM 68.4°F20.2°C 66.3°F19.1°C 93% 0.6 mph NW1.0 kmh NW 1.9 mph3.1 kmh 30.03 in1016.9 mb 0.00 in0.0 mm 0.00 in/hr0.0 mm/hr 0.00 in0.0 mm
01:21 AM 68.4°F20.2°C 66.3°F19.1°C 93% 0.5 mph NW0.8 kmh NW 1.9 mph3.1 kmh 30.02 in1016.6 mb 0.00 in0.0 mm 0.00 in/hr0.0 mm/hr 0.00 in0.0 mm
01:20 AM 68.4°F20.2°C 66.3°F19.1°C 93% 0.6 mph NW1.0 kmh NW 1.9 mph3.1 kmh 30.02 in1016.6 mb 0.00 in0.0 mm 0.00 in/hr0.0 mm/hr 0.00 in0.0 mm
01:19 AM 68.4°F20.2°C 66.3°F19.1°C 93% 0.7 mph NW1.1 kmh NW 1.9 mph3.1 kmh 30.02 in1016.6 mb 0.00 in0.0 mm 0.00 in/hr0.0 mm/hr 0.00 in0.0 mm
01:18 AM 68.4°F20.2°C 66.3°F19.1°C 93% 0.7 mph NW1.1 kmh NW 1.9 mph3.1 kmh 30.02 in1016.6 mb 0.00 in0.0 mm 0.00 in/hr0.0 mm/hr 0.00 in0.0 mm
01:17 AM 68.4°F20.2°C 66.3°F19.1°C 93% 0.9 mph NW1.4 kmh NW 1.9 mph3.1 kmh 30.02 in1016.6 mb 0.00 in0.0 mm 0.00 in/hr0.0 mm/hr 0.00 in0.0 mm
01:16 AM 68.4°F20.2°C 66.3°F19.1°C 93% 1.1 mph NW1.8 kmh NW 1.9 mph3.1 kmh 30.03 in1016.9 mb 0.00 in0.0 mm 0.00 in/hr0.0 mm/hr 0.00 in0.0 mm
01:15 AM 68.4°F20.2°C 66.3°F19.1°C 93% 1.2 mph NW1.9 kmh NW 1.9 mph3.1 kmh 30.02 in1016.6 mb 0.00 in0.0 mm 0.00 in/hr0.0 mm/hr 0.00 in0.0 mm
01:14 AM 68.4°F20.2°C 66.3°F19.1°C 93% 1.3 mph NW2.1 kmh NW 1.9 mph3.1 kmh 30.03 in1016.9 mb 0.00 in0.0 mm 0.00 in/hr0.0 mm/hr 0.00 in0.0 mm
01:13 AM 68.4°F20.2°C 66.3°F19.1°C 93% 1.4 mph NW2.3 kmh NW 1.9 mph3.1 kmh 30.03 in1016.9 mb 0.00 in0.0 mm 0.00 in/hr0.0 mm/hr 0.00 in0.0 mm
01:12 AM 68.5°F20.3°C 66.5°F19.2°C 93% 1.4 mph NW2.3 kmh NW 1.9 mph3.1 kmh 30.03 in1016.9 mb 0.00 in0.0 mm 0.00 in/hr0.0 mm/hr 0.00 in0.0 mm
01:11 AM 68.5°F20.3°C 66.5°F19.2°C 93% 1.5 mph NW2.4 kmh NW 1.9 mph3.1 kmh 30.02 in1016.6 mb 0.00 in0.0 mm 0.00 in/hr0.0 mm/hr 0.00 in0.0 mm
01:10 AM 68.5°F20.3°C 66.5°F19.2°C 93% 1.5 mph NW2.4 kmh NW 1.9 mph3.1 kmh 30.02 in1016.6 mb 0.00 in0.0 mm 0.00 in/hr0.0 mm/hr 0.00 in0.0 mm
01:09 AM 68.5°F20.3°C 66.5°F19.2°C 93% 1.6 mph NW2.6 kmh NW 1.9 mph3.1 kmh 30.03 in1016.9 mb 0.00 in0.0 mm 0.00 in/hr0.0 mm/hr 0.00 in0.0 mm
01:08 AM 68.5°F20.3°C 66.5°F19.2°C 93% 1.7 mph NW2.7 kmh NW 1.9 mph3.1 kmh 30.02 in1016.6 mb 0.00 in0.0 mm 0.00 in/hr0.0 mm/hr 0.00 in0.0 mm
01:07 AM 68.5°F20.3°C 66.2°F19.0°C 92% 1.8 mph NW2.9 kmh NW 1.9 mph3.1 kmh 30.03 in1016.9 mb 0.00 in0.0 mm 0.00 in/hr0.0 mm/hr 0.00 in0.0 mm
01:06 AM 68.5°F20.3°C 66.2°F19.0°C 92% 1.8 mph NW2.9 kmh NW 1.9 mph3.1 kmh 30.03 in1016.9 mb 0.00 in0.0 mm 0.00 in/hr0.0 mm/hr 0.00 in0.0 mm
01:05 AM 68.5°F20.3°C 66.2°F19.0°C 92% 1.8 mph NW2.9 kmh NW 1.9 mph3.1 kmh 30.03 in1016.9 mb 0.00 in0.0 mm 0.00 in/hr0.0 mm/hr 0.00 in0.0 mm
01:04 AM 68.5°F20.3°C 66.2°F19.0°C 92% 1.8 mph NW2.9 kmh NW 1.9 mph3.1 kmh 30.03 in1016.9 mb 0.00 in0.0 mm 0.00 in/hr0.0 mm/hr 0.00 in0.0 mm
01:03 AM 68.5°F20.3°C 66.2°F19.0°C 92% 1.7 mph NW2.7 kmh NW 1.9 mph3.1 kmh 30.03 in1016.9 mb 0.00 in0.0 mm 0.00 in/hr0.0 mm/hr 0.00 in0.0 mm
01:02 AM 68.5°F20.3°C 66.2°F19.0°C 92% 1.6 mph NW2.6 kmh NW 1.9 mph3.1 kmh 30.03 in1016.9 mb 0.00 in0.0 mm 0.00 in/hr0.0 mm/hr 0.00 in0.0 mm
01:01 AM 68.5°F20.3°C 66.2°F19.0°C 92% 1.4 mph NW2.3 kmh NW 1.9 mph3.1 kmh 30.03 in1016.9 mb 0.00 in0.0 mm 0.00 in/hr0.0 mm/hr 0.00 in0.0 mm
01:00 AM 68.5°F20.3°C 66.2°F19.0°C 92% 1.3 mph NW2.1 kmh NW 1.9 mph3.1 kmh 30.03 in1016.9 mb 0.00 in0.0 mm 0.00 in/hr0.0 mm/hr 0.00 in0.0 mm
12:59 AM 68.7°F20.4°C 66.3°F19.1°C 92% 1.2 mph NW1.9 kmh NW 1.9 mph3.1 kmh 30.03 in1016.9 mb 0.00 in0.0 mm 0.00 in/hr0.0 mm/hr 0.00 in0.0 mm
12:58 AM 68.7°F20.4°C 66.3°F19.1°C 92% 1.0 mph NW1.6 kmh NW 1.9 mph3.1 kmh 30.03 in1016.9 mb 0.00 in0.0 mm 0.00 in/hr0.0 mm/hr 0.00 in0.0 mm
12:57 AM 68.7°F20.4°C 66.3°F19.1°C 92% 0.8 mph NW1.3 kmh NW 1.9 mph3.1 kmh 30.03 in1016.9 mb 0.00 in0.0 mm 0.00 in/hr0.0 mm/hr 0.00 in0.0 mm
12:56 AM 68.7°F20.4°C 66.3°F19.1°C 92% 0.7 mph NW1.1 kmh NW 1.9 mph3.1 kmh 30.03 in1016.9 mb 0.00 in0.0 mm 0.00 in/hr0.0 mm/hr 0.00 in0.0 mm
12:55 AM 68.7°F20.4°C 66.3°F19.1°C 92% 0.5 mph NW0.8 kmh NW 1.9 mph3.1 kmh 30.03 in1016.9 mb 0.00 in0.0 mm 0.00 in/hr0.0 mm/hr 0.00 in0.0 mm
12:54 AM 68.7°F20.4°C 66.3°F19.1°C 92% 0.3 mph NW0.5 kmh NW 0.8 mph1.3 kmh 30.03 in1016.9 mb 0.00 in0.0 mm 0.00 in/hr0.0 mm/hr 0.00 in0.0 mm
12:53 AM 68.7°F20.4°C 66.3°F19.1°C 92% 0.3 mph NW0.5 kmh NW 0.8 mph1.3 kmh 30.03 in1016.9 mb 0.00 in0.0 mm 0.00 in/hr0.0 mm/hr 0.00 in0.0 mm
12:52 AM 68.7°F20.4°C 66.3°F19.1°C 92% 0.4 mph NW0.6 kmh NW 1.9 mph3.1 kmh 30.03 in1016.9 mb 0.00 in0.0 mm 0.00 in/hr0.0 mm/hr 0.00 in0.0 mm
12:51 AM 68.7°F20.4°C 66.3°F19.1°C 92% 0.4 mph NW0.6 kmh NW 1.9 mph3.1 kmh 30.03 in1016.9 mb 0.00 in0.0 mm 0.00 in/hr0.0 mm/hr 0.00 in0.0 mm
12:50 AM 68.7°F20.4°C 66.3°F19.1°C 92% 0.6 mph NW1.0 kmh NW 1.9 mph3.1 kmh 30.03 in1016.9 mb 0.00 in0.0 mm 0.00 in/hr0.0 mm/hr 0.00 in0.0 mm
12:49 AM 68.7°F20.4°C 66.3°F19.1°C 92% 0.8 mph NW1.3 kmh NW 1.9 mph3.1 kmh 30.03 in1016.9 mb 0.00 in0.0 mm 0.00 in/hr0.0 mm/hr 0.00 in0.0 mm
12:48 AM 68.7°F20.4°C 66.3°F19.1°C 92% 0.9 mph NW1.4 kmh NW 1.9 mph3.1 kmh 30.03 in1016.9 mb 0.00 in0.0 mm 0.00 in/hr0.0 mm/hr 0.00 in0.0 mm
12:47 AM 68.7°F20.4°C 66.3°F19.1°C 92% 1.0 mph NW1.6 kmh NW 1.9 mph3.1 kmh 30.03 in1016.9 mb 0.00 in0.0 mm 0.00 in/hr0.0 mm/hr 0.00 in0.0 mm
12:46 AM 68.7°F20.4°C 66.3°F19.1°C 92% 1.0 mph NW1.6 kmh NW 1.9 mph3.1 kmh 30.03 in1016.9 mb 0.00 in0.0 mm 0.00 in/hr0.0 mm/hr 0.00 in0.0 mm
12:45 AM 68.7°F20.4°C 66.3°F19.1°C 92% 1.0 mph NW1.6 kmh NW 1.9 mph3.1 kmh 30.03 in1016.9 mb 0.00 in0.0 mm 0.00 in/hr0.0 mm/hr 0.00 in0.0 mm
12:44 AM 68.7°F20.4°C 66.3°F19.1°C 92% 1.1 mph NW1.8 kmh NW 1.9 mph3.1 kmh 30.03 in1016.9 mb 0.00 in0.0 mm 0.00 in/hr0.0 mm/hr 0.00 in0.0 mm
12:43 AM 68.7°F20.4°C 66.3°F19.1°C 92% 1.0 mph NW1.6 kmh NW 1.9 mph3.1 kmh 30.03 in1016.9 mb 0.00 in0.0 mm 0.00 in/hr0.0 mm/hr 0.00 in0.0 mm
12:42 AM 68.9°F20.5°C 66.5°F19.2°C 92% 1.0 mph NNW1.6 kmh NNW 1.9 mph3.1 kmh 30.03 in1016.9 mb 0.00 in0.0 mm 0.00 in/hr0.0 mm/hr 0.00 in0.0 mm
12:41 AM 68.9°F20.5°C 66.5°F19.2°C 92% 0.9 mph NNW1.4 kmh NNW 1.9 mph3.1 kmh 30.03 in1016.9 mb 0.00 in0.0 mm 0.00 in/hr0.0 mm/hr 0.00 in0.0 mm
12:40 AM 68.9°F20.5°C 66.5°F19.2°C 92% 0.8 mph N1.3 kmh N 1.9 mph3.1 kmh 30.03 in1016.9 mb 0.00 in0.0 mm 0.00 in/hr0.0 mm/hr 0.00 in0.0 mm
12:39 AM 68.9°F20.5°C 66.5°F19.2°C 92% 0.8 mph N1.3 kmh N 1.9 mph3.1 kmh 30.03 in1016.9 mb 0.00 in0.0 mm 0.00 in/hr0.0 mm/hr 0.00 in0.0 mm
12:38 AM 68.9°F20.5°C 66.5°F19.2°C 92% 0.8 mph N1.3 kmh N 1.9 mph3.1 kmh 30.03 in1016.9 mb 0.00 in0.0 mm 0.00 in/hr0.0 mm/hr 0.00 in0.0 mm
12:37 AM 68.9°F20.5°C 66.5°F19.2°C 92% 0.8 mph N1.3 kmh N 1.9 mph3.1 kmh 30.03 in1016.9 mb 0.00 in0.0 mm 0.00 in/hr0.0 mm/hr 0.00 in0.0 mm
12:36 AM 68.9°F20.5°C 66.5°F19.2°C 92% 0.8 mph N1.3 kmh N 1.9 mph3.1 kmh 30.03 in1016.9 mb 0.00 in0.0 mm 0.00 in/hr0.0 mm/hr 0.00 in0.0 mm
12:35 AM 68.9°F20.5°C 66.5°F19.2°C 92% 0.9 mph N1.4 kmh N 1.9 mph3.1 kmh 30.03 in1016.9 mb 0.00 in0.0 mm 0.00 in/hr0.0 mm/hr 0.00 in0.0 mm
12:34 AM 68.9°F20.5°C 66.5°F19.2°C 92% 0.9 mph N1.4 kmh N 1.9 mph3.1 kmh 30.03 in1016.9 mb 0.00 in0.0 mm 0.00 in/hr0.0 mm/hr 0.00 in0.0 mm
12:33 AM 68.9°F20.5°C 66.5°F19.2°C 92% 1.0 mph N1.6 kmh N 1.9 mph3.1 kmh 30.03 in1016.9 mb 0.00 in0.0 mm 0.00 in/hr0.0 mm/hr 0.00 in0.0 mm
12:32 AM 68.9°F20.5°C 66.5°F19.2°C 92% 1.0 mph N1.6 kmh N 1.9 mph3.1 kmh 30.03 in1016.9 mb 0.00 in0.0 mm 0.00 in/hr0.0 mm/hr 0.00 in0.0 mm
12:31 AM 68.9°F20.5°C 66.5°F19.2°C 92% 1.0 mph N1.6 kmh N 1.9 mph3.1 kmh 30.04 in1017.3 mb 0.00 in0.0 mm 0.00 in/hr0.0 mm/hr 0.00 in0.0 mm
12:30 AM 68.9°F20.5°C 66.2°F19.0°C 91% 1.0 mph N1.6 kmh N 1.9 mph3.1 kmh 30.04 in1017.3 mb 0.00 in0.0 mm 0.00 in/hr0.0 mm/hr 0.00 in0.0 mm
12:29 AM 68.9°F20.5°C 66.2°F19.0°C 91% 1.0 mph NNW1.6 kmh NNW 1.9 mph3.1 kmh 30.03 in1016.9 mb 0.00 in0.0 mm 0.00 in/hr0.0 mm/hr 0.00 in0.0 mm
12:28 AM 69.1°F20.6°C 66.4°F19.1°C 91% 1.0 mph NNW1.6 kmh NNW 1.9 mph3.1 kmh 30.04 in1017.3 mb 0.00 in0.0 mm 0.00 in/hr0.0 mm/hr 0.00 in0.0 mm
12:27 AM 69.1°F20.6°C 66.4°F19.1°C 91% 1.0 mph NNW1.6 kmh NNW 1.9 mph3.1 kmh 30.03 in1016.9 mb 0.00 in0.0 mm 0.00 in/hr0.0 mm/hr 0.00 in0.0 mm
12:26 AM 69.1°F20.6°C 66.4°F19.1°C 91% 0.9 mph NNW1.4 kmh NNW 1.9 mph3.1 kmh 30.03 in1016.9 mb 0.00 in0.0 mm 0.00 in/hr0.0 mm/hr 0.00 in0.0 mm
12:25 AM 69.1°F20.6°C 66.4°F19.1°C 91% 0.8 mph NW1.3 kmh NW 1.9 mph3.1 kmh 30.